<?xml version="1.0" encoding="UTF-8" standalone="no" ?>
<gpx xmlns="http://www.topografix.com/GPX/1/1" xmlns:xsi="http://www.w3.org/2001/XMLSchema-instance" xsi:schemaLocation="http://www.topografix.com/GPX/1/1 http://www.topografix.com/GPX/1/1/gpx.xsd" version="1.1" creator="VisuGPX - https://www.visugpx.com">
  <metadata>
    <name>CO longue distance correncon</name>
    <desc><![CDATA[longue distance dans le cadre de la Verta CO 2012]]></desc>
  </metadata>
  <trk>
    <name><![CDATA[co correncon]]></name>
    <trkseg>
      <trkpt lat="45.01987" lon="5.50948">
        <ele>1207.4000244141</ele>
        <time>2012-07-08T08:25:50.000Z</time>
      </trkpt>
      <trkpt lat="45.01987" lon="5.50947">
        <ele>1207</ele>
        <time>2012-07-08T08:25:51.000Z</time>
      </trkpt>
      <trkpt lat="45.01986" lon="5.50943">
        <ele>1206.4000244141</ele>
        <time>2012-07-08T08:25:53.000Z</time>
      </trkpt>
      <trkpt lat="45.01983" lon="5.50933">
        <ele>1206.4000244141</ele>
        <time>2012-07-08T08:25:57.000Z</time>
      </trkpt>
      <trkpt lat="45.01971" lon="5.50919">
        <ele>1208.8000488281</ele>
        <time>2012-07-08T08:26:04.000Z</time>
      </trkpt>
      <trkpt lat="45.01963" lon="5.50905">
        <ele>1211.1999511719</ele>
        <time>2012-07-08T08:26:09.000Z</time>
      </trkpt>
      <trkpt lat="45.01959" lon="5.509">
        <ele>1215.1999511719</ele>
        <time>2012-07-08T08:26:11.000Z</time>
      </trkpt>
      <trkpt lat="45.01946" lon="5.50893">
        <ele>1221.4000244141</ele>
        <time>2012-07-08T08:26:17.000Z</time>
      </trkpt>
      <trkpt lat="45.01943" lon="5.50891">
        <ele>1221.4000244141</ele>
        <time>2012-07-08T08:26:18.000Z</time>
      </trkpt>
      <trkpt lat="45.0193" lon="5.50879">
        <ele>1221.4000244141</ele>
        <time>2012-07-08T08:26:23.000Z</time>
      </trkpt>
      <trkpt lat="45.01919" lon="5.50875">
        <ele>1221</ele>
        <time>2012-07-08T08:26:27.000Z</time>
      </trkpt>
      <trkpt lat="45.01911" lon="5.50877">
        <ele>1219</ele>
        <time>2012-07-08T08:26:32.000Z</time>
      </trkpt>
      <trkpt lat="45.019" lon="5.50879">
        <ele>1219</ele>
        <time>2012-07-08T08:26:36.000Z</time>
      </trkpt>
      <trkpt lat="45.0189" lon="5.50882">
        <ele>1219</ele>
        <time>2012-07-08T08:26:40.000Z</time>
      </trkpt>
      <trkpt lat="45.01878" lon="5.50885">
        <ele>1219.4000244141</ele>
        <time>2012-07-08T08:26:44.000Z</time>
      </trkpt>
      <trkpt lat="45.01875" lon="5.50885">
        <ele>1219.4000244141</ele>
        <time>2012-07-08T08:26:45.000Z</time>
      </trkpt>
      <trkpt lat="45.01859" lon="5.50879">
        <ele>1223.4000244141</ele>
        <time>2012-07-08T08:26:51.000Z</time>
      </trkpt>
      <trkpt lat="45.01846" lon="5.50875">
        <ele>1224.1999511719</ele>
        <time>2012-07-08T08:26:55.000Z</time>
      </trkpt>
      <trkpt lat="45.01831" lon="5.50871">
        <ele>1222.8000488281</ele>
        <time>2012-07-08T08:26:59.000Z</time>
      </trkpt>
      <trkpt lat="45.01813" lon="5.50863">
        <ele>1221</ele>
        <time>2012-07-08T08:27:04.000Z</time>
      </trkpt>
      <trkpt lat="45.01802" lon="5.50851">
        <ele>1220</ele>
        <time>2012-07-08T08:27:08.000Z</time>
      </trkpt>
      <trkpt lat="45.0179" lon="5.50839">
        <ele>1220</ele>
        <time>2012-07-08T08:27:12.000Z</time>
      </trkpt>
      <trkpt lat="45.01774" lon="5.50831">
        <ele>1220.4000244141</ele>
        <time>2012-07-08T08:27:17.000Z</time>
      </trkpt>
      <trkpt lat="45.01765" lon="5.50834">
        <ele>1220.4000244141</ele>
        <time>2012-07-08T08:27:20.000Z</time>
      </trkpt>
      <trkpt lat="45.01747" lon="5.5083">
        <ele>1220</ele>
        <time>2012-07-08T08:27:26.000Z</time>
      </trkpt>
      <trkpt lat="45.0173" lon="5.50823">
        <ele>1221</ele>
        <time>2012-07-08T08:27:31.000Z</time>
      </trkpt>
      <trkpt lat="45.01712" lon="5.50819">
        <ele>1221.8000488281</ele>
        <time>2012-07-08T08:27:36.000Z</time>
      </trkpt>
      <trkpt lat="45.01693" lon="5.50814">
        <ele>1221.8000488281</ele>
        <time>2012-07-08T08:27:41.000Z</time>
      </trkpt>
      <trkpt lat="45.01679" lon="5.5081">
        <ele>1221.8000488281</ele>
        <time>2012-07-08T08:27:45.000Z</time>
      </trkpt>
      <trkpt lat="45.01665" lon="5.50809">
        <ele>1221.4000244141</ele>
        <time>2012-07-08T08:27:49.000Z</time>
      </trkpt>
      <trkpt lat="45.0165" lon="5.50812">
        <ele>1221.4000244141</ele>
        <time>2012-07-08T08:27:53.000Z</time>
      </trkpt>
      <trkpt lat="45.01643" lon="5.50811">
        <ele>1220.4000244141</ele>
        <time>2012-07-08T08:27:55.000Z</time>
      </trkpt>
      <trkpt lat="45.01632" lon="5.50817">
        <ele>1218</ele>
        <time>2012-07-08T08:27:59.000Z</time>
      </trkpt>
      <trkpt lat="45.0161" lon="5.50825">
        <ele>1216.1999511719</ele>
        <time>2012-07-08T08:28:05.000Z</time>
      </trkpt>
      <trkpt lat="45.01593" lon="5.50815">
        <ele>1216.5999755859</ele>
        <time>2012-07-08T08:28:11.000Z</time>
      </trkpt>
      <trkpt lat="45.01581" lon="5.5081">
        <ele>1218</ele>
        <time>2012-07-08T08:28:15.000Z</time>
      </trkpt>
      <trkpt lat="45.01567" lon="5.50808">
        <ele>1220</ele>
        <time>2012-07-08T08:28:19.000Z</time>
      </trkpt>
      <trkpt lat="45.0155" lon="5.50801">
        <ele>1221</ele>
        <time>2012-07-08T08:28:25.000Z</time>
      </trkpt>
      <trkpt lat="45.01537" lon="5.508">
        <ele>1221.4000244141</ele>
        <time>2012-07-08T08:28:29.000Z</time>
      </trkpt>
      <trkpt lat="45.01525" lon="5.50795">
        <ele>1222.8000488281</ele>
        <time>2012-07-08T08:28:33.000Z</time>
      </trkpt>
      <trkpt lat="45.01512" lon="5.50789">
        <ele>1225.1999511719</ele>
        <time>2012-07-08T08:28:37.000Z</time>
      </trkpt>
      <trkpt lat="45.01499" lon="5.50791">
        <ele>1225.1999511719</ele>
        <time>2012-07-08T08:28:41.000Z</time>
      </trkpt>
      <trkpt lat="45.01486" lon="5.50789">
        <ele>1227.1999511719</ele>
        <time>2012-07-08T08:28:45.000Z</time>
      </trkpt>
      <trkpt lat="45.01472" lon="5.50785">
        <ele>1226.1999511719</ele>
        <time>2012-07-08T08:28:49.000Z</time>
      </trkpt>
      <trkpt lat="45.01457" lon="5.50773">
        <ele>1226.5999755859</ele>
        <time>2012-07-08T08:28:54.000Z</time>
      </trkpt>
      <trkpt lat="45.01442" lon="5.5077">
        <ele>1226.5999755859</ele>
        <time>2012-07-08T08:28:58.000Z</time>
      </trkpt>
      <trkpt lat="45.01424" lon="5.50774">
        <ele>1230</ele>
        <time>2012-07-08T08:29:03.000Z</time>
      </trkpt>
      <trkpt lat="45.01413" lon="5.50776">
        <ele>1229</ele>
        <time>2012-07-08T08:29:07.000Z</time>
      </trkpt>
      <trkpt lat="45.01403" lon="5.50769">
        <ele>1226.5999755859</ele>
        <time>2012-07-08T08:29:11.000Z</time>
      </trkpt>
      <trkpt lat="45.01388" lon="5.50764">
        <ele>1225.8000488281</ele>
        <time>2012-07-08T08:29:16.000Z</time>
      </trkpt>
      <trkpt lat="45.01373" lon="5.50756">
        <ele>1228.1999511719</ele>
        <time>2012-07-08T08:29:21.000Z</time>
      </trkpt>
      <trkpt lat="45.01366" lon="5.50759">
        <ele>1229</ele>
        <time>2012-07-08T08:29:24.000Z</time>
      </trkpt>
      <trkpt lat="45.01362" lon="5.50762">
        <ele>1227.5999755859</ele>
        <time>2012-07-08T08:29:26.000Z</time>
      </trkpt>
      <trkpt lat="45.01353" lon="5.50757">
        <ele>1227.1999511719</ele>
        <time>2012-07-08T08:29:30.000Z</time>
      </trkpt>
      <trkpt lat="45.01345" lon="5.50748">
        <ele>1228.1999511719</ele>
        <time>2012-07-08T08:29:34.000Z</time>
      </trkpt>
      <trkpt lat="45.01336" lon="5.50733">
        <ele>1228.5999755859</ele>
        <time>2012-07-08T08:29:38.000Z</time>
      </trkpt>
      <trkpt lat="45.01326" lon="5.50717">
        <ele>1234.8000488281</ele>
        <time>2012-07-08T08:29:43.000Z</time>
      </trkpt>
      <trkpt lat="45.01324" lon="5.50714">
        <ele>1236.1999511719</ele>
        <time>2012-07-08T08:29:44.000Z</time>
      </trkpt>
      <trkpt lat="45.01319" lon="5.50701">
        <ele>1239.5999755859</ele>
        <time>2012-07-08T08:29:48.000Z</time>
      </trkpt>
      <trkpt lat="45.01316" lon="5.5069">
        <ele>1244</ele>
        <time>2012-07-08T08:29:51.000Z</time>
      </trkpt>
      <trkpt lat="45.01312" lon="5.50677">
        <ele>1246.4000244141</ele>
        <time>2012-07-08T08:29:56.000Z</time>
      </trkpt>
      <trkpt lat="45.01311" lon="5.50665">
        <ele>1245.4000244141</ele>
        <time>2012-07-08T08:30:00.000Z</time>
      </trkpt>
      <trkpt lat="45.01302" lon="5.50657">
        <ele>1246.4000244141</ele>
        <time>2012-07-08T08:30:05.000Z</time>
      </trkpt>
      <trkpt lat="45.013" lon="5.50654">
        <ele>1246</ele>
        <time>2012-07-08T08:30:06.000Z</time>
      </trkpt>
      <trkpt lat="45.01295" lon="5.50646">
        <ele>1245</ele>
        <time>2012-07-08T08:30:10.000Z</time>
      </trkpt>
      <trkpt lat="45.01283" lon="5.50641">
        <ele>1244.4000244141</ele>
        <time>2012-07-08T08:30:15.000Z</time>
      </trkpt>
      <trkpt lat="45.01278" lon="5.50639">
        <ele>1244.4000244141</ele>
        <time>2012-07-08T08:30:18.000Z</time>
      </trkpt>
      <trkpt lat="45.01267" lon="5.50637">
        <ele>1246.8000488281</ele>
        <time>2012-07-08T08:30:24.000Z</time>
      </trkpt>
      <trkpt lat="45.01259" lon="5.50635">
        <ele>1247.4000244141</ele>
        <time>2012-07-08T08:30:30.000Z</time>
      </trkpt>
      <trkpt lat="45.01254" lon="5.50629">
        <ele>1247.8000488281</ele>
        <time>2012-07-08T08:30:36.000Z</time>
      </trkpt>
      <trkpt lat="45.0125" lon="5.50623">
        <ele>1247.4000244141</ele>
        <time>2012-07-08T08:30:41.000Z</time>
      </trkpt>
      <trkpt lat="45.01243" lon="5.50615">
        <ele>1251.5999755859</ele>
        <time>2012-07-08T08:30:46.000Z</time>
      </trkpt>
      <trkpt lat="45.01239" lon="5.50614">
        <ele>1253.5999755859</ele>
        <time>2012-07-08T08:30:48.000Z</time>
      </trkpt>
      <trkpt lat="45.01234" lon="5.50613">
        <ele>1255</ele>
        <time>2012-07-08T08:30:51.000Z</time>
      </trkpt>
      <trkpt lat="45.01231" lon="5.50611">
        <ele>1253.5999755859</ele>
        <time>2012-07-08T08:30:56.000Z</time>
      </trkpt>
      <trkpt lat="45.0123" lon="5.50614">
        <ele>1251.5999755859</ele>
        <time>2012-07-08T08:30:59.000Z</time>
      </trkpt>
      <trkpt lat="45.01231" lon="5.50617">
        <ele>1252.5999755859</ele>
        <time>2012-07-08T08:31:01.000Z</time>
      </trkpt>
      <trkpt lat="45.01223" lon="5.50634">
        <ele>1251.5999755859</ele>
        <time>2012-07-08T08:31:07.000Z</time>
      </trkpt>
      <trkpt lat="45.01222" lon="5.5064">
        <ele>1251.5999755859</ele>
        <time>2012-07-08T08:31:13.000Z</time>
      </trkpt>
      <trkpt lat="45.01207" lon="5.50644">
        <ele>1252.1999511719</ele>
        <time>2012-07-08T08:31:18.000Z</time>
      </trkpt>
      <trkpt lat="45.01198" lon="5.50648">
        <ele>1251.1999511719</ele>
        <time>2012-07-08T08:31:22.000Z</time>
      </trkpt>
      <trkpt lat="45.01196" lon="5.50649">
        <ele>1250.8000488281</ele>
        <time>2012-07-08T08:31:23.000Z</time>
      </trkpt>
      <trkpt lat="45.01187" lon="5.50653">
        <ele>1250.1999511719</ele>
        <time>2012-07-08T08:31:27.000Z</time>
      </trkpt>
      <trkpt lat="45.01183" lon="5.50639">
        <ele>1254</ele>
        <time>2012-07-08T08:31:32.000Z</time>
      </trkpt>
      <trkpt lat="45.01182" lon="5.50637">
        <ele>1254</ele>
        <time>2012-07-08T08:31:35.000Z</time>
      </trkpt>
      <trkpt lat="45.01177" lon="5.50638">
        <ele>1254.5999755859</ele>
        <time>2012-07-08T08:31:42.000Z</time>
      </trkpt>
      <trkpt lat="45.01172" lon="5.50635">
        <ele>1254.5999755859</ele>
        <time>2012-07-08T08:31:47.000Z</time>
      </trkpt>
      <trkpt lat="45.01168" lon="5.50637">
        <ele>1255.5999755859</ele>
        <time>2012-07-08T08:31:51.000Z</time>
      </trkpt>
      <trkpt lat="45.01158" lon="5.50634">
        <ele>1255</ele>
        <time>2012-07-08T08:31:56.000Z</time>
      </trkpt>
      <trkpt lat="45.01155" lon="5.50632">
        <ele>1255.5999755859</ele>
        <time>2012-07-08T08:31:58.000Z</time>
      </trkpt>
      <trkpt lat="45.01145" lon="5.50618">
        <ele>1260.4000244141</ele>
        <time>2012-07-08T08:32:04.000Z</time>
      </trkpt>
      <trkpt lat="45.01139" lon="5.50613">
        <ele>1258.8000488281</ele>
        <time>2012-07-08T08:32:08.000Z</time>
      </trkpt>
      <trkpt lat="45.01128" lon="5.50611">
        <ele>1258.4000244141</ele>
        <time>2012-07-08T08:32:12.000Z</time>
      </trkpt>
      <trkpt lat="45.01125" lon="5.50615">
        <ele>1261.1999511719</ele>
        <time>2012-07-08T08:32:17.000Z</time>
      </trkpt>
      <trkpt lat="45.0112" lon="5.50613">
        <ele>1263.5999755859</ele>
        <time>2012-07-08T08:32:22.000Z</time>
      </trkpt>
      <trkpt lat="45.01113" lon="5.50606">
        <ele>1263.1999511719</ele>
        <time>2012-07-08T08:32:26.000Z</time>
      </trkpt>
      <trkpt lat="45.01103" lon="5.50601">
        <ele>1262.8000488281</ele>
        <time>2012-07-08T08:32:33.000Z</time>
      </trkpt>
      <trkpt lat="45.01097" lon="5.50602">
        <ele>1260.8000488281</ele>
        <time>2012-07-08T08:32:36.000Z</time>
      </trkpt>
      <trkpt lat="45.01091" lon="5.50602">
        <ele>1258.8000488281</ele>
        <time>2012-07-08T08:32:40.000Z</time>
      </trkpt>
      <trkpt lat="45.0109" lon="5.50604">
        <ele>1255.5999755859</ele>
        <time>2012-07-08T08:32:47.000Z</time>
      </trkpt>
      <trkpt lat="45.01089" lon="5.50606">
        <ele>1256.4000244141</ele>
        <time>2012-07-08T08:32:54.000Z</time>
      </trkpt>
      <trkpt lat="45.01078" lon="5.50601">
        <ele>1258.4000244141</ele>
        <time>2012-07-08T08:33:00.000Z</time>
      </trkpt>
      <trkpt lat="45.01074" lon="5.50603">
        <ele>1258.8000488281</ele>
        <time>2012-07-08T08:33:03.000Z</time>
      </trkpt>
      <trkpt lat="45.0107" lon="5.506">
        <ele>1258.8000488281</ele>
        <time>2012-07-08T08:33:05.000Z</time>
      </trkpt>
      <trkpt lat="45.01059" lon="5.5059">
        <ele>1260.4000244141</ele>
        <time>2012-07-08T08:33:10.000Z</time>
      </trkpt>
      <trkpt lat="45.01054" lon="5.50588">
        <ele>1259.8000488281</ele>
        <time>2012-07-08T08:33:12.000Z</time>
      </trkpt>
      <trkpt lat="45.0104" lon="5.50583">
        <ele>1264.5999755859</ele>
        <time>2012-07-08T08:33:18.000Z</time>
      </trkpt>
      <trkpt lat="45.01036" lon="5.50576">
        <ele>1265.5999755859</ele>
        <time>2012-07-08T08:33:23.000Z</time>
      </trkpt>
      <trkpt lat="45.01035" lon="5.50574">
        <ele>1266</ele>
        <time>2012-07-08T08:33:26.000Z</time>
      </trkpt>
      <trkpt lat="45.01033" lon="5.50569">
        <ele>1268</ele>
        <time>2012-07-08T08:33:32.000Z</time>
      </trkpt>
      <trkpt lat="45.01031" lon="5.50572">
        <ele>1270.4000244141</ele>
        <time>2012-07-08T08:33:41.000Z</time>
      </trkpt>
      <trkpt lat="45.01028" lon="5.50569">
        <ele>1270</ele>
        <time>2012-07-08T08:33:49.000Z</time>
      </trkpt>
      <trkpt lat="45.01026" lon="5.50561">
        <ele>1268.4000244141</ele>
        <time>2012-07-08T08:33:52.000Z</time>
      </trkpt>
      <trkpt lat="45.01016" lon="5.5055">
        <ele>1270.4000244141</ele>
        <time>2012-07-08T08:33:57.000Z</time>
      </trkpt>
      <trkpt lat="45.01009" lon="5.50536">
        <ele>1275.8000488281</ele>
        <time>2012-07-08T08:34:02.000Z</time>
      </trkpt>
      <trkpt lat="45.01008" lon="5.50533">
        <ele>1276.1999511719</ele>
        <time>2012-07-08T08:34:03.000Z</time>
      </trkpt>
      <trkpt lat="45.01001" lon="5.5051">
        <ele>1276.5999755859</ele>
        <time>2012-07-08T08:34:09.000Z</time>
      </trkpt>
      <trkpt lat="45.00995" lon="5.50496">
        <ele>1277.5999755859</ele>
        <time>2012-07-08T08:34:14.000Z</time>
      </trkpt>
      <trkpt lat="45.00985" lon="5.50479">
        <ele>1283</ele>
        <time>2012-07-08T08:34:20.000Z</time>
      </trkpt>
      <trkpt lat="45.00981" lon="5.50479">
        <ele>1282.4000244141</ele>
        <time>2012-07-08T08:34:26.000Z</time>
      </trkpt>
      <trkpt lat="45.00978" lon="5.50485">
        <ele>1285.8000488281</ele>
        <time>2012-07-08T08:34:50.000Z</time>
      </trkpt>
      <trkpt lat="45.00964" lon="5.50487">
        <ele>1284.4000244141</ele>
        <time>2012-07-08T08:34:55.000Z</time>
      </trkpt>
      <trkpt lat="45.00951" lon="5.50495">
        <ele>1278.5999755859</ele>
        <time>2012-07-08T08:34:59.000Z</time>
      </trkpt>
      <trkpt lat="45.00938" lon="5.505">
        <ele>1274.8000488281</ele>
        <time>2012-07-08T08:35:03.000Z</time>
      </trkpt>
      <trkpt lat="45.00931" lon="5.50522">
        <ele>1269.4000244141</ele>
        <time>2012-07-08T08:35:09.000Z</time>
      </trkpt>
      <trkpt lat="45.00926" lon="5.50536">
        <ele>1266</ele>
        <time>2012-07-08T08:35:13.000Z</time>
      </trkpt>
      <trkpt lat="45.00923" lon="5.50549">
        <ele>1262.1999511719</ele>
        <time>2012-07-08T08:35:18.000Z</time>
      </trkpt>
      <trkpt lat="45.00918" lon="5.50543">
        <ele>1265.5999755859</ele>
        <time>2012-07-08T08:35:26.000Z</time>
      </trkpt>
      <trkpt lat="45.00921" lon="5.50546">
        <ele>1275.8000488281</ele>
        <time>2012-07-08T08:35:36.000Z</time>
      </trkpt>
      <trkpt lat="45.00909" lon="5.50565">
        <ele>1275.1999511719</ele>
        <time>2012-07-08T08:35:42.000Z</time>
      </trkpt>
      <trkpt lat="45.00898" lon="5.5058">
        <ele>1273.4000244141</ele>
        <time>2012-07-08T08:35:47.000Z</time>
      </trkpt>
      <trkpt lat="45.00896" lon="5.50585">
        <ele>1272.4000244141</ele>
        <time>2012-07-08T08:35:50.000Z</time>
      </trkpt>
      <trkpt lat="45.00895" lon="5.50589">
        <ele>1271.8000488281</ele>
        <time>2012-07-08T08:35:52.000Z</time>
      </trkpt>
      <trkpt lat="45.00892" lon="5.50601">
        <ele>1268</ele>
        <time>2012-07-08T08:35:57.000Z</time>
      </trkpt>
      <trkpt lat="45.00891" lon="5.50603">
        <ele>1268</ele>
        <time>2012-07-08T08:35:58.000Z</time>
      </trkpt>
      <trkpt lat="45.00891" lon="5.50609">
        <ele>1267</ele>
        <time>2012-07-08T08:36:01.000Z</time>
      </trkpt>
      <trkpt lat="45.0088" lon="5.50612">
        <ele>1261.8000488281</ele>
        <time>2012-07-08T08:36:06.000Z</time>
      </trkpt>
      <trkpt lat="45.0087" lon="5.50605">
        <ele>1263.1999511719</ele>
        <time>2012-07-08T08:36:10.000Z</time>
      </trkpt>
      <trkpt lat="45.00864" lon="5.50602">
        <ele>1263.5999755859</ele>
        <time>2012-07-08T08:36:12.000Z</time>
      </trkpt>
      <trkpt lat="45.00857" lon="5.50589">
        <ele>1262.8000488281</ele>
        <time>2012-07-08T08:36:16.000Z</time>
      </trkpt>
      <trkpt lat="45.00846" lon="5.50573">
        <ele>1268.4000244141</ele>
        <time>2012-07-08T08:36:21.000Z</time>
      </trkpt>
      <trkpt lat="45.00841" lon="5.50565">
        <ele>1269</ele>
        <time>2012-07-08T08:36:25.000Z</time>
      </trkpt>
      <trkpt lat="45.0084" lon="5.50564">
        <ele>1269</ele>
        <time>2012-07-08T08:36:26.000Z</time>
      </trkpt>
      <trkpt lat="45.00834" lon="5.50556">
        <ele>1268.4000244141</ele>
        <time>2012-07-08T08:36:33.000Z</time>
      </trkpt>
      <trkpt lat="45.00827" lon="5.5055">
        <ele>1269</ele>
        <time>2012-07-08T08:36:36.000Z</time>
      </trkpt>
      <trkpt lat="45.00821" lon="5.50536">
        <ele>1271.8000488281</ele>
        <time>2012-07-08T08:36:40.000Z</time>
      </trkpt>
      <trkpt lat="45.00814" lon="5.50523">
        <ele>1272.8000488281</ele>
        <time>2012-07-08T08:36:44.000Z</time>
      </trkpt>
      <trkpt lat="45.00804" lon="5.50504">
        <ele>1277.1999511719</ele>
        <time>2012-07-08T08:36:50.000Z</time>
      </trkpt>
      <trkpt lat="45.00801" lon="5.50491">
        <ele>1276.5999755859</ele>
        <time>2012-07-08T08:36:54.000Z</time>
      </trkpt>
      <trkpt lat="45.00796" lon="5.50483">
        <ele>1275.1999511719</ele>
        <time>2012-07-08T08:36:57.000Z</time>
      </trkpt>
      <trkpt lat="45.00783" lon="5.50475">
        <ele>1278.5999755859</ele>
        <time>2012-07-08T08:37:03.000Z</time>
      </trkpt>
      <trkpt lat="45.0077" lon="5.5047">
        <ele>1278.1999511719</ele>
        <time>2012-07-08T08:37:08.000Z</time>
      </trkpt>
      <trkpt lat="45.00759" lon="5.50471">
        <ele>1276.5999755859</ele>
        <time>2012-07-08T08:37:12.000Z</time>
      </trkpt>
      <trkpt lat="45.00758" lon="5.50478">
        <ele>1276.1999511719</ele>
        <time>2012-07-08T08:37:18.000Z</time>
      </trkpt>
      <trkpt lat="45.00759" lon="5.50481">
        <ele>1277.1999511719</ele>
        <time>2012-07-08T08:37:26.000Z</time>
      </trkpt>
      <trkpt lat="45.00759" lon="5.50479">
        <ele>1278.1999511719</ele>
        <time>2012-07-08T08:37:32.000Z</time>
      </trkpt>
      <trkpt lat="45.00756" lon="5.50477">
        <ele>1277.5999755859</ele>
        <time>2012-07-08T08:37:35.000Z</time>
      </trkpt>
      <trkpt lat="45.0075" lon="5.50464">
        <ele>1275.8000488281</ele>
        <time>2012-07-08T08:37:41.000Z</time>
      </trkpt>
      <trkpt lat="45.00748" lon="5.50458">
        <ele>1276.5999755859</ele>
        <time>2012-07-08T08:37:43.000Z</time>
      </trkpt>
      <trkpt lat="45.00741" lon="5.50442">
        <ele>1278.1999511719</ele>
        <time>2012-07-08T08:37:48.000Z</time>
      </trkpt>
      <trkpt lat="45.00741" lon="5.50438">
        <ele>1280</ele>
        <time>2012-07-08T08:37:49.000Z</time>
      </trkpt>
      <trkpt lat="45.00743" lon="5.50423">
        <ele>1283</ele>
        <time>2012-07-08T08:37:54.000Z</time>
      </trkpt>
      <trkpt lat="45.00746" lon="5.50412">
        <ele>1285.8000488281</ele>
        <time>2012-07-08T08:37:59.000Z</time>
      </trkpt>
      <trkpt lat="45.00749" lon="5.50402">
        <ele>1290.5999755859</ele>
        <time>2012-07-08T08:38:05.000Z</time>
      </trkpt>
      <trkpt lat="45.00753" lon="5.50399">
        <ele>1291</ele>
        <time>2012-07-08T08:38:09.000Z</time>
      </trkpt>
      <trkpt lat="45.00755" lon="5.50397">
        <ele>1290.5999755859</ele>
        <time>2012-07-08T08:38:11.000Z</time>
      </trkpt>
      <trkpt lat="45.00766" lon="5.50393">
        <ele>1292.5999755859</ele>
        <time>2012-07-08T08:38:18.000Z</time>
      </trkpt>
      <trkpt lat="45.00765" lon="5.50384">
        <ele>1295.8000488281</ele>
        <time>2012-07-08T08:38:21.000Z</time>
      </trkpt>
      <trkpt lat="45.0076" lon="5.50372">
        <ele>1294</ele>
        <time>2012-07-08T08:38:26.000Z</time>
      </trkpt>
      <trkpt lat="45.00758" lon="5.50372">
        <ele>1292.5999755859</ele>
        <time>2012-07-08T08:38:27.000Z</time>
      </trkpt>
      <trkpt lat="45.00735" lon="5.50369">
        <ele>1288.5999755859</ele>
        <time>2012-07-08T08:38:33.000Z</time>
      </trkpt>
      <trkpt lat="45.0072" lon="5.50364">
        <ele>1283.8000488281</ele>
        <time>2012-07-08T08:38:39.000Z</time>
      </trkpt>
      <trkpt lat="45.0071" lon="5.50365">
        <ele>1285.8000488281</ele>
        <time>2012-07-08T08:38:44.000Z</time>
      </trkpt>
      <trkpt lat="45.00694" lon="5.50371">
        <ele>1283</ele>
        <time>2012-07-08T08:38:48.000Z</time>
      </trkpt>
      <trkpt lat="45.00668" lon="5.50368">
        <ele>1283.8000488281</ele>
        <time>2012-07-08T08:38:53.000Z</time>
      </trkpt>
      <trkpt lat="45.00661" lon="5.50367">
        <ele>1283.4000244141</ele>
        <time>2012-07-08T08:38:55.000Z</time>
      </trkpt>
      <trkpt lat="45.00646" lon="5.50366">
        <ele>1285.4000244141</ele>
        <time>2012-07-08T08:39:01.000Z</time>
      </trkpt>
      <trkpt lat="45.00635" lon="5.50358">
        <ele>1287.8000488281</ele>
        <time>2012-07-08T08:39:06.000Z</time>
      </trkpt>
      <trkpt lat="45.00624" lon="5.50355">
        <ele>1290.1999511719</ele>
        <time>2012-07-08T08:39:11.000Z</time>
      </trkpt>
      <trkpt lat="45.00612" lon="5.50354">
        <ele>1290.1999511719</ele>
        <time>2012-07-08T08:39:15.000Z</time>
      </trkpt>
      <trkpt lat="45.00603" lon="5.50351">
        <ele>1292.5999755859</ele>
        <time>2012-07-08T08:39:19.000Z</time>
      </trkpt>
      <trkpt lat="45.0059" lon="5.50349">
        <ele>1294</ele>
        <time>2012-07-08T08:39:24.000Z</time>
      </trkpt>
      <trkpt lat="45.00577" lon="5.50346">
        <ele>1294</ele>
        <time>2012-07-08T08:39:30.000Z</time>
      </trkpt>
      <trkpt lat="45.00567" lon="5.50344">
        <ele>1294.4000244141</ele>
        <time>2012-07-08T08:39:34.000Z</time>
      </trkpt>
      <trkpt lat="45.00554" lon="5.50338">
        <ele>1296.8000488281</ele>
        <time>2012-07-08T08:39:39.000Z</time>
      </trkpt>
      <trkpt lat="45.00552" lon="5.50335">
        <ele>1296.8000488281</ele>
        <time>2012-07-08T08:39:42.000Z</time>
      </trkpt>
      <trkpt lat="45.00542" lon="5.50335">
        <ele>1299.8000488281</ele>
        <time>2012-07-08T08:39:49.000Z</time>
      </trkpt>
      <trkpt lat="45.00532" lon="5.5034">
        <ele>1301.1999511719</ele>
        <time>2012-07-08T08:39:57.000Z</time>
      </trkpt>
      <trkpt lat="45.00525" lon="5.50345">
        <ele>1302.5999755859</ele>
        <time>2012-07-08T08:40:02.000Z</time>
      </trkpt>
      <trkpt lat="45.00523" lon="5.50346">
        <ele>1303.1999511719</ele>
        <time>2012-07-08T08:40:03.000Z</time>
      </trkpt>
      <trkpt lat="45.00507" lon="5.50344">
        <ele>1301.5999755859</ele>
        <time>2012-07-08T08:40:09.000Z</time>
      </trkpt>
      <trkpt lat="45.00496" lon="5.5034">
        <ele>1301.1999511719</ele>
        <time>2012-07-08T08:40:13.000Z</time>
      </trkpt>
      <trkpt lat="45.00483" lon="5.50339">
        <ele>1302.1999511719</ele>
        <time>2012-07-08T08:40:17.000Z</time>
      </trkpt>
      <trkpt lat="45.00475" lon="5.50349">
        <ele>1300.8000488281</ele>
        <time>2012-07-08T08:40:21.000Z</time>
      </trkpt>
      <trkpt lat="45.00474" lon="5.50351">
        <ele>1300.1999511719</ele>
        <time>2012-07-08T08:40:22.000Z</time>
      </trkpt>
      <trkpt lat="45.00466" lon="5.5036">
        <ele>1298.1999511719</ele>
        <time>2012-07-08T08:40:27.000Z</time>
      </trkpt>
      <trkpt lat="45.00467" lon="5.50365">
        <ele>1299.8000488281</ele>
        <time>2012-07-08T08:40:39.000Z</time>
      </trkpt>
      <trkpt lat="45.00454" lon="5.50374">
        <ele>1295.4000244141</ele>
        <time>2012-07-08T08:40:44.000Z</time>
      </trkpt>
      <trkpt lat="45.00446" lon="5.50376">
        <ele>1294.4000244141</ele>
        <time>2012-07-08T08:40:46.000Z</time>
      </trkpt>
      <trkpt lat="45.00431" lon="5.50374">
        <ele>1294.4000244141</ele>
        <time>2012-07-08T08:40:51.000Z</time>
      </trkpt>
      <trkpt lat="45.00425" lon="5.50382">
        <ele>1294.4000244141</ele>
        <time>2012-07-08T08:40:56.000Z</time>
      </trkpt>
      <trkpt lat="45.00417" lon="5.504">
        <ele>1292.5999755859</ele>
        <time>2012-07-08T08:41:00.000Z</time>
      </trkpt>
      <trkpt lat="45.00416" lon="5.50403">
        <ele>1292.5999755859</ele>
        <time>2012-07-08T08:41:01.000Z</time>
      </trkpt>
      <trkpt lat="45.00417" lon="5.50418">
        <ele>1292</ele>
        <time>2012-07-08T08:41:06.000Z</time>
      </trkpt>
      <trkpt lat="45.0042" lon="5.5043">
        <ele>1292.5999755859</ele>
        <time>2012-07-08T08:41:10.000Z</time>
      </trkpt>
      <trkpt lat="45.00421" lon="5.50431">
        <ele>1293</ele>
        <time>2012-07-08T08:41:13.000Z</time>
      </trkpt>
      <trkpt lat="45.00412" lon="5.50437">
        <ele>1291.5999755859</ele>
        <time>2012-07-08T08:41:19.000Z</time>
      </trkpt>
      <trkpt lat="45.00405" lon="5.50445">
        <ele>1290.5999755859</ele>
        <time>2012-07-08T08:41:23.000Z</time>
      </trkpt>
      <trkpt lat="45.00401" lon="5.50448">
        <ele>1290.1999511719</ele>
        <time>2012-07-08T08:41:25.000Z</time>
      </trkpt>
      <trkpt lat="45.00395" lon="5.50439">
        <ele>1292</ele>
        <time>2012-07-08T08:41:30.000Z</time>
      </trkpt>
      <trkpt lat="45.00391" lon="5.50425">
        <ele>1295.4000244141</ele>
        <time>2012-07-08T08:41:35.000Z</time>
      </trkpt>
      <trkpt lat="45.00391" lon="5.50421">
        <ele>1296.8000488281</ele>
        <time>2012-07-08T08:41:37.000Z</time>
      </trkpt>
      <trkpt lat="45.00391" lon="5.5041">
        <ele>1300.8000488281</ele>
        <time>2012-07-08T08:41:42.000Z</time>
      </trkpt>
      <trkpt lat="45.00389" lon="5.50405">
        <ele>1302.1999511719</ele>
        <time>2012-07-08T08:41:45.000Z</time>
      </trkpt>
      <trkpt lat="45.00384" lon="5.504">
        <ele>1306</ele>
        <time>2012-07-08T08:41:51.000Z</time>
      </trkpt>
      <trkpt lat="45.00382" lon="5.50396">
        <ele>1307.4000244141</ele>
        <time>2012-07-08T08:41:53.000Z</time>
      </trkpt>
      <trkpt lat="45.0038" lon="5.50388">
        <ele>1306.4000244141</ele>
        <time>2012-07-08T08:41:56.000Z</time>
      </trkpt>
      <trkpt lat="45.00374" lon="5.50385">
        <ele>1307.4000244141</ele>
        <time>2012-07-08T08:42:01.000Z</time>
      </trkpt>
      <trkpt lat="45.00369" lon="5.50383">
        <ele>1309.4000244141</ele>
        <time>2012-07-08T08:42:06.000Z</time>
      </trkpt>
      <trkpt lat="45.00365" lon="5.50385">
        <ele>1309.8000488281</ele>
        <time>2012-07-08T08:42:10.000Z</time>
      </trkpt>
      <trkpt lat="45.00363" lon="5.50385">
        <ele>1310.8000488281</ele>
        <time>2012-07-08T08:42:12.000Z</time>
      </trkpt>
      <trkpt lat="45.0036" lon="5.5039">
        <ele>1311.1999511719</ele>
        <time>2012-07-08T08:42:17.000Z</time>
      </trkpt>
      <trkpt lat="45.00352" lon="5.50392">
        <ele>1310.4000244141</ele>
        <time>2012-07-08T08:42:22.000Z</time>
      </trkpt>
      <trkpt lat="45.00343" lon="5.5039">
        <ele>1312.1999511719</ele>
        <time>2012-07-08T08:42:27.000Z</time>
      </trkpt>
      <trkpt lat="45.00331" lon="5.50378">
        <ele>1314.1999511719</ele>
        <time>2012-07-08T08:42:33.000Z</time>
      </trkpt>
      <trkpt lat="45.00319" lon="5.50371">
        <ele>1315.1999511719</ele>
        <time>2012-07-08T08:42:38.000Z</time>
      </trkpt>
      <trkpt lat="45.0031" lon="5.50375">
        <ele>1314.5999755859</ele>
        <time>2012-07-08T08:42:43.000Z</time>
      </trkpt>
      <trkpt lat="45.00297" lon="5.50379">
        <ele>1314.1999511719</ele>
        <time>2012-07-08T08:42:48.000Z</time>
      </trkpt>
      <trkpt lat="45.00292" lon="5.50381">
        <ele>1313.5999755859</ele>
        <time>2012-07-08T08:42:52.000Z</time>
      </trkpt>
      <trkpt lat="45.00286" lon="5.5038">
        <ele>1312.1999511719</ele>
        <time>2012-07-08T08:42:57.000Z</time>
      </trkpt>
      <trkpt lat="45.0027" lon="5.50376">
        <ele>1311.1999511719</ele>
        <time>2012-07-08T08:43:02.000Z</time>
      </trkpt>
      <trkpt lat="45.00255" lon="5.50366">
        <ele>1311.1999511719</ele>
        <time>2012-07-08T08:43:08.000Z</time>
      </trkpt>
      <trkpt lat="45.00243" lon="5.50365">
        <ele>1314.1999511719</ele>
        <time>2012-07-08T08:43:12.000Z</time>
      </trkpt>
      <trkpt lat="45.00238" lon="5.50369">
        <ele>1316.5999755859</ele>
        <time>2012-07-08T08:43:15.000Z</time>
      </trkpt>
      <trkpt lat="45.00233" lon="5.50376">
        <ele>1317</ele>
        <time>2012-07-08T08:43:18.000Z</time>
      </trkpt>
      <trkpt lat="45.00234" lon="5.50389">
        <ele>1315.1999511719</ele>
        <time>2012-07-08T08:43:24.000Z</time>
      </trkpt>
      <trkpt lat="45.00231" lon="5.50397">
        <ele>1314.5999755859</ele>
        <time>2012-07-08T08:43:28.000Z</time>
      </trkpt>
      <trkpt lat="45.0023" lon="5.50398">
        <ele>1315.1999511719</ele>
        <time>2012-07-08T08:43:29.000Z</time>
      </trkpt>
      <trkpt lat="45.00226" lon="5.50406">
        <ele>1319.4000244141</ele>
        <time>2012-07-08T08:43:34.000Z</time>
      </trkpt>
      <trkpt lat="45.00224" lon="5.50416">
        <ele>1322.4000244141</ele>
        <time>2012-07-08T08:43:40.000Z</time>
      </trkpt>
      <trkpt lat="45.00226" lon="5.50419">
        <ele>1323.8000488281</ele>
        <time>2012-07-08T08:43:43.000Z</time>
      </trkpt>
      <trkpt lat="45.00228" lon="5.50423">
        <ele>1324.1999511719</ele>
        <time>2012-07-08T08:43:47.000Z</time>
      </trkpt>
      <trkpt lat="45.0023" lon="5.50431">
        <ele>1322.4000244141</ele>
        <time>2012-07-08T08:43:52.000Z</time>
      </trkpt>
      <trkpt lat="45.00229" lon="5.5044">
        <ele>1320</ele>
        <time>2012-07-08T08:43:55.000Z</time>
      </trkpt>
      <trkpt lat="45.00224" lon="5.50441">
        <ele>1318</ele>
        <time>2012-07-08T08:43:57.000Z</time>
      </trkpt>
      <trkpt lat="45.0022" lon="5.5045">
        <ele>1315.1999511719</ele>
        <time>2012-07-08T08:44:02.000Z</time>
      </trkpt>
      <trkpt lat="45.00214" lon="5.50455">
        <ele>1315.5999755859</ele>
        <time>2012-07-08T08:44:06.000Z</time>
      </trkpt>
      <trkpt lat="45.0021" lon="5.50458">
        <ele>1316</ele>
        <time>2012-07-08T08:44:10.000Z</time>
      </trkpt>
      <trkpt lat="45.00206" lon="5.50461">
        <ele>1315.1999511719</ele>
        <time>2012-07-08T08:44:13.000Z</time>
      </trkpt>
      <trkpt lat="45.00206" lon="5.50466">
        <ele>1314.1999511719</ele>
        <time>2012-07-08T08:44:19.000Z</time>
      </trkpt>
      <trkpt lat="45.00208" lon="5.50472">
        <ele>1312.1999511719</ele>
        <time>2012-07-08T08:44:24.000Z</time>
      </trkpt>
      <trkpt lat="45.00211" lon="5.50477">
        <ele>1309.4000244141</ele>
        <time>2012-07-08T08:44:29.000Z</time>
      </trkpt>
      <trkpt lat="45.00211" lon="5.5048">
        <ele>1308.4000244141</ele>
        <time>2012-07-08T08:44:33.000Z</time>
      </trkpt>
      <trkpt lat="45.0021" lon="5.50486">
        <ele>1310.8000488281</ele>
        <time>2012-07-08T08:44:40.000Z</time>
      </trkpt>
      <trkpt lat="45.00208" lon="5.50487">
        <ele>1309.8000488281</ele>
        <time>2012-07-08T08:44:42.000Z</time>
      </trkpt>
      <trkpt lat="45.00204" lon="5.50499">
        <ele>1303.5999755859</ele>
        <time>2012-07-08T08:44:48.000Z</time>
      </trkpt>
      <trkpt lat="45.00201" lon="5.50529">
        <ele>1297.4000244141</ele>
        <time>2012-07-08T08:44:54.000Z</time>
      </trkpt>
      <trkpt lat="45.00191" lon="5.50558">
        <ele>1293.4000244141</ele>
        <time>2012-07-08T08:45:00.000Z</time>
      </trkpt>
      <trkpt lat="45.00189" lon="5.50564">
        <ele>1293.4000244141</ele>
        <time>2012-07-08T08:45:01.000Z</time>
      </trkpt>
      <trkpt lat="45.00172" lon="5.5058">
        <ele>1294</ele>
        <time>2012-07-08T08:45:05.000Z</time>
      </trkpt>
      <trkpt lat="45.00152" lon="5.50594">
        <ele>1292.5999755859</ele>
        <time>2012-07-08T08:45:09.000Z</time>
      </trkpt>
      <trkpt lat="45.00144" lon="5.506">
        <ele>1294</ele>
        <time>2012-07-08T08:45:12.000Z</time>
      </trkpt>
      <trkpt lat="45.00128" lon="5.50603">
        <ele>1294</ele>
        <time>2012-07-08T08:45:20.000Z</time>
      </trkpt>
      <trkpt lat="45.00118" lon="5.50605">
        <ele>1294</ele>
        <time>2012-07-08T08:45:25.000Z</time>
      </trkpt>
      <trkpt lat="45.00117" lon="5.50605">
        <ele>1293</ele>
        <time>2012-07-08T08:45:26.000Z</time>
      </trkpt>
      <trkpt lat="45.00109" lon="5.5061">
        <ele>1293.4000244141</ele>
        <time>2012-07-08T08:45:33.000Z</time>
      </trkpt>
      <trkpt lat="45.00103" lon="5.50615">
        <ele>1296.4000244141</ele>
        <time>2012-07-08T08:45:39.000Z</time>
      </trkpt>
      <trkpt lat="45.001" lon="5.50622">
        <ele>1299.1999511719</ele>
        <time>2012-07-08T08:45:45.000Z</time>
      </trkpt>
      <trkpt lat="45.00099" lon="5.50623">
        <ele>1299.1999511719</ele>
        <time>2012-07-08T08:45:46.000Z</time>
      </trkpt>
      <trkpt lat="45.00091" lon="5.50636">
        <ele>1299.1999511719</ele>
        <time>2012-07-08T08:45:51.000Z</time>
      </trkpt>
      <trkpt lat="45.00076" lon="5.50647">
        <ele>1297.8000488281</ele>
        <time>2012-07-08T08:45:56.000Z</time>
      </trkpt>
      <trkpt lat="45.00066" lon="5.50657">
        <ele>1295.8000488281</ele>
        <time>2012-07-08T08:46:00.000Z</time>
      </trkpt>
      <trkpt lat="45.00059" lon="5.50677">
        <ele>1294.4000244141</ele>
        <time>2012-07-08T08:46:06.000Z</time>
      </trkpt>
      <trkpt lat="45.00059" lon="5.50685">
        <ele>1294.4000244141</ele>
        <time>2012-07-08T08:46:08.000Z</time>
      </trkpt>
      <trkpt lat="45.00075" lon="5.50701">
        <ele>1294.4000244141</ele>
        <time>2012-07-08T08:46:13.000Z</time>
      </trkpt>
      <trkpt lat="45.00086" lon="5.50717">
        <ele>1291.5999755859</ele>
        <time>2012-07-08T08:46:17.000Z</time>
      </trkpt>
      <trkpt lat="45.00088" lon="5.5073">
        <ele>1287.8000488281</ele>
        <time>2012-07-08T08:46:20.000Z</time>
      </trkpt>
      <trkpt lat="45.00089" lon="5.50746">
        <ele>1284.4000244141</ele>
        <time>2012-07-08T08:46:24.000Z</time>
      </trkpt>
      <trkpt lat="45.00092" lon="5.5076">
        <ele>1283</ele>
        <time>2012-07-08T08:46:28.000Z</time>
      </trkpt>
      <trkpt lat="45.00096" lon="5.50767">
        <ele>1281.4000244141</ele>
        <time>2012-07-08T08:46:30.000Z</time>
      </trkpt>
      <trkpt lat="45.00104" lon="5.50776">
        <ele>1280.5999755859</ele>
        <time>2012-07-08T08:46:34.000Z</time>
      </trkpt>
      <trkpt lat="45.00114" lon="5.50792">
        <ele>1278.5999755859</ele>
        <time>2012-07-08T08:46:38.000Z</time>
      </trkpt>
      <trkpt lat="45.00122" lon="5.50798">
        <ele>1276.5999755859</ele>
        <time>2012-07-08T08:46:41.000Z</time>
      </trkpt>
      <trkpt lat="45.00133" lon="5.50817">
        <ele>1277.5999755859</ele>
        <time>2012-07-08T08:46:46.000Z</time>
      </trkpt>
      <trkpt lat="45.00138" lon="5.50824">
        <ele>1277.1999511719</ele>
        <time>2012-07-08T08:46:51.000Z</time>
      </trkpt>
      <trkpt lat="45.00143" lon="5.50829">
        <ele>1275.1999511719</ele>
        <time>2012-07-08T08:46:56.000Z</time>
      </trkpt>
      <trkpt lat="45.00145" lon="5.50833">
        <ele>1273.8000488281</ele>
        <time>2012-07-08T08:47:00.000Z</time>
      </trkpt>
      <trkpt lat="45.00157" lon="5.50842">
        <ele>1271.4000244141</ele>
        <time>2012-07-08T08:47:04.000Z</time>
      </trkpt>
      <trkpt lat="45.00174" lon="5.50864">
        <ele>1270</ele>
        <time>2012-07-08T08:47:09.000Z</time>
      </trkpt>
      <trkpt lat="45.0018" lon="5.50877">
        <ele>1273.4000244141</ele>
        <time>2012-07-08T08:47:12.000Z</time>
      </trkpt>
      <trkpt lat="45.00185" lon="5.50902">
        <ele>1275.8000488281</ele>
        <time>2012-07-08T08:47:17.000Z</time>
      </trkpt>
      <trkpt lat="45.00184" lon="5.50906">
        <ele>1275.8000488281</ele>
        <time>2012-07-08T08:47:18.000Z</time>
      </trkpt>
      <trkpt lat="45.00178" lon="5.50922">
        <ele>1275.8000488281</ele>
        <time>2012-07-08T08:47:23.000Z</time>
      </trkpt>
      <trkpt lat="45.00174" lon="5.50923">
        <ele>1275.1999511719</ele>
        <time>2012-07-08T08:47:24.000Z</time>
      </trkpt>
      <trkpt lat="45.00159" lon="5.50928">
        <ele>1276.1999511719</ele>
        <time>2012-07-08T08:47:29.000Z</time>
      </trkpt>
      <trkpt lat="45.00155" lon="5.50927">
        <ele>1275.8000488281</ele>
        <time>2012-07-08T08:47:32.000Z</time>
      </trkpt>
      <trkpt lat="45.00143" lon="5.50917">
        <ele>1275.1999511719</ele>
        <time>2012-07-08T08:47:37.000Z</time>
      </trkpt>
      <trkpt lat="45.00126" lon="5.50912">
        <ele>1274.1999511719</ele>
        <time>2012-07-08T08:47:43.000Z</time>
      </trkpt>
      <trkpt lat="45.00117" lon="5.50909">
        <ele>1273.4000244141</ele>
        <time>2012-07-08T08:47:47.000Z</time>
      </trkpt>
      <trkpt lat="45.00107" lon="5.50911">
        <ele>1274.1999511719</ele>
        <time>2012-07-08T08:47:51.000Z</time>
      </trkpt>
      <trkpt lat="45.00099" lon="5.50916">
        <ele>1280.5999755859</ele>
        <time>2012-07-08T08:47:56.000Z</time>
      </trkpt>
      <trkpt lat="45.00091" lon="5.50921">
        <ele>1280</ele>
        <time>2012-07-08T08:47:59.000Z</time>
      </trkpt>
      <trkpt lat="45.00077" lon="5.50919">
        <ele>1280.5999755859</ele>
        <time>2012-07-08T08:48:05.000Z</time>
      </trkpt>
      <trkpt lat="45.00067" lon="5.50916">
        <ele>1280</ele>
        <time>2012-07-08T08:48:08.000Z</time>
      </trkpt>
      <trkpt lat="45.00056" lon="5.50907">
        <ele>1283.4000244141</ele>
        <time>2012-07-08T08:48:12.000Z</time>
      </trkpt>
      <trkpt lat="45.00047" lon="5.50915">
        <ele>1283.8000488281</ele>
        <time>2012-07-08T08:48:15.000Z</time>
      </trkpt>
      <trkpt lat="45.00045" lon="5.50927">
        <ele>1283</ele>
        <time>2012-07-08T08:48:18.000Z</time>
      </trkpt>
      <trkpt lat="45.00044" lon="5.50937">
        <ele>1283.4000244141</ele>
        <time>2012-07-08T08:48:21.000Z</time>
      </trkpt>
      <trkpt lat="45.00044" lon="5.50939">
        <ele>1283</ele>
        <time>2012-07-08T08:48:22.000Z</time>
      </trkpt>
      <trkpt lat="45.00048" lon="5.50943">
        <ele>1282.4000244141</ele>
        <time>2012-07-08T08:48:26.000Z</time>
      </trkpt>
      <trkpt lat="45.00048" lon="5.50955">
        <ele>1283.8000488281</ele>
        <time>2012-07-08T08:48:34.000Z</time>
      </trkpt>
      <trkpt lat="45.00048" lon="5.50965">
        <ele>1285.8000488281</ele>
        <time>2012-07-08T08:48:38.000Z</time>
      </trkpt>
      <trkpt lat="45.0005" lon="5.50977">
        <ele>1287.1999511719</ele>
        <time>2012-07-08T08:48:42.000Z</time>
      </trkpt>
      <trkpt lat="45.00057" lon="5.50991">
        <ele>1289.1999511719</ele>
        <time>2012-07-08T08:48:47.000Z</time>
      </trkpt>
      <trkpt lat="45.00064" lon="5.51004">
        <ele>1290.1999511719</ele>
        <time>2012-07-08T08:48:51.000Z</time>
      </trkpt>
      <trkpt lat="45.00072" lon="5.51018">
        <ele>1288.5999755859</ele>
        <time>2012-07-08T08:48:55.000Z</time>
      </trkpt>
      <trkpt lat="45.00082" lon="5.51033">
        <ele>1287.8000488281</ele>
        <time>2012-07-08T08:48:59.000Z</time>
      </trkpt>
      <trkpt lat="45.0009" lon="5.51048">
        <ele>1286.1999511719</ele>
        <time>2012-07-08T08:49:03.000Z</time>
      </trkpt>
      <trkpt lat="45.00094" lon="5.51052">
        <ele>1286.1999511719</ele>
        <time>2012-07-08T08:49:06.000Z</time>
      </trkpt>
      <trkpt lat="45.00098" lon="5.51058">
        <ele>1285.8000488281</ele>
        <time>2012-07-08T08:49:12.000Z</time>
      </trkpt>
      <trkpt lat="45.00099" lon="5.5107">
        <ele>1284.8000488281</ele>
        <time>2012-07-08T08:49:16.000Z</time>
      </trkpt>
      <trkpt lat="45.00102" lon="5.51057">
        <ele>1284.4000244141</ele>
        <time>2012-07-08T08:49:20.000Z</time>
      </trkpt>
      <trkpt lat="45.00113" lon="5.51064">
        <ele>1282.4000244141</ele>
        <time>2012-07-08T08:49:24.000Z</time>
      </trkpt>
      <trkpt lat="45.00123" lon="5.51076">
        <ele>1281</ele>
        <time>2012-07-08T08:49:28.000Z</time>
      </trkpt>
      <trkpt lat="45.00124" lon="5.5108">
        <ele>1280.5999755859</ele>
        <time>2012-07-08T08:49:29.000Z</time>
      </trkpt>
      <trkpt lat="45.00131" lon="5.51102">
        <ele>1278.5999755859</ele>
        <time>2012-07-08T08:49:34.000Z</time>
      </trkpt>
      <trkpt lat="45.00134" lon="5.51116">
        <ele>1278.5999755859</ele>
        <time>2012-07-08T08:49:37.000Z</time>
      </trkpt>
      <trkpt lat="45.00136" lon="5.51129">
        <ele>1278.5999755859</ele>
        <time>2012-07-08T08:49:40.000Z</time>
      </trkpt>
      <trkpt lat="45.00139" lon="5.5115">
        <ele>1281</ele>
        <time>2012-07-08T08:49:45.000Z</time>
      </trkpt>
      <trkpt lat="45.0015" lon="5.51165">
        <ele>1282</ele>
        <time>2012-07-08T08:49:50.000Z</time>
      </trkpt>
      <trkpt lat="45.00151" lon="5.51169">
        <ele>1282</ele>
        <time>2012-07-08T08:49:51.000Z</time>
      </trkpt>
      <trkpt lat="45.00156" lon="5.51178">
        <ele>1282.4000244141</ele>
        <time>2012-07-08T08:49:56.000Z</time>
      </trkpt>
      <trkpt lat="45.0016" lon="5.5118">
        <ele>1282.4000244141</ele>
        <time>2012-07-08T08:50:02.000Z</time>
      </trkpt>
      <trkpt lat="45.0016" lon="5.5118">
        <ele>1282</ele>
        <time>2012-07-08T08:50:07.000Z</time>
      </trkpt>
      <trkpt lat="45.00151" lon="5.51174">
        <ele>1283</ele>
        <time>2012-07-08T08:50:13.000Z</time>
      </trkpt>
      <trkpt lat="45.00152" lon="5.51174">
        <ele>1283.8000488281</ele>
        <time>2012-07-08T08:50:17.000Z</time>
      </trkpt>
      <trkpt lat="45.00154" lon="5.51176">
        <ele>1283.8000488281</ele>
        <time>2012-07-08T08:50:19.000Z</time>
      </trkpt>
      <trkpt lat="45.00164" lon="5.51187">
        <ele>1284.8000488281</ele>
        <time>2012-07-08T08:50:24.000Z</time>
      </trkpt>
      <trkpt lat="45.00167" lon="5.51193">
        <ele>1286.1999511719</ele>
        <time>2012-07-08T08:50:26.000Z</time>
      </trkpt>
      <trkpt lat="45.00176" lon="5.51205">
        <ele>1287.8000488281</ele>
        <time>2012-07-08T08:50:31.000Z</time>
      </trkpt>
      <trkpt lat="45.00184" lon="5.51216">
        <ele>1288.1999511719</ele>
        <time>2012-07-08T08:50:35.000Z</time>
      </trkpt>
      <trkpt lat="45.00187" lon="5.51224">
        <ele>1289.1999511719</ele>
        <time>2012-07-08T08:50:38.000Z</time>
      </trkpt>
      <trkpt lat="45.00186" lon="5.51225">
        <ele>1290.1999511719</ele>
        <time>2012-07-08T08:50:47.000Z</time>
      </trkpt>
      <trkpt lat="45.00176" lon="5.5122">
        <ele>1289.1999511719</ele>
        <time>2012-07-08T08:50:51.000Z</time>
      </trkpt>
      <trkpt lat="45.0017" lon="5.5122">
        <ele>1288.5999755859</ele>
        <time>2012-07-08T08:50:53.000Z</time>
      </trkpt>
      <trkpt lat="45.0016" lon="5.51221">
        <ele>1289.5999755859</ele>
        <time>2012-07-08T08:50:56.000Z</time>
      </trkpt>
      <trkpt lat="45.00147" lon="5.51219">
        <ele>1290.1999511719</ele>
        <time>2012-07-08T08:51:00.000Z</time>
      </trkpt>
      <trkpt lat="45.00135" lon="5.5122">
        <ele>1290.5999755859</ele>
        <time>2012-07-08T08:51:04.000Z</time>
      </trkpt>
      <trkpt lat="45.00126" lon="5.5122">
        <ele>1290.1999511719</ele>
        <time>2012-07-08T08:51:07.000Z</time>
      </trkpt>
      <trkpt lat="45.00112" lon="5.51221">
        <ele>1288.5999755859</ele>
        <time>2012-07-08T08:51:12.000Z</time>
      </trkpt>
      <trkpt lat="45.00098" lon="5.51216">
        <ele>1287.8000488281</ele>
        <time>2012-07-08T08:51:16.000Z</time>
      </trkpt>
      <trkpt lat="45.00093" lon="5.5122">
        <ele>1288.5999755859</ele>
        <time>2012-07-08T08:51:21.000Z</time>
      </trkpt>
      <trkpt lat="45.00092" lon="5.51222">
        <ele>1289.5999755859</ele>
        <time>2012-07-08T08:51:23.000Z</time>
      </trkpt>
      <trkpt lat="45.00087" lon="5.51223">
        <ele>1290.5999755859</ele>
        <time>2012-07-08T08:51:27.000Z</time>
      </trkpt>
      <trkpt lat="45.00082" lon="5.51226">
        <ele>1293</ele>
        <time>2012-07-08T08:51:34.000Z</time>
      </trkpt>
      <trkpt lat="45.00076" lon="5.5123">
        <ele>1294.4000244141</ele>
        <time>2012-07-08T08:51:40.000Z</time>
      </trkpt>
      <trkpt lat="45.00075" lon="5.51231">
        <ele>1295.8000488281</ele>
        <time>2012-07-08T08:51:42.000Z</time>
      </trkpt>
      <trkpt lat="45.00073" lon="5.51236">
        <ele>1296.8000488281</ele>
        <time>2012-07-08T08:51:48.000Z</time>
      </trkpt>
      <trkpt lat="45.00068" lon="5.51241">
        <ele>1297.4000244141</ele>
        <time>2012-07-08T08:51:53.000Z</time>
      </trkpt>
      <trkpt lat="45.00061" lon="5.5125">
        <ele>1297.8000488281</ele>
        <time>2012-07-08T08:51:59.000Z</time>
      </trkpt>
      <trkpt lat="45.00056" lon="5.51255">
        <ele>1297.8000488281</ele>
        <time>2012-07-08T08:52:03.000Z</time>
      </trkpt>
      <trkpt lat="45.00049" lon="5.51258">
        <ele>1298.8000488281</ele>
        <time>2012-07-08T08:52:09.000Z</time>
      </trkpt>
      <trkpt lat="45.00047" lon="5.51259">
        <ele>1299.1999511719</ele>
        <time>2012-07-08T08:52:11.000Z</time>
      </trkpt>
      <trkpt lat="45.00039" lon="5.51259">
        <ele>1300.8000488281</ele>
        <time>2012-07-08T08:52:17.000Z</time>
      </trkpt>
      <trkpt lat="45.0003" lon="5.5125">
        <ele>1300.1999511719</ele>
        <time>2012-07-08T08:52:23.000Z</time>
      </trkpt>
      <trkpt lat="45.00023" lon="5.51245">
        <ele>1301.1999511719</ele>
        <time>2012-07-08T08:52:26.000Z</time>
      </trkpt>
      <trkpt lat="45.00013" lon="5.51238">
        <ele>1302.1999511719</ele>
        <time>2012-07-08T08:52:31.000Z</time>
      </trkpt>
      <trkpt lat="45.0001" lon="5.51238">
        <ele>1303.5999755859</ele>
        <time>2012-07-08T08:52:35.000Z</time>
      </trkpt>
      <trkpt lat="45.00013" lon="5.51237">
        <ele>1304</ele>
        <time>2012-07-08T08:52:37.000Z</time>
      </trkpt>
      <trkpt lat="45.00019" lon="5.51228">
        <ele>1303.1999511719</ele>
        <time>2012-07-08T08:52:42.000Z</time>
      </trkpt>
      <trkpt lat="45.00022" lon="5.51219">
        <ele>1302.5999755859</ele>
        <time>2012-07-08T08:52:45.000Z</time>
      </trkpt>
      <trkpt lat="45.0003" lon="5.51211">
        <ele>1300.1999511719</ele>
        <time>2012-07-08T08:52:48.000Z</time>
      </trkpt>
      <trkpt lat="45.00041" lon="5.51199">
        <ele>1297.8000488281</ele>
        <time>2012-07-08T08:52:54.000Z</time>
      </trkpt>
      <trkpt lat="45.00044" lon="5.51191">
        <ele>1295.8000488281</ele>
        <time>2012-07-08T08:52:58.000Z</time>
      </trkpt>
      <trkpt lat="45.00047" lon="5.51189">
        <ele>1295.8000488281</ele>
        <time>2012-07-08T08:53:00.000Z</time>
      </trkpt>
      <trkpt lat="45.00046" lon="5.51195">
        <ele>1295.4000244141</ele>
        <time>2012-07-08T08:53:04.000Z</time>
      </trkpt>
      <trkpt lat="45.00043" lon="5.51201">
        <ele>1295.4000244141</ele>
        <time>2012-07-08T08:53:06.000Z</time>
      </trkpt>
      <trkpt lat="45.0005" lon="5.51216">
        <ele>1295.4000244141</ele>
        <time>2012-07-08T08:53:10.000Z</time>
      </trkpt>
      <trkpt lat="45.00063" lon="5.51217">
        <ele>1294.4000244141</ele>
        <time>2012-07-08T08:53:13.000Z</time>
      </trkpt>
      <trkpt lat="45.00079" lon="5.51217">
        <ele>1292.5999755859</ele>
        <time>2012-07-08T08:53:18.000Z</time>
      </trkpt>
      <trkpt lat="45.00087" lon="5.51225">
        <ele>1291.5999755859</ele>
        <time>2012-07-08T08:53:21.000Z</time>
      </trkpt>
      <trkpt lat="45.00094" lon="5.51233">
        <ele>1289.5999755859</ele>
        <time>2012-07-08T08:53:24.000Z</time>
      </trkpt>
      <trkpt lat="45.00104" lon="5.51244">
        <ele>1289.5999755859</ele>
        <time>2012-07-08T08:53:29.000Z</time>
      </trkpt>
      <trkpt lat="45.00122" lon="5.51238">
        <ele>1289.5999755859</ele>
        <time>2012-07-08T08:53:36.000Z</time>
      </trkpt>
      <trkpt lat="45.00137" lon="5.51228">
        <ele>1288.5999755859</ele>
        <time>2012-07-08T08:53:40.000Z</time>
      </trkpt>
      <trkpt lat="45.00144" lon="5.51221">
        <ele>1287.8000488281</ele>
        <time>2012-07-08T08:53:43.000Z</time>
      </trkpt>
      <trkpt lat="45.00161" lon="5.51225">
        <ele>1287.1999511719</ele>
        <time>2012-07-08T08:53:48.000Z</time>
      </trkpt>
      <trkpt lat="45.00168" lon="5.51223">
        <ele>1287.8000488281</ele>
        <time>2012-07-08T08:53:50.000Z</time>
      </trkpt>
      <trkpt lat="45.00183" lon="5.51224">
        <ele>1287.1999511719</ele>
        <time>2012-07-08T08:53:55.000Z</time>
      </trkpt>
      <trkpt lat="45.00194" lon="5.51227">
        <ele>1287.8000488281</ele>
        <time>2012-07-08T08:53:59.000Z</time>
      </trkpt>
      <trkpt lat="45.00206" lon="5.51228">
        <ele>1289.5999755859</ele>
        <time>2012-07-08T08:54:03.000Z</time>
      </trkpt>
      <trkpt lat="45.00209" lon="5.51229">
        <ele>1288.5999755859</ele>
        <time>2012-07-08T08:54:04.000Z</time>
      </trkpt>
      <trkpt lat="45.00223" lon="5.51235">
        <ele>1286.8000488281</ele>
        <time>2012-07-08T08:54:09.000Z</time>
      </trkpt>
      <trkpt lat="45.00238" lon="5.51234">
        <ele>1284.8000488281</ele>
        <time>2012-07-08T08:54:14.000Z</time>
      </trkpt>
      <trkpt lat="45.00256" lon="5.51232">
        <ele>1285.4000244141</ele>
        <time>2012-07-08T08:54:19.000Z</time>
      </trkpt>
      <trkpt lat="45.00271" lon="5.51223">
        <ele>1284.8000488281</ele>
        <time>2012-07-08T08:54:24.000Z</time>
      </trkpt>
      <trkpt lat="45.00279" lon="5.51216">
        <ele>1283.8000488281</ele>
        <time>2012-07-08T08:54:27.000Z</time>
      </trkpt>
      <trkpt lat="45.00289" lon="5.51209">
        <ele>1281.4000244141</ele>
        <time>2012-07-08T08:54:32.000Z</time>
      </trkpt>
      <trkpt lat="45.00304" lon="5.51212">
        <ele>1277.1999511719</ele>
        <time>2012-07-08T08:54:37.000Z</time>
      </trkpt>
      <trkpt lat="45.00314" lon="5.51219">
        <ele>1273.4000244141</ele>
        <time>2012-07-08T08:54:41.000Z</time>
      </trkpt>
      <trkpt lat="45.00318" lon="5.51221">
        <ele>1271.8000488281</ele>
        <time>2012-07-08T08:54:43.000Z</time>
      </trkpt>
      <trkpt lat="45.00324" lon="5.51218">
        <ele>1270.4000244141</ele>
        <time>2012-07-08T08:54:49.000Z</time>
      </trkpt>
      <trkpt lat="45.00322" lon="5.51219">
        <ele>1270</ele>
        <time>2012-07-08T08:54:54.000Z</time>
      </trkpt>
      <trkpt lat="45.0032" lon="5.51225">
        <ele>1271</ele>
        <time>2012-07-08T08:54:59.000Z</time>
      </trkpt>
      <trkpt lat="45.00319" lon="5.51237">
        <ele>1272.4000244141</ele>
        <time>2012-07-08T08:55:03.000Z</time>
      </trkpt>
      <trkpt lat="45.0032" lon="5.51242">
        <ele>1273.4000244141</ele>
        <time>2012-07-08T08:55:06.000Z</time>
      </trkpt>
      <trkpt lat="45.0032" lon="5.51248">
        <ele>1273.8000488281</ele>
        <time>2012-07-08T08:55:10.000Z</time>
      </trkpt>
      <trkpt lat="45.00319" lon="5.51256">
        <ele>1275.1999511719</ele>
        <time>2012-07-08T08:55:15.000Z</time>
      </trkpt>
      <trkpt lat="45.0032" lon="5.51264">
        <ele>1276.5999755859</ele>
        <time>2012-07-08T08:55:19.000Z</time>
      </trkpt>
      <trkpt lat="45.00321" lon="5.51267">
        <ele>1276.5999755859</ele>
        <time>2012-07-08T08:55:23.000Z</time>
      </trkpt>
      <trkpt lat="45.00321" lon="5.51272">
        <ele>1278.1999511719</ele>
        <time>2012-07-08T08:55:27.000Z</time>
      </trkpt>
      <trkpt lat="45.00322" lon="5.51278">
        <ele>1275.1999511719</ele>
        <time>2012-07-08T08:55:30.000Z</time>
      </trkpt>
      <trkpt lat="45.0032" lon="5.51286">
        <ele>1275.1999511719</ele>
        <time>2012-07-08T08:55:34.000Z</time>
      </trkpt>
      <trkpt lat="45.00317" lon="5.51291">
        <ele>1275.8000488281</ele>
        <time>2012-07-08T08:55:39.000Z</time>
      </trkpt>
      <trkpt lat="45.00319" lon="5.51301">
        <ele>1275.8000488281</ele>
        <time>2012-07-08T08:55:42.000Z</time>
      </trkpt>
      <trkpt lat="45.0032" lon="5.51312">
        <ele>1275.8000488281</ele>
        <time>2012-07-08T08:55:46.000Z</time>
      </trkpt>
      <trkpt lat="45.00315" lon="5.51318">
        <ele>1276.1999511719</ele>
        <time>2012-07-08T08:55:49.000Z</time>
      </trkpt>
      <trkpt lat="45.00305" lon="5.51335">
        <ele>1277.1999511719</ele>
        <time>2012-07-08T08:55:55.000Z</time>
      </trkpt>
      <trkpt lat="45.00298" lon="5.51345">
        <ele>1279</ele>
        <time>2012-07-08T08:55:59.000Z</time>
      </trkpt>
      <trkpt lat="45.00302" lon="5.51346">
        <ele>1279</ele>
        <time>2012-07-08T08:56:03.000Z</time>
      </trkpt>
      <trkpt lat="45.00311" lon="5.51347">
        <ele>1279.5999755859</ele>
        <time>2012-07-08T08:56:07.000Z</time>
      </trkpt>
      <trkpt lat="45.00314" lon="5.51345">
        <ele>1280.5999755859</ele>
        <time>2012-07-08T08:56:12.000Z</time>
      </trkpt>
      <trkpt lat="45.00309" lon="5.5133">
        <ele>1278.5999755859</ele>
        <time>2012-07-08T08:56:16.000Z</time>
      </trkpt>
      <trkpt lat="45.00312" lon="5.5132">
        <ele>1277.1999511719</ele>
        <time>2012-07-08T08:56:18.000Z</time>
      </trkpt>
      <trkpt lat="45.00313" lon="5.51311">
        <ele>1275.1999511719</ele>
        <time>2012-07-08T08:56:20.000Z</time>
      </trkpt>
      <trkpt lat="45.00316" lon="5.51295">
        <ele>1273.4000244141</ele>
        <time>2012-07-08T08:56:25.000Z</time>
      </trkpt>
      <trkpt lat="45.00318" lon="5.51284">
        <ele>1272.4000244141</ele>
        <time>2012-07-08T08:56:30.000Z</time>
      </trkpt>
      <trkpt lat="45.0032" lon="5.51278">
        <ele>1272.4000244141</ele>
        <time>2012-07-08T08:56:34.000Z</time>
      </trkpt>
      <trkpt lat="45.00321" lon="5.51271">
        <ele>1272.4000244141</ele>
        <time>2012-07-08T08:56:38.000Z</time>
      </trkpt>
      <trkpt lat="45.00321" lon="5.51262">
        <ele>1272.4000244141</ele>
        <time>2012-07-08T08:56:42.000Z</time>
      </trkpt>
      <trkpt lat="45.0032" lon="5.51259">
        <ele>1271.8000488281</ele>
        <time>2012-07-08T08:56:44.000Z</time>
      </trkpt>
      <trkpt lat="45.00323" lon="5.51251">
        <ele>1271</ele>
        <time>2012-07-08T08:56:49.000Z</time>
      </trkpt>
      <trkpt lat="45.00328" lon="5.51244">
        <ele>1270</ele>
        <time>2012-07-08T08:56:53.000Z</time>
      </trkpt>
      <trkpt lat="45.00324" lon="5.51231">
        <ele>1267.5999755859</ele>
        <time>2012-07-08T08:56:58.000Z</time>
      </trkpt>
      <trkpt lat="45.00322" lon="5.51218">
        <ele>1266</ele>
        <time>2012-07-08T08:57:03.000Z</time>
      </trkpt>
      <trkpt lat="45.00329" lon="5.51214">
        <ele>1265.5999755859</ele>
        <time>2012-07-08T08:57:07.000Z</time>
      </trkpt>
      <trkpt lat="45.00334" lon="5.51213">
        <ele>1264.5999755859</ele>
        <time>2012-07-08T08:57:10.000Z</time>
      </trkpt>
      <trkpt lat="45.00347" lon="5.51204">
        <ele>1261.8000488281</ele>
        <time>2012-07-08T08:57:15.000Z</time>
      </trkpt>
      <trkpt lat="45.00353" lon="5.51198">
        <ele>1260.4000244141</ele>
        <time>2012-07-08T08:57:17.000Z</time>
      </trkpt>
      <trkpt lat="45.00357" lon="5.51177">
        <ele>1255</ele>
        <time>2012-07-08T08:57:23.000Z</time>
      </trkpt>
      <trkpt lat="45.00357" lon="5.51175">
        <ele>1254.5999755859</ele>
        <time>2012-07-08T08:57:24.000Z</time>
      </trkpt>
      <trkpt lat="45.00378" lon="5.51178">
        <ele>1254</ele>
        <time>2012-07-08T08:57:28.000Z</time>
      </trkpt>
      <trkpt lat="45.00393" lon="5.51179">
        <ele>1253.5999755859</ele>
        <time>2012-07-08T08:57:31.000Z</time>
      </trkpt>
      <trkpt lat="45.00413" lon="5.51171">
        <ele>1256.4000244141</ele>
        <time>2012-07-08T08:57:36.000Z</time>
      </trkpt>
      <trkpt lat="45.00417" lon="5.51169">
        <ele>1256</ele>
        <time>2012-07-08T08:57:37.000Z</time>
      </trkpt>
      <trkpt lat="45.00437" lon="5.51147">
        <ele>1254.5999755859</ele>
        <time>2012-07-08T08:57:43.000Z</time>
      </trkpt>
      <trkpt lat="45.00454" lon="5.51136">
        <ele>1255</ele>
        <time>2012-07-08T08:57:47.000Z</time>
      </trkpt>
      <trkpt lat="45.00459" lon="5.51134">
        <ele>1255.5999755859</ele>
        <time>2012-07-08T08:57:48.000Z</time>
      </trkpt>
      <trkpt lat="45.00473" lon="5.51136">
        <ele>1254.5999755859</ele>
        <time>2012-07-08T08:57:54.000Z</time>
      </trkpt>
      <trkpt lat="45.00486" lon="5.51126">
        <ele>1252.1999511719</ele>
        <time>2012-07-08T08:57:59.000Z</time>
      </trkpt>
      <trkpt lat="45.00503" lon="5.51111">
        <ele>1247.4000244141</ele>
        <time>2012-07-08T08:58:04.000Z</time>
      </trkpt>
      <trkpt lat="45.00515" lon="5.51099">
        <ele>1245.4000244141</ele>
        <time>2012-07-08T08:58:08.000Z</time>
      </trkpt>
      <trkpt lat="45.00523" lon="5.51093">
        <ele>1246</ele>
        <time>2012-07-08T08:58:11.000Z</time>
      </trkpt>
      <trkpt lat="45.00541" lon="5.51101">
        <ele>1245.4000244141</ele>
        <time>2012-07-08T08:58:17.000Z</time>
      </trkpt>
      <trkpt lat="45.00556" lon="5.511">
        <ele>1247.4000244141</ele>
        <time>2012-07-08T08:58:21.000Z</time>
      </trkpt>
      <trkpt lat="45.00569" lon="5.51105">
        <ele>1249.1999511719</ele>
        <time>2012-07-08T08:58:25.000Z</time>
      </trkpt>
      <trkpt lat="45.00583" lon="5.51113">
        <ele>1248.8000488281</ele>
        <time>2012-07-08T08:58:30.000Z</time>
      </trkpt>
      <trkpt lat="45.00587" lon="5.51116">
        <ele>1247.8000488281</ele>
        <time>2012-07-08T08:58:33.000Z</time>
      </trkpt>
      <trkpt lat="45.0059" lon="5.51119">
        <ele>1246.8000488281</ele>
        <time>2012-07-08T08:58:35.000Z</time>
      </trkpt>
      <trkpt lat="45.00603" lon="5.51128">
        <ele>1246.4000244141</ele>
        <time>2012-07-08T08:58:40.000Z</time>
      </trkpt>
      <trkpt lat="45.00611" lon="5.51141">
        <ele>1242.5999755859</ele>
        <time>2012-07-08T08:58:44.000Z</time>
      </trkpt>
      <trkpt lat="45.00614" lon="5.51142">
        <ele>1242.5999755859</ele>
        <time>2012-07-08T08:58:45.000Z</time>
      </trkpt>
      <trkpt lat="45.00636" lon="5.51141">
        <ele>1237.8000488281</ele>
        <time>2012-07-08T08:58:50.000Z</time>
      </trkpt>
      <trkpt lat="45.00641" lon="5.5114">
        <ele>1236.1999511719</ele>
        <time>2012-07-08T08:58:51.000Z</time>
      </trkpt>
      <trkpt lat="45.00652" lon="5.51137">
        <ele>1234.8000488281</ele>
        <time>2012-07-08T08:58:53.000Z</time>
      </trkpt>
      <trkpt lat="45.00672" lon="5.51125">
        <ele>1232.4000244141</ele>
        <time>2012-07-08T08:58:58.000Z</time>
      </trkpt>
      <trkpt lat="45.00678" lon="5.51122">
        <ele>1231.4000244141</ele>
        <time>2012-07-08T08:59:00.000Z</time>
      </trkpt>
      <trkpt lat="45.00684" lon="5.51116">
        <ele>1232.4000244141</ele>
        <time>2012-07-08T08:59:06.000Z</time>
      </trkpt>
      <trkpt lat="45.00685" lon="5.51122">
        <ele>1233.4000244141</ele>
        <time>2012-07-08T08:59:12.000Z</time>
      </trkpt>
      <trkpt lat="45.00684" lon="5.51124">
        <ele>1235.4000244141</ele>
        <time>2012-07-08T08:59:20.000Z</time>
      </trkpt>
      <trkpt lat="45.00686" lon="5.5113">
        <ele>1235.8000488281</ele>
        <time>2012-07-08T08:59:23.000Z</time>
      </trkpt>
      <trkpt lat="45.00693" lon="5.51142">
        <ele>1236.1999511719</ele>
        <time>2012-07-08T08:59:28.000Z</time>
      </trkpt>
      <trkpt lat="45.00696" lon="5.51149">
        <ele>1235.8000488281</ele>
        <time>2012-07-08T08:59:31.000Z</time>
      </trkpt>
      <trkpt lat="45.00698" lon="5.51164">
        <ele>1234.4000244141</ele>
        <time>2012-07-08T08:59:35.000Z</time>
      </trkpt>
      <trkpt lat="45.00695" lon="5.51182">
        <ele>1234.4000244141</ele>
        <time>2012-07-08T08:59:40.000Z</time>
      </trkpt>
      <trkpt lat="45.00694" lon="5.51194">
        <ele>1233.8000488281</ele>
        <time>2012-07-08T08:59:44.000Z</time>
      </trkpt>
      <trkpt lat="45.00692" lon="5.51195">
        <ele>1233.4000244141</ele>
        <time>2012-07-08T08:59:45.000Z</time>
      </trkpt>
      <trkpt lat="45.00689" lon="5.51198">
        <ele>1233</ele>
        <time>2012-07-08T08:59:47.000Z</time>
      </trkpt>
      <trkpt lat="45.00689" lon="5.51204">
        <ele>1233.4000244141</ele>
        <time>2012-07-08T08:59:52.000Z</time>
      </trkpt>
      <trkpt lat="45.00689" lon="5.51203">
        <ele>1233.4000244141</ele>
        <time>2012-07-08T08:59:53.000Z</time>
      </trkpt>
      <trkpt lat="45.00696" lon="5.51208">
        <ele>1232</ele>
        <time>2012-07-08T08:59:58.000Z</time>
      </trkpt>
      <trkpt lat="45.00697" lon="5.51214">
        <ele>1231</ele>
        <time>2012-07-08T09:00:01.000Z</time>
      </trkpt>
      <trkpt lat="45.00692" lon="5.51224">
        <ele>1232</ele>
        <time>2012-07-08T09:00:05.000Z</time>
      </trkpt>
      <trkpt lat="45.00686" lon="5.51234">
        <ele>1233</ele>
        <time>2012-07-08T09:00:09.000Z</time>
      </trkpt>
      <trkpt lat="45.00685" lon="5.51235">
        <ele>1233.4000244141</ele>
        <time>2012-07-08T09:00:10.000Z</time>
      </trkpt>
      <trkpt lat="45.00675" lon="5.51235">
        <ele>1233.8000488281</ele>
        <time>2012-07-08T09:00:14.000Z</time>
      </trkpt>
      <trkpt lat="45.00668" lon="5.5123">
        <ele>1233.8000488281</ele>
        <time>2012-07-08T09:00:20.000Z</time>
      </trkpt>
      <trkpt lat="45.00663" lon="5.51237">
        <ele>1233.8000488281</ele>
        <time>2012-07-08T09:00:27.000Z</time>
      </trkpt>
      <trkpt lat="45.00663" lon="5.51238">
        <ele>1233.4000244141</ele>
        <time>2012-07-08T09:00:28.000Z</time>
      </trkpt>
      <trkpt lat="45.00664" lon="5.51238">
        <ele>1234.8000488281</ele>
        <time>2012-07-08T09:00:33.000Z</time>
      </trkpt>
      <trkpt lat="45.00667" lon="5.5124">
        <ele>1236.1999511719</ele>
        <time>2012-07-08T09:00:39.000Z</time>
      </trkpt>
      <trkpt lat="45.00667" lon="5.51242">
        <ele>1236.1999511719</ele>
        <time>2012-07-08T09:00:44.000Z</time>
      </trkpt>
      <trkpt lat="45.00667" lon="5.51242">
        <ele>1236.1999511719</ele>
        <time>2012-07-08T09:00:45.000Z</time>
      </trkpt>
      <trkpt lat="45.00661" lon="5.51238">
        <ele>1236.1999511719</ele>
        <time>2012-07-08T09:00:50.000Z</time>
      </trkpt>
      <trkpt lat="45.00656" lon="5.51231">
        <ele>1234.8000488281</ele>
        <time>2012-07-08T09:00:54.000Z</time>
      </trkpt>
      <trkpt lat="45.0065" lon="5.51222">
        <ele>1233</ele>
        <time>2012-07-08T09:00:59.000Z</time>
      </trkpt>
      <trkpt lat="45.00646" lon="5.51215">
        <ele>1233.4000244141</ele>
        <time>2012-07-08T09:01:02.000Z</time>
      </trkpt>
      <trkpt lat="45.00635" lon="5.51204">
        <ele>1234.8000488281</ele>
        <time>2012-07-08T09:01:08.000Z</time>
      </trkpt>
      <trkpt lat="45.00634" lon="5.51197">
        <ele>1235.4000244141</ele>
        <time>2012-07-08T09:01:12.000Z</time>
      </trkpt>
      <trkpt lat="45.00633" lon="5.51197">
        <ele>1235.4000244141</ele>
        <time>2012-07-08T09:01:13.000Z</time>
      </trkpt>
      <trkpt lat="45.00625" lon="5.51194">
        <ele>1237.8000488281</ele>
        <time>2012-07-08T09:01:18.000Z</time>
      </trkpt>
      <trkpt lat="45.00622" lon="5.51188">
        <ele>1239.1999511719</ele>
        <time>2012-07-08T09:01:21.000Z</time>
      </trkpt>
      <trkpt lat="45.0062" lon="5.51182">
        <ele>1239.5999755859</ele>
        <time>2012-07-08T09:01:24.000Z</time>
      </trkpt>
      <trkpt lat="45.00615" lon="5.51173">
        <ele>1242</ele>
        <time>2012-07-08T09:01:29.000Z</time>
      </trkpt>
      <trkpt lat="45.00617" lon="5.51158">
        <ele>1243.5999755859</ele>
        <time>2012-07-08T09:01:34.000Z</time>
      </trkpt>
      <trkpt lat="45.00618" lon="5.51152">
        <ele>1242</ele>
        <time>2012-07-08T09:01:38.000Z</time>
      </trkpt>
      <trkpt lat="45.00617" lon="5.5115">
        <ele>1242</ele>
        <time>2012-07-08T09:01:39.000Z</time>
      </trkpt>
      <trkpt lat="45.00614" lon="5.51141">
        <ele>1241.5999755859</ele>
        <time>2012-07-08T09:01:43.000Z</time>
      </trkpt>
      <trkpt lat="45.00607" lon="5.51136">
        <ele>1243</ele>
        <time>2012-07-08T09:01:48.000Z</time>
      </trkpt>
      <trkpt lat="45.00604" lon="5.51132">
        <ele>1243</ele>
        <time>2012-07-08T09:01:50.000Z</time>
      </trkpt>
      <trkpt lat="45.00602" lon="5.51129">
        <ele>1243</ele>
        <time>2012-07-08T09:01:53.000Z</time>
      </trkpt>
      <trkpt lat="45.00594" lon="5.51124">
        <ele>1242.5999755859</ele>
        <time>2012-07-08T09:01:58.000Z</time>
      </trkpt>
      <trkpt lat="45.00579" lon="5.51117">
        <ele>1242.5999755859</ele>
        <time>2012-07-08T09:02:04.000Z</time>
      </trkpt>
      <trkpt lat="45.0057" lon="5.51112">
        <ele>1241</ele>
        <time>2012-07-08T09:02:08.000Z</time>
      </trkpt>
      <trkpt lat="45.0056" lon="5.51108">
        <ele>1241</ele>
        <time>2012-07-08T09:02:12.000Z</time>
      </trkpt>
      <trkpt lat="45.00556" lon="5.51107">
        <ele>1242</ele>
        <time>2012-07-08T09:02:13.000Z</time>
      </trkpt>
      <trkpt lat="45.00542" lon="5.51102">
        <ele>1244</ele>
        <time>2012-07-08T09:02:19.000Z</time>
      </trkpt>
      <trkpt lat="45.00532" lon="5.51093">
        <ele>1246.4000244141</ele>
        <time>2012-07-08T09:02:23.000Z</time>
      </trkpt>
      <trkpt lat="45.00526" lon="5.51089">
        <ele>1247.4000244141</ele>
        <time>2012-07-08T09:02:25.000Z</time>
      </trkpt>
      <trkpt lat="45.00514" lon="5.51085">
        <ele>1248.8000488281</ele>
        <time>2012-07-08T09:02:30.000Z</time>
      </trkpt>
      <trkpt lat="45.00514" lon="5.51076">
        <ele>1248.8000488281</ele>
        <time>2012-07-08T09:02:34.000Z</time>
      </trkpt>
      <trkpt lat="45.00516" lon="5.51072">
        <ele>1248.4000244141</ele>
        <time>2012-07-08T09:02:35.000Z</time>
      </trkpt>
      <trkpt lat="45.00528" lon="5.51056">
        <ele>1248.4000244141</ele>
        <time>2012-07-08T09:02:40.000Z</time>
      </trkpt>
      <trkpt lat="45.00531" lon="5.51044">
        <ele>1245</ele>
        <time>2012-07-08T09:02:44.000Z</time>
      </trkpt>
      <trkpt lat="45.00522" lon="5.51038">
        <ele>1243.5999755859</ele>
        <time>2012-07-08T09:02:49.000Z</time>
      </trkpt>
      <trkpt lat="45.00511" lon="5.51036">
        <ele>1243</ele>
        <time>2012-07-08T09:02:54.000Z</time>
      </trkpt>
      <trkpt lat="45.00509" lon="5.5103">
        <ele>1243</ele>
        <time>2012-07-08T09:02:56.000Z</time>
      </trkpt>
      <trkpt lat="45.00505" lon="5.51023">
        <ele>1243.5999755859</ele>
        <time>2012-07-08T09:03:00.000Z</time>
      </trkpt>
      <trkpt lat="45.00502" lon="5.51018">
        <ele>1244</ele>
        <time>2012-07-08T09:03:05.000Z</time>
      </trkpt>
      <trkpt lat="45.005" lon="5.51014">
        <ele>1246.4000244141</ele>
        <time>2012-07-08T09:03:08.000Z</time>
      </trkpt>
      <trkpt lat="45.00498" lon="5.51006">
        <ele>1248.4000244141</ele>
        <time>2012-07-08T09:03:13.000Z</time>
      </trkpt>
      <trkpt lat="45.00495" lon="5.50999">
        <ele>1249.1999511719</ele>
        <time>2012-07-08T09:03:18.000Z</time>
      </trkpt>
      <trkpt lat="45.00489" lon="5.50997">
        <ele>1247.8000488281</ele>
        <time>2012-07-08T09:03:26.000Z</time>
      </trkpt>
      <trkpt lat="45.0049" lon="5.50995">
        <ele>1246.8000488281</ele>
        <time>2012-07-08T09:03:31.000Z</time>
      </trkpt>
      <trkpt lat="45.00491" lon="5.50994">
        <ele>1246.8000488281</ele>
        <time>2012-07-08T09:03:32.000Z</time>
      </trkpt>
      <trkpt lat="45.00493" lon="5.50988">
        <ele>1246.4000244141</ele>
        <time>2012-07-08T09:03:36.000Z</time>
      </trkpt>
      <trkpt lat="45.00496" lon="5.50983">
        <ele>1246.8000488281</ele>
        <time>2012-07-08T09:03:40.000Z</time>
      </trkpt>
      <trkpt lat="45.00492" lon="5.50974">
        <ele>1246.8000488281</ele>
        <time>2012-07-08T09:03:46.000Z</time>
      </trkpt>
      <trkpt lat="45.00494" lon="5.50968">
        <ele>1246.8000488281</ele>
        <time>2012-07-08T09:03:51.000Z</time>
      </trkpt>
      <trkpt lat="45.00494" lon="5.50967">
        <ele>1246.4000244141</ele>
        <time>2012-07-08T09:03:53.000Z</time>
      </trkpt>
      <trkpt lat="45.00493" lon="5.50962">
        <ele>1246.4000244141</ele>
        <time>2012-07-08T09:03:58.000Z</time>
      </trkpt>
      <trkpt lat="45.00496" lon="5.50963">
        <ele>1246.4000244141</ele>
        <time>2012-07-08T09:04:03.000Z</time>
      </trkpt>
      <trkpt lat="45.00498" lon="5.50963">
        <ele>1246.8000488281</ele>
        <time>2012-07-08T09:04:06.000Z</time>
      </trkpt>
      <trkpt lat="45.00507" lon="5.50963">
        <ele>1246.4000244141</ele>
        <time>2012-07-08T09:04:12.000Z</time>
      </trkpt>
      <trkpt lat="45.00514" lon="5.5096">
        <ele>1246.8000488281</ele>
        <time>2012-07-08T09:04:16.000Z</time>
      </trkpt>
      <trkpt lat="45.00517" lon="5.5096">
        <ele>1246.8000488281</ele>
        <time>2012-07-08T09:04:18.000Z</time>
      </trkpt>
      <trkpt lat="45.00526" lon="5.50961">
        <ele>1247.4000244141</ele>
        <time>2012-07-08T09:04:24.000Z</time>
      </trkpt>
      <trkpt lat="45.00529" lon="5.50957">
        <ele>1246.8000488281</ele>
        <time>2012-07-08T09:04:30.000Z</time>
      </trkpt>
      <trkpt lat="45.00531" lon="5.50957">
        <ele>1246</ele>
        <time>2012-07-08T09:04:34.000Z</time>
      </trkpt>
      <trkpt lat="45.00535" lon="5.5096">
        <ele>1245.4000244141</ele>
        <time>2012-07-08T09:04:38.000Z</time>
      </trkpt>
      <trkpt lat="45.00541" lon="5.50959">
        <ele>1245</ele>
        <time>2012-07-08T09:04:43.000Z</time>
      </trkpt>
      <trkpt lat="45.00544" lon="5.50957">
        <ele>1245.4000244141</ele>
        <time>2012-07-08T09:04:48.000Z</time>
      </trkpt>
      <trkpt lat="45.00547" lon="5.50957">
        <ele>1246.4000244141</ele>
        <time>2012-07-08T09:04:50.000Z</time>
      </trkpt>
      <trkpt lat="45.00553" lon="5.50953">
        <ele>1247.8000488281</ele>
        <time>2012-07-08T09:04:57.000Z</time>
      </trkpt>
      <trkpt lat="45.00553" lon="5.50955">
        <ele>1248.4000244141</ele>
        <time>2012-07-08T09:05:06.000Z</time>
      </trkpt>
      <trkpt lat="45.0055" lon="5.50957">
        <ele>1246.8000488281</ele>
        <time>2012-07-08T09:05:11.000Z</time>
      </trkpt>
      <trkpt lat="45.00549" lon="5.5096">
        <ele>1246</ele>
        <time>2012-07-08T09:05:15.000Z</time>
      </trkpt>
      <trkpt lat="45.00545" lon="5.50961">
        <ele>1246</ele>
        <time>2012-07-08T09:05:20.000Z</time>
      </trkpt>
      <trkpt lat="45.00536" lon="5.50966">
        <ele>1244</ele>
        <time>2012-07-08T09:05:25.000Z</time>
      </trkpt>
      <trkpt lat="45.00535" lon="5.50967">
        <ele>1244</ele>
        <time>2012-07-08T09:05:26.000Z</time>
      </trkpt>
      <trkpt lat="45.00532" lon="5.50961">
        <ele>1243.5999755859</ele>
        <time>2012-07-08T09:05:30.000Z</time>
      </trkpt>
      <trkpt lat="45.00531" lon="5.50958">
        <ele>1243</ele>
        <time>2012-07-08T09:05:31.000Z</time>
      </trkpt>
      <trkpt lat="45.00531" lon="5.50952">
        <ele>1243</ele>
        <time>2012-07-08T09:05:34.000Z</time>
      </trkpt>
      <trkpt lat="45.00533" lon="5.50951">
        <ele>1244.4000244141</ele>
        <time>2012-07-08T09:05:39.000Z</time>
      </trkpt>
      <trkpt lat="45.00535" lon="5.50956">
        <ele>1243.5999755859</ele>
        <time>2012-07-08T09:05:45.000Z</time>
      </trkpt>
      <trkpt lat="45.00542" lon="5.50959">
        <ele>1244</ele>
        <time>2012-07-08T09:05:50.000Z</time>
      </trkpt>
      <trkpt lat="45.00547" lon="5.50956">
        <ele>1244</ele>
        <time>2012-07-08T09:05:54.000Z</time>
      </trkpt>
      <trkpt lat="45.00552" lon="5.50955">
        <ele>1245.4000244141</ele>
        <time>2012-07-08T09:05:58.000Z</time>
      </trkpt>
      <trkpt lat="45.00553" lon="5.50953">
        <ele>1246</ele>
        <time>2012-07-08T09:06:00.000Z</time>
      </trkpt>
      <trkpt lat="45.00557" lon="5.50947">
        <ele>1247.8000488281</ele>
        <time>2012-07-08T09:06:06.000Z</time>
      </trkpt>
      <trkpt lat="45.00563" lon="5.50942">
        <ele>1249.8000488281</ele>
        <time>2012-07-08T09:06:09.000Z</time>
      </trkpt>
      <trkpt lat="45.00572" lon="5.50939">
        <ele>1250.1999511719</ele>
        <time>2012-07-08T09:06:13.000Z</time>
      </trkpt>
      <trkpt lat="45.0058" lon="5.50936">
        <ele>1249.8000488281</ele>
        <time>2012-07-08T09:06:16.000Z</time>
      </trkpt>
      <trkpt lat="45.00583" lon="5.50934">
        <ele>1249.1999511719</ele>
        <time>2012-07-08T09:06:19.000Z</time>
      </trkpt>
      <trkpt lat="45.00589" lon="5.50937">
        <ele>1247.8000488281</ele>
        <time>2012-07-08T09:06:25.000Z</time>
      </trkpt>
      <trkpt lat="45.00595" lon="5.50937">
        <ele>1247.4000244141</ele>
        <time>2012-07-08T09:06:28.000Z</time>
      </trkpt>
      <trkpt lat="45.00605" lon="5.50933">
        <ele>1247.8000488281</ele>
        <time>2012-07-08T09:06:31.000Z</time>
      </trkpt>
      <trkpt lat="45.00612" lon="5.50927">
        <ele>1249.1999511719</ele>
        <time>2012-07-08T09:06:35.000Z</time>
      </trkpt>
      <trkpt lat="45.00615" lon="5.50924">
        <ele>1249.8000488281</ele>
        <time>2012-07-08T09:06:39.000Z</time>
      </trkpt>
      <trkpt lat="45.00619" lon="5.50912">
        <ele>1249.1999511719</ele>
        <time>2012-07-08T09:06:45.000Z</time>
      </trkpt>
      <trkpt lat="45.00625" lon="5.50902">
        <ele>1248.8000488281</ele>
        <time>2012-07-08T09:06:50.000Z</time>
      </trkpt>
      <trkpt lat="45.00626" lon="5.50899">
        <ele>1249.8000488281</ele>
        <time>2012-07-08T09:06:53.000Z</time>
      </trkpt>
      <trkpt lat="45.00635" lon="5.50895">
        <ele>1246.8000488281</ele>
        <time>2012-07-08T09:06:59.000Z</time>
      </trkpt>
      <trkpt lat="45.00641" lon="5.50883">
        <ele>1245.4000244141</ele>
        <time>2012-07-08T09:07:03.000Z</time>
      </trkpt>
      <trkpt lat="45.00647" lon="5.50867">
        <ele>1246</ele>
        <time>2012-07-08T09:07:07.000Z</time>
      </trkpt>
      <trkpt lat="45.00652" lon="5.50854">
        <ele>1243.5999755859</ele>
        <time>2012-07-08T09:07:11.000Z</time>
      </trkpt>
      <trkpt lat="45.00664" lon="5.50842">
        <ele>1244.4000244141</ele>
        <time>2012-07-08T09:07:17.000Z</time>
      </trkpt>
      <trkpt lat="45.00669" lon="5.50827">
        <ele>1244.4000244141</ele>
        <time>2012-07-08T09:07:21.000Z</time>
      </trkpt>
      <trkpt lat="45.00679" lon="5.50816">
        <ele>1245.4000244141</ele>
        <time>2012-07-08T09:07:25.000Z</time>
      </trkpt>
      <trkpt lat="45.00689" lon="5.50803">
        <ele>1246.4000244141</ele>
        <time>2012-07-08T09:07:29.000Z</time>
      </trkpt>
      <trkpt lat="45.00696" lon="5.50794">
        <ele>1245.4000244141</ele>
        <time>2012-07-08T09:07:33.000Z</time>
      </trkpt>
      <trkpt lat="45.00697" lon="5.50791">
        <ele>1245.4000244141</ele>
        <time>2012-07-08T09:07:34.000Z</time>
      </trkpt>
      <trkpt lat="45.00716" lon="5.50779">
        <ele>1244.4000244141</ele>
        <time>2012-07-08T09:07:41.000Z</time>
      </trkpt>
      <trkpt lat="45.00719" lon="5.50777">
        <ele>1245</ele>
        <time>2012-07-08T09:07:44.000Z</time>
      </trkpt>
      <trkpt lat="45.00723" lon="5.50776">
        <ele>1251.1999511719</ele>
        <time>2012-07-08T09:07:56.000Z</time>
      </trkpt>
      <trkpt lat="45.00733" lon="5.50789">
        <ele>1249.1999511719</ele>
        <time>2012-07-08T09:08:01.000Z</time>
      </trkpt>
      <trkpt lat="45.00743" lon="5.50799">
        <ele>1246.8000488281</ele>
        <time>2012-07-08T09:08:05.000Z</time>
      </trkpt>
      <trkpt lat="45.00746" lon="5.50803">
        <ele>1246</ele>
        <time>2012-07-08T09:08:07.000Z</time>
      </trkpt>
      <trkpt lat="45.00751" lon="5.50807">
        <ele>1245.4000244141</ele>
        <time>2012-07-08T09:08:10.000Z</time>
      </trkpt>
      <trkpt lat="45.00759" lon="5.50816">
        <ele>1244</ele>
        <time>2012-07-08T09:08:16.000Z</time>
      </trkpt>
      <trkpt lat="45.00765" lon="5.50824">
        <ele>1241.5999755859</ele>
        <time>2012-07-08T09:08:20.000Z</time>
      </trkpt>
      <trkpt lat="45.00771" lon="5.50828">
        <ele>1241</ele>
        <time>2012-07-08T09:08:23.000Z</time>
      </trkpt>
      <trkpt lat="45.00777" lon="5.50837">
        <ele>1239.1999511719</ele>
        <time>2012-07-08T09:08:28.000Z</time>
      </trkpt>
      <trkpt lat="45.00784" lon="5.50839">
        <ele>1238.5999755859</ele>
        <time>2012-07-08T09:08:33.000Z</time>
      </trkpt>
      <trkpt lat="45.00787" lon="5.50839">
        <ele>1238.1999511719</ele>
        <time>2012-07-08T09:08:35.000Z</time>
      </trkpt>
      <trkpt lat="45.008" lon="5.50837">
        <ele>1236.1999511719</ele>
        <time>2012-07-08T09:08:41.000Z</time>
      </trkpt>
      <trkpt lat="45.00811" lon="5.50827">
        <ele>1236.1999511719</ele>
        <time>2012-07-08T09:08:46.000Z</time>
      </trkpt>
      <trkpt lat="45.00816" lon="5.50821">
        <ele>1237.8000488281</ele>
        <time>2012-07-08T09:08:48.000Z</time>
      </trkpt>
      <trkpt lat="45.00822" lon="5.50811">
        <ele>1239.1999511719</ele>
        <time>2012-07-08T09:08:53.000Z</time>
      </trkpt>
      <trkpt lat="45.00829" lon="5.50801">
        <ele>1240.1999511719</ele>
        <time>2012-07-08T09:08:57.000Z</time>
      </trkpt>
      <trkpt lat="45.00831" lon="5.5079">
        <ele>1240.5999755859</ele>
        <time>2012-07-08T09:09:01.000Z</time>
      </trkpt>
      <trkpt lat="45.00826" lon="5.50774">
        <ele>1240.5999755859</ele>
        <time>2012-07-08T09:09:06.000Z</time>
      </trkpt>
      <trkpt lat="45.00826" lon="5.50773">
        <ele>1240.5999755859</ele>
        <time>2012-07-08T09:09:07.000Z</time>
      </trkpt>
      <trkpt lat="45.0083" lon="5.50771">
        <ele>1241</ele>
        <time>2012-07-08T09:09:14.000Z</time>
      </trkpt>
      <trkpt lat="45.00836" lon="5.50764">
        <ele>1244</ele>
        <time>2012-07-08T09:09:21.000Z</time>
      </trkpt>
      <trkpt lat="45.00839" lon="5.50753">
        <ele>1245</ele>
        <time>2012-07-08T09:09:26.000Z</time>
      </trkpt>
      <trkpt lat="45.00841" lon="5.50748">
        <ele>1246</ele>
        <time>2012-07-08T09:09:28.000Z</time>
      </trkpt>
      <trkpt lat="45.00844" lon="5.50735">
        <ele>1247.8000488281</ele>
        <time>2012-07-08T09:09:34.000Z</time>
      </trkpt>
      <trkpt lat="45.00844" lon="5.50732">
        <ele>1247.8000488281</ele>
        <time>2012-07-08T09:09:35.000Z</time>
      </trkpt>
      <trkpt lat="45.00845" lon="5.50725">
        <ele>1250.8000488281</ele>
        <time>2012-07-08T09:09:40.000Z</time>
      </trkpt>
      <trkpt lat="45.00846" lon="5.5072">
        <ele>1253.1999511719</ele>
        <time>2012-07-08T09:09:44.000Z</time>
      </trkpt>
      <trkpt lat="45.00846" lon="5.50713">
        <ele>1253.5999755859</ele>
        <time>2012-07-08T09:09:49.000Z</time>
      </trkpt>
      <trkpt lat="45.0085" lon="5.50703">
        <ele>1252.5999755859</ele>
        <time>2012-07-08T09:09:55.000Z</time>
      </trkpt>
      <trkpt lat="45.0085" lon="5.507">
        <ele>1252.5999755859</ele>
        <time>2012-07-08T09:09:57.000Z</time>
      </trkpt>
      <trkpt lat="45.00853" lon="5.50689">
        <ele>1252.5999755859</ele>
        <time>2012-07-08T09:10:03.000Z</time>
      </trkpt>
      <trkpt lat="45.00855" lon="5.50685">
        <ele>1253.5999755859</ele>
        <time>2012-07-08T09:10:05.000Z</time>
      </trkpt>
      <trkpt lat="45.00865" lon="5.50672">
        <ele>1255</ele>
        <time>2012-07-08T09:10:10.000Z</time>
      </trkpt>
      <trkpt lat="45.00865" lon="5.50668">
        <ele>1256.4000244141</ele>
        <time>2012-07-08T09:10:13.000Z</time>
      </trkpt>
      <trkpt lat="45.00866" lon="5.50664">
        <ele>1258.4000244141</ele>
        <time>2012-07-08T09:10:16.000Z</time>
      </trkpt>
      <trkpt lat="45.00866" lon="5.50661">
        <ele>1258.8000488281</ele>
        <time>2012-07-08T09:10:18.000Z</time>
      </trkpt>
      <trkpt lat="45.00867" lon="5.50649">
        <ele>1259.4000244141</ele>
        <time>2012-07-08T09:10:24.000Z</time>
      </trkpt>
      <trkpt lat="45.00871" lon="5.50634">
        <ele>1257.4000244141</ele>
        <time>2012-07-08T09:10:28.000Z</time>
      </trkpt>
      <trkpt lat="45.00874" lon="5.50626">
        <ele>1255.5999755859</ele>
        <time>2012-07-08T09:10:32.000Z</time>
      </trkpt>
      <trkpt lat="45.00881" lon="5.50623">
        <ele>1258.8000488281</ele>
        <time>2012-07-08T09:10:37.000Z</time>
      </trkpt>
      <trkpt lat="45.00889" lon="5.50621">
        <ele>1259.8000488281</ele>
        <time>2012-07-08T09:10:42.000Z</time>
      </trkpt>
      <trkpt lat="45.00894" lon="5.50617">
        <ele>1258.8000488281</ele>
        <time>2012-07-08T09:10:46.000Z</time>
      </trkpt>
      <trkpt lat="45.00899" lon="5.50615">
        <ele>1259.8000488281</ele>
        <time>2012-07-08T09:10:51.000Z</time>
      </trkpt>
      <trkpt lat="45.00902" lon="5.50614">
        <ele>1260.4000244141</ele>
        <time>2012-07-08T09:10:59.000Z</time>
      </trkpt>
      <trkpt lat="45.00909" lon="5.50632">
        <ele>1256</ele>
        <time>2012-07-08T09:11:04.000Z</time>
      </trkpt>
      <trkpt lat="45.00915" lon="5.50641">
        <ele>1253.1999511719</ele>
        <time>2012-07-08T09:11:07.000Z</time>
      </trkpt>
      <trkpt lat="45.00932" lon="5.50644">
        <ele>1249.1999511719</ele>
        <time>2012-07-08T09:11:12.000Z</time>
      </trkpt>
      <trkpt lat="45.00941" lon="5.50635">
        <ele>1252.5999755859</ele>
        <time>2012-07-08T09:11:17.000Z</time>
      </trkpt>
      <trkpt lat="45.00942" lon="5.50628">
        <ele>1253.5999755859</ele>
        <time>2012-07-08T09:11:21.000Z</time>
      </trkpt>
      <trkpt lat="45.00939" lon="5.50618">
        <ele>1258</ele>
        <time>2012-07-08T09:11:25.000Z</time>
      </trkpt>
      <trkpt lat="45.00935" lon="5.50597">
        <ele>1262.8000488281</ele>
        <time>2012-07-08T09:11:30.000Z</time>
      </trkpt>
      <trkpt lat="45.00934" lon="5.50594">
        <ele>1264.1999511719</ele>
        <time>2012-07-08T09:11:31.000Z</time>
      </trkpt>
      <trkpt lat="45.00928" lon="5.50573">
        <ele>1268.4000244141</ele>
        <time>2012-07-08T09:11:36.000Z</time>
      </trkpt>
      <trkpt lat="45.00922" lon="5.50558">
        <ele>1268.4000244141</ele>
        <time>2012-07-08T09:11:40.000Z</time>
      </trkpt>
      <trkpt lat="45.00919" lon="5.50554">
        <ele>1269</ele>
        <time>2012-07-08T09:11:42.000Z</time>
      </trkpt>
      <trkpt lat="45.00917" lon="5.50545">
        <ele>1270</ele>
        <time>2012-07-08T09:11:45.000Z</time>
      </trkpt>
      <trkpt lat="45.00924" lon="5.50533">
        <ele>1271.4000244141</ele>
        <time>2012-07-08T09:11:50.000Z</time>
      </trkpt>
      <trkpt lat="45.00925" lon="5.50525">
        <ele>1271.4000244141</ele>
        <time>2012-07-08T09:11:53.000Z</time>
      </trkpt>
      <trkpt lat="45.00929" lon="5.50514">
        <ele>1272.8000488281</ele>
        <time>2012-07-08T09:11:58.000Z</time>
      </trkpt>
      <trkpt lat="45.00935" lon="5.50504">
        <ele>1273.8000488281</ele>
        <time>2012-07-08T09:12:02.000Z</time>
      </trkpt>
      <trkpt lat="45.00945" lon="5.505">
        <ele>1273.8000488281</ele>
        <time>2012-07-08T09:12:06.000Z</time>
      </trkpt>
      <trkpt lat="45.00952" lon="5.50495">
        <ele>1275.1999511719</ele>
        <time>2012-07-08T09:12:10.000Z</time>
      </trkpt>
      <trkpt lat="45.00963" lon="5.50485">
        <ele>1273.8000488281</ele>
        <time>2012-07-08T09:12:16.000Z</time>
      </trkpt>
      <trkpt lat="45.00969" lon="5.50479">
        <ele>1275.1999511719</ele>
        <time>2012-07-08T09:12:19.000Z</time>
      </trkpt>
      <trkpt lat="45.00973" lon="5.50476">
        <ele>1275.8000488281</ele>
        <time>2012-07-08T09:12:21.000Z</time>
      </trkpt>
      <trkpt lat="45.00978" lon="5.50462">
        <ele>1276.5999755859</ele>
        <time>2012-07-08T09:12:28.000Z</time>
      </trkpt>
      <trkpt lat="45.0098" lon="5.50447">
        <ele>1281.4000244141</ele>
        <time>2012-07-08T09:12:35.000Z</time>
      </trkpt>
      <trkpt lat="45.00981" lon="5.50436">
        <ele>1285.8000488281</ele>
        <time>2012-07-08T09:12:39.000Z</time>
      </trkpt>
      <trkpt lat="45.00983" lon="5.50425">
        <ele>1290.1999511719</ele>
        <time>2012-07-08T09:12:45.000Z</time>
      </trkpt>
      <trkpt lat="45.00986" lon="5.5042">
        <ele>1289.5999755859</ele>
        <time>2012-07-08T09:12:48.000Z</time>
      </trkpt>
      <trkpt lat="45.00989" lon="5.50421">
        <ele>1291.5999755859</ele>
        <time>2012-07-08T09:12:50.000Z</time>
      </trkpt>
      <trkpt lat="45.00992" lon="5.50414">
        <ele>1294.4000244141</ele>
        <time>2012-07-08T09:12:56.000Z</time>
      </trkpt>
      <trkpt lat="45.00996" lon="5.50411">
        <ele>1295.4000244141</ele>
        <time>2012-07-08T09:12:59.000Z</time>
      </trkpt>
      <trkpt lat="45.00995" lon="5.50403">
        <ele>1295</ele>
        <time>2012-07-08T09:13:04.000Z</time>
      </trkpt>
      <trkpt lat="45.00989" lon="5.50398">
        <ele>1294.4000244141</ele>
        <time>2012-07-08T09:13:10.000Z</time>
      </trkpt>
      <trkpt lat="45.00982" lon="5.50385">
        <ele>1294.4000244141</ele>
        <time>2012-07-08T09:13:14.000Z</time>
      </trkpt>
      <trkpt lat="45.00977" lon="5.50368">
        <ele>1295</ele>
        <time>2012-07-08T09:13:18.000Z</time>
      </trkpt>
      <trkpt lat="45.00969" lon="5.50345">
        <ele>1303.1999511719</ele>
        <time>2012-07-08T09:13:23.000Z</time>
      </trkpt>
      <trkpt lat="45.00969" lon="5.5034">
        <ele>1303.5999755859</ele>
        <time>2012-07-08T09:13:25.000Z</time>
      </trkpt>
      <trkpt lat="45.00973" lon="5.50329">
        <ele>1308</ele>
        <time>2012-07-08T09:13:33.000Z</time>
      </trkpt>
      <trkpt lat="45.00973" lon="5.50328">
        <ele>1308.4000244141</ele>
        <time>2012-07-08T09:13:34.000Z</time>
      </trkpt>
      <trkpt lat="45.00977" lon="5.50326">
        <ele>1309.8000488281</ele>
        <time>2012-07-08T09:13:36.000Z</time>
      </trkpt>
      <trkpt lat="45.00986" lon="5.50317">
        <ele>1311.1999511719</ele>
        <time>2012-07-08T09:13:44.000Z</time>
      </trkpt>
      <trkpt lat="45.00992" lon="5.50314">
        <ele>1310.4000244141</ele>
        <time>2012-07-08T09:13:49.000Z</time>
      </trkpt>
      <trkpt lat="45.00995" lon="5.50312">
        <ele>1309.8000488281</ele>
        <time>2012-07-08T09:13:51.000Z</time>
      </trkpt>
      <trkpt lat="45.01001" lon="5.50305">
        <ele>1311.1999511719</ele>
        <time>2012-07-08T09:13:58.000Z</time>
      </trkpt>
      <trkpt lat="45.01011" lon="5.50296">
        <ele>1309.8000488281</ele>
        <time>2012-07-08T09:14:05.000Z</time>
      </trkpt>
      <trkpt lat="45.01015" lon="5.50294">
        <ele>1310.4000244141</ele>
        <time>2012-07-08T09:14:07.000Z</time>
      </trkpt>
      <trkpt lat="45.01022" lon="5.50292">
        <ele>1308.8000488281</ele>
        <time>2012-07-08T09:14:12.000Z</time>
      </trkpt>
      <trkpt lat="45.01033" lon="5.50286">
        <ele>1306</ele>
        <time>2012-07-08T09:14:17.000Z</time>
      </trkpt>
      <trkpt lat="45.01043" lon="5.50281">
        <ele>1304.5999755859</ele>
        <time>2012-07-08T09:14:22.000Z</time>
      </trkpt>
      <trkpt lat="45.01048" lon="5.50284">
        <ele>1304</ele>
        <time>2012-07-08T09:14:25.000Z</time>
      </trkpt>
      <trkpt lat="45.0105" lon="5.50284">
        <ele>1305.5999755859</ele>
        <time>2012-07-08T09:14:28.000Z</time>
      </trkpt>
      <trkpt lat="45.01054" lon="5.50285">
        <ele>1306.4000244141</ele>
        <time>2012-07-08T09:14:31.000Z</time>
      </trkpt>
      <trkpt lat="45.01058" lon="5.50296">
        <ele>1307</ele>
        <time>2012-07-08T09:14:36.000Z</time>
      </trkpt>
      <trkpt lat="45.01059" lon="5.50296">
        <ele>1308.4000244141</ele>
        <time>2012-07-08T09:14:37.000Z</time>
      </trkpt>
      <trkpt lat="45.0106" lon="5.50295">
        <ele>1309.4000244141</ele>
        <time>2012-07-08T09:14:39.000Z</time>
      </trkpt>
      <trkpt lat="45.01066" lon="5.50296">
        <ele>1308.4000244141</ele>
        <time>2012-07-08T09:14:44.000Z</time>
      </trkpt>
      <trkpt lat="45.0107" lon="5.50299">
        <ele>1308</ele>
        <time>2012-07-08T09:14:46.000Z</time>
      </trkpt>
      <trkpt lat="45.01075" lon="5.50303">
        <ele>1307.4000244141</ele>
        <time>2012-07-08T09:14:48.000Z</time>
      </trkpt>
      <trkpt lat="45.01083" lon="5.50303">
        <ele>1307</ele>
        <time>2012-07-08T09:14:52.000Z</time>
      </trkpt>
      <trkpt lat="45.01098" lon="5.50302">
        <ele>1303.1999511719</ele>
        <time>2012-07-08T09:14:59.000Z</time>
      </trkpt>
      <trkpt lat="45.01107" lon="5.50303">
        <ele>1302.1999511719</ele>
        <time>2012-07-08T09:15:03.000Z</time>
      </trkpt>
      <trkpt lat="45.01113" lon="5.50304">
        <ele>1303.1999511719</ele>
        <time>2012-07-08T09:15:05.000Z</time>
      </trkpt>
      <trkpt lat="45.01122" lon="5.50304">
        <ele>1302.5999755859</ele>
        <time>2012-07-08T09:15:11.000Z</time>
      </trkpt>
      <trkpt lat="45.01129" lon="5.50306">
        <ele>1300.8000488281</ele>
        <time>2012-07-08T09:15:17.000Z</time>
      </trkpt>
      <trkpt lat="45.0113" lon="5.50306">
        <ele>1300.1999511719</ele>
        <time>2012-07-08T09:15:18.000Z</time>
      </trkpt>
      <trkpt lat="45.01138" lon="5.50303">
        <ele>1301.1999511719</ele>
        <time>2012-07-08T09:15:25.000Z</time>
      </trkpt>
      <trkpt lat="45.01145" lon="5.50291">
        <ele>1296.8000488281</ele>
        <time>2012-07-08T09:15:31.000Z</time>
      </trkpt>
      <trkpt lat="45.01155" lon="5.5028">
        <ele>1294</ele>
        <time>2012-07-08T09:15:36.000Z</time>
      </trkpt>
      <trkpt lat="45.01157" lon="5.50278">
        <ele>1292.5999755859</ele>
        <time>2012-07-08T09:15:37.000Z</time>
      </trkpt>
      <trkpt lat="45.01168" lon="5.50281">
        <ele>1290.5999755859</ele>
        <time>2012-07-08T09:15:42.000Z</time>
      </trkpt>
      <trkpt lat="45.01178" lon="5.50285">
        <ele>1290.1999511719</ele>
        <time>2012-07-08T09:15:46.000Z</time>
      </trkpt>
      <trkpt lat="45.01194" lon="5.503">
        <ele>1289.5999755859</ele>
        <time>2012-07-08T09:15:52.000Z</time>
      </trkpt>
      <trkpt lat="45.012" lon="5.50307">
        <ele>1291</ele>
        <time>2012-07-08T09:15:56.000Z</time>
      </trkpt>
      <trkpt lat="45.01209" lon="5.5031">
        <ele>1295.8000488281</ele>
        <time>2012-07-08T09:16:00.000Z</time>
      </trkpt>
      <trkpt lat="45.01212" lon="5.5031">
        <ele>1296.4000244141</ele>
        <time>2012-07-08T09:16:01.000Z</time>
      </trkpt>
      <trkpt lat="45.01221" lon="5.50303">
        <ele>1295</ele>
        <time>2012-07-08T09:16:06.000Z</time>
      </trkpt>
      <trkpt lat="45.01228" lon="5.50298">
        <ele>1294.4000244141</ele>
        <time>2012-07-08T09:16:11.000Z</time>
      </trkpt>
      <trkpt lat="45.01234" lon="5.50292">
        <ele>1294.4000244141</ele>
        <time>2012-07-08T09:16:16.000Z</time>
      </trkpt>
      <trkpt lat="45.01243" lon="5.50287">
        <ele>1292.5999755859</ele>
        <time>2012-07-08T09:16:21.000Z</time>
      </trkpt>
      <trkpt lat="45.01248" lon="5.50278">
        <ele>1291</ele>
        <time>2012-07-08T09:16:26.000Z</time>
      </trkpt>
      <trkpt lat="45.01249" lon="5.50277">
        <ele>1291</ele>
        <time>2012-07-08T09:16:27.000Z</time>
      </trkpt>
      <trkpt lat="45.01262" lon="5.50265">
        <ele>1283.8000488281</ele>
        <time>2012-07-08T09:16:33.000Z</time>
      </trkpt>
      <trkpt lat="45.01269" lon="5.50257">
        <ele>1283.4000244141</ele>
        <time>2012-07-08T09:16:36.000Z</time>
      </trkpt>
      <trkpt lat="45.01283" lon="5.50262">
        <ele>1281.4000244141</ele>
        <time>2012-07-08T09:16:41.000Z</time>
      </trkpt>
      <trkpt lat="45.01287" lon="5.50263">
        <ele>1283</ele>
        <time>2012-07-08T09:16:45.000Z</time>
      </trkpt>
      <trkpt lat="45.0129" lon="5.50256">
        <ele>1289.5999755859</ele>
        <time>2012-07-08T09:16:51.000Z</time>
      </trkpt>
      <trkpt lat="45.0129" lon="5.50246">
        <ele>1289.1999511719</ele>
        <time>2012-07-08T09:16:55.000Z</time>
      </trkpt>
      <trkpt lat="45.01296" lon="5.50236">
        <ele>1292</ele>
        <time>2012-07-08T09:17:02.000Z</time>
      </trkpt>
      <trkpt lat="45.01298" lon="5.50232">
        <ele>1293.4000244141</ele>
        <time>2012-07-08T09:17:06.000Z</time>
      </trkpt>
      <trkpt lat="45.01299" lon="5.50225">
        <ele>1296.8000488281</ele>
        <time>2012-07-08T09:17:10.000Z</time>
      </trkpt>
      <trkpt lat="45.01305" lon="5.50217">
        <ele>1297.8000488281</ele>
        <time>2012-07-08T09:17:17.000Z</time>
      </trkpt>
      <trkpt lat="45.01306" lon="5.50216">
        <ele>1297.4000244141</ele>
        <time>2012-07-08T09:17:18.000Z</time>
      </trkpt>
      <trkpt lat="45.01313" lon="5.50219">
        <ele>1294.4000244141</ele>
        <time>2012-07-08T09:17:22.000Z</time>
      </trkpt>
      <trkpt lat="45.01317" lon="5.50218">
        <ele>1292</ele>
        <time>2012-07-08T09:17:25.000Z</time>
      </trkpt>
      <trkpt lat="45.01332" lon="5.50217">
        <ele>1295.8000488281</ele>
        <time>2012-07-08T09:17:32.000Z</time>
      </trkpt>
      <trkpt lat="45.0134" lon="5.50207">
        <ele>1294.4000244141</ele>
        <time>2012-07-08T09:17:38.000Z</time>
      </trkpt>
      <trkpt lat="45.01345" lon="5.50195">
        <ele>1295.8000488281</ele>
        <time>2012-07-08T09:17:43.000Z</time>
      </trkpt>
      <trkpt lat="45.01348" lon="5.50189">
        <ele>1294</ele>
        <time>2012-07-08T09:17:45.000Z</time>
      </trkpt>
      <trkpt lat="45.0135" lon="5.50188">
        <ele>1293</ele>
        <time>2012-07-08T09:17:47.000Z</time>
      </trkpt>
      <trkpt lat="45.01362" lon="5.50176">
        <ele>1292</ele>
        <time>2012-07-08T09:17:54.000Z</time>
      </trkpt>
      <trkpt lat="45.01368" lon="5.5017">
        <ele>1292.5999755859</ele>
        <time>2012-07-08T09:17:57.000Z</time>
      </trkpt>
      <trkpt lat="45.01374" lon="5.50162">
        <ele>1292</ele>
        <time>2012-07-08T09:18:01.000Z</time>
      </trkpt>
      <trkpt lat="45.01384" lon="5.5015">
        <ele>1291</ele>
        <time>2012-07-08T09:18:07.000Z</time>
      </trkpt>
      <trkpt lat="45.01398" lon="5.5015">
        <ele>1289.1999511719</ele>
        <time>2012-07-08T09:18:13.000Z</time>
      </trkpt>
      <trkpt lat="45.01413" lon="5.50153">
        <ele>1293</ele>
        <time>2012-07-08T09:18:18.000Z</time>
      </trkpt>
      <trkpt lat="45.01429" lon="5.50154">
        <ele>1296.4000244141</ele>
        <time>2012-07-08T09:18:24.000Z</time>
      </trkpt>
      <trkpt lat="45.01443" lon="5.50155">
        <ele>1299.8000488281</ele>
        <time>2012-07-08T09:18:31.000Z</time>
      </trkpt>
      <trkpt lat="45.01447" lon="5.50158">
        <ele>1301.5999755859</ele>
        <time>2012-07-08T09:18:37.000Z</time>
      </trkpt>
      <trkpt lat="45.01457" lon="5.50169">
        <ele>1300.1999511719</ele>
        <time>2012-07-08T09:18:43.000Z</time>
      </trkpt>
      <trkpt lat="45.0146" lon="5.50171">
        <ele>1300.8000488281</ele>
        <time>2012-07-08T09:18:44.000Z</time>
      </trkpt>
      <trkpt lat="45.01477" lon="5.50185">
        <ele>1299.8000488281</ele>
        <time>2012-07-08T09:18:49.000Z</time>
      </trkpt>
      <trkpt lat="45.0149" lon="5.50193">
        <ele>1300.1999511719</ele>
        <time>2012-07-08T09:18:53.000Z</time>
      </trkpt>
      <trkpt lat="45.01503" lon="5.50197">
        <ele>1300.8000488281</ele>
        <time>2012-07-08T09:18:56.000Z</time>
      </trkpt>
      <trkpt lat="45.01526" lon="5.50205">
        <ele>1303.5999755859</ele>
        <time>2012-07-08T09:19:01.000Z</time>
      </trkpt>
      <trkpt lat="45.01542" lon="5.50216">
        <ele>1303.1999511719</ele>
        <time>2012-07-08T09:19:07.000Z</time>
      </trkpt>
      <trkpt lat="45.01541" lon="5.50211">
        <ele>1302.1999511719</ele>
        <time>2012-07-08T09:19:08.000Z</time>
      </trkpt>
      <trkpt lat="45.01549" lon="5.50199">
        <ele>1293</ele>
        <time>2012-07-08T09:19:12.000Z</time>
      </trkpt>
      <trkpt lat="45.01555" lon="5.50192">
        <ele>1290.1999511719</ele>
        <time>2012-07-08T09:19:17.000Z</time>
      </trkpt>
      <trkpt lat="45.01569" lon="5.50189">
        <ele>1287.1999511719</ele>
        <time>2012-07-08T09:19:22.000Z</time>
      </trkpt>
      <trkpt lat="45.01577" lon="5.50184">
        <ele>1284.8000488281</ele>
        <time>2012-07-08T09:19:25.000Z</time>
      </trkpt>
      <trkpt lat="45.01589" lon="5.50172">
        <ele>1282</ele>
        <time>2012-07-08T09:19:32.000Z</time>
      </trkpt>
      <trkpt lat="45.016" lon="5.50161">
        <ele>1278.1999511719</ele>
        <time>2012-07-08T09:19:37.000Z</time>
      </trkpt>
      <trkpt lat="45.01602" lon="5.5016">
        <ele>1277.1999511719</ele>
        <time>2012-07-08T09:19:38.000Z</time>
      </trkpt>
      <trkpt lat="45.0161" lon="5.50152">
        <ele>1272.4000244141</ele>
        <time>2012-07-08T09:19:42.000Z</time>
      </trkpt>
      <trkpt lat="45.01623" lon="5.50134">
        <ele>1269.4000244141</ele>
        <time>2012-07-08T09:19:48.000Z</time>
      </trkpt>
      <trkpt lat="45.01624" lon="5.50133">
        <ele>1269.4000244141</ele>
        <time>2012-07-08T09:19:49.000Z</time>
      </trkpt>
      <trkpt lat="45.01635" lon="5.50121">
        <ele>1267</ele>
        <time>2012-07-08T09:19:55.000Z</time>
      </trkpt>
      <trkpt lat="45.01643" lon="5.50111">
        <ele>1268</ele>
        <time>2012-07-08T09:20:00.000Z</time>
      </trkpt>
      <trkpt lat="45.01648" lon="5.50105">
        <ele>1270</ele>
        <time>2012-07-08T09:20:04.000Z</time>
      </trkpt>
      <trkpt lat="45.01658" lon="5.50091">
        <ele>1275.8000488281</ele>
        <time>2012-07-08T09:20:11.000Z</time>
      </trkpt>
      <trkpt lat="45.01661" lon="5.50087">
        <ele>1276.1999511719</ele>
        <time>2012-07-08T09:20:13.000Z</time>
      </trkpt>
      <trkpt lat="45.01669" lon="5.50076">
        <ele>1280.5999755859</ele>
        <time>2012-07-08T09:20:20.000Z</time>
      </trkpt>
      <trkpt lat="45.01672" lon="5.50071">
        <ele>1281.4000244141</ele>
        <time>2012-07-08T09:20:23.000Z</time>
      </trkpt>
      <trkpt lat="45.01677" lon="5.50066">
        <ele>1284.4000244141</ele>
        <time>2012-07-08T09:20:28.000Z</time>
      </trkpt>
      <trkpt lat="45.01681" lon="5.50066">
        <ele>1287.8000488281</ele>
        <time>2012-07-08T09:20:33.000Z</time>
      </trkpt>
      <trkpt lat="45.01684" lon="5.50078">
        <ele>1291.5999755859</ele>
        <time>2012-07-08T09:20:39.000Z</time>
      </trkpt>
      <trkpt lat="45.01688" lon="5.50093">
        <ele>1294.4000244141</ele>
        <time>2012-07-08T09:20:43.000Z</time>
      </trkpt>
      <trkpt lat="45.0169" lon="5.50099">
        <ele>1295</ele>
        <time>2012-07-08T09:20:45.000Z</time>
      </trkpt>
      <trkpt lat="45.01691" lon="5.50108">
        <ele>1295.8000488281</ele>
        <time>2012-07-08T09:20:50.000Z</time>
      </trkpt>
      <trkpt lat="45.01695" lon="5.50109">
        <ele>1298.1999511719</ele>
        <time>2012-07-08T09:20:57.000Z</time>
      </trkpt>
      <trkpt lat="45.01696" lon="5.50102">
        <ele>1299.8000488281</ele>
        <time>2012-07-08T09:21:04.000Z</time>
      </trkpt>
      <trkpt lat="45.01693" lon="5.50095">
        <ele>1304</ele>
        <time>2012-07-08T09:21:11.000Z</time>
      </trkpt>
      <trkpt lat="45.01696" lon="5.50096">
        <ele>1300.1999511719</ele>
        <time>2012-07-08T09:21:19.000Z</time>
      </trkpt>
      <trkpt lat="45.01698" lon="5.50101">
        <ele>1299.8000488281</ele>
        <time>2012-07-08T09:21:22.000Z</time>
      </trkpt>
      <trkpt lat="45.01705" lon="5.50104">
        <ele>1296.4000244141</ele>
        <time>2012-07-08T09:21:26.000Z</time>
      </trkpt>
      <trkpt lat="45.01707" lon="5.50105">
        <ele>1295.8000488281</ele>
        <time>2012-07-08T09:21:28.000Z</time>
      </trkpt>
      <trkpt lat="45.01714" lon="5.50103">
        <ele>1292.5999755859</ele>
        <time>2012-07-08T09:21:34.000Z</time>
      </trkpt>
      <trkpt lat="45.01723" lon="5.50107">
        <ele>1291.5999755859</ele>
        <time>2012-07-08T09:21:39.000Z</time>
      </trkpt>
      <trkpt lat="45.01724" lon="5.50107">
        <ele>1292</ele>
        <time>2012-07-08T09:21:40.000Z</time>
      </trkpt>
      <trkpt lat="45.01731" lon="5.50104">
        <ele>1294</ele>
        <time>2012-07-08T09:21:44.000Z</time>
      </trkpt>
      <trkpt lat="45.01744" lon="5.50102">
        <ele>1294.4000244141</ele>
        <time>2012-07-08T09:21:50.000Z</time>
      </trkpt>
      <trkpt lat="45.01747" lon="5.50101">
        <ele>1294</ele>
        <time>2012-07-08T09:21:51.000Z</time>
      </trkpt>
      <trkpt lat="45.01758" lon="5.501">
        <ele>1293.4000244141</ele>
        <time>2012-07-08T09:21:55.000Z</time>
      </trkpt>
      <trkpt lat="45.01765" lon="5.50097">
        <ele>1293</ele>
        <time>2012-07-08T09:22:00.000Z</time>
      </trkpt>
      <trkpt lat="45.01772" lon="5.50092">
        <ele>1293</ele>
        <time>2012-07-08T09:22:04.000Z</time>
      </trkpt>
      <trkpt lat="45.01779" lon="5.50086">
        <ele>1291.5999755859</ele>
        <time>2012-07-08T09:22:08.000Z</time>
      </trkpt>
      <trkpt lat="45.0178" lon="5.50082">
        <ele>1293</ele>
        <time>2012-07-08T09:22:10.000Z</time>
      </trkpt>
      <trkpt lat="45.01788" lon="5.50073">
        <ele>1294</ele>
        <time>2012-07-08T09:22:17.000Z</time>
      </trkpt>
      <trkpt lat="45.01791" lon="5.50071">
        <ele>1294.4000244141</ele>
        <time>2012-07-08T09:22:19.000Z</time>
      </trkpt>
      <trkpt lat="45.01794" lon="5.5007">
        <ele>1294</ele>
        <time>2012-07-08T09:22:21.000Z</time>
      </trkpt>
      <trkpt lat="45.01808" lon="5.50073">
        <ele>1295</ele>
        <time>2012-07-08T09:22:25.000Z</time>
      </trkpt>
      <trkpt lat="45.01827" lon="5.50072">
        <ele>1294.4000244141</ele>
        <time>2012-07-08T09:22:29.000Z</time>
      </trkpt>
      <trkpt lat="45.01831" lon="5.5007">
        <ele>1294</ele>
        <time>2012-07-08T09:22:30.000Z</time>
      </trkpt>
      <trkpt lat="45.01841" lon="5.50068">
        <ele>1294.4000244141</ele>
        <time>2012-07-08T09:22:32.000Z</time>
      </trkpt>
      <trkpt lat="45.01862" lon="5.50066">
        <ele>1296.4000244141</ele>
        <time>2012-07-08T09:22:37.000Z</time>
      </trkpt>
      <trkpt lat="45.01878" lon="5.50062">
        <ele>1294</ele>
        <time>2012-07-08T09:22:42.000Z</time>
      </trkpt>
      <trkpt lat="45.01893" lon="5.50061">
        <ele>1292.5999755859</ele>
        <time>2012-07-08T09:22:46.000Z</time>
      </trkpt>
      <trkpt lat="45.01897" lon="5.50061">
        <ele>1291.5999755859</ele>
        <time>2012-07-08T09:22:47.000Z</time>
      </trkpt>
      <trkpt lat="45.01918" lon="5.50057">
        <ele>1290.1999511719</ele>
        <time>2012-07-08T09:22:52.000Z</time>
      </trkpt>
      <trkpt lat="45.01924" lon="5.50054">
        <ele>1289.5999755859</ele>
        <time>2012-07-08T09:22:54.000Z</time>
      </trkpt>
      <trkpt lat="45.0194" lon="5.50059">
        <ele>1287.1999511719</ele>
        <time>2012-07-08T09:22:59.000Z</time>
      </trkpt>
      <trkpt lat="45.01954" lon="5.50064">
        <ele>1287.8000488281</ele>
        <time>2012-07-08T09:23:03.000Z</time>
      </trkpt>
      <trkpt lat="45.01972" lon="5.50064">
        <ele>1287.1999511719</ele>
        <time>2012-07-08T09:23:08.000Z</time>
      </trkpt>
      <trkpt lat="45.01989" lon="5.50061">
        <ele>1285.8000488281</ele>
        <time>2012-07-08T09:23:13.000Z</time>
      </trkpt>
      <trkpt lat="45.01995" lon="5.50061">
        <ele>1286.1999511719</ele>
        <time>2012-07-08T09:23:15.000Z</time>
      </trkpt>
      <trkpt lat="45.02007" lon="5.50065">
        <ele>1283.4000244141</ele>
        <time>2012-07-08T09:23:20.000Z</time>
      </trkpt>
      <trkpt lat="45.02009" lon="5.50066">
        <ele>1283.8000488281</ele>
        <time>2012-07-08T09:23:21.000Z</time>
      </trkpt>
      <trkpt lat="45.02022" lon="5.50067">
        <ele>1280</ele>
        <time>2012-07-08T09:23:26.000Z</time>
      </trkpt>
      <trkpt lat="45.02039" lon="5.50075">
        <ele>1277.1999511719</ele>
        <time>2012-07-08T09:23:31.000Z</time>
      </trkpt>
      <trkpt lat="45.0206" lon="5.50083">
        <ele>1277.5999755859</ele>
        <time>2012-07-08T09:23:36.000Z</time>
      </trkpt>
      <trkpt lat="45.02071" lon="5.50088">
        <ele>1277.1999511719</ele>
        <time>2012-07-08T09:23:39.000Z</time>
      </trkpt>
      <trkpt lat="45.02081" lon="5.50094">
        <ele>1277.1999511719</ele>
        <time>2012-07-08T09:23:42.000Z</time>
      </trkpt>
      <trkpt lat="45.02105" lon="5.50095">
        <ele>1279.5999755859</ele>
        <time>2012-07-08T09:23:48.000Z</time>
      </trkpt>
      <trkpt lat="45.02116" lon="5.501">
        <ele>1281</ele>
        <time>2012-07-08T09:23:52.000Z</time>
      </trkpt>
      <trkpt lat="45.02126" lon="5.50104">
        <ele>1280.5999755859</ele>
        <time>2012-07-08T09:23:57.000Z</time>
      </trkpt>
      <trkpt lat="45.02133" lon="5.50112">
        <ele>1280</ele>
        <time>2012-07-08T09:24:01.000Z</time>
      </trkpt>
      <trkpt lat="45.02141" lon="5.50123">
        <ele>1277.5999755859</ele>
        <time>2012-07-08T09:24:05.000Z</time>
      </trkpt>
      <trkpt lat="45.0215" lon="5.50141">
        <ele>1278.5999755859</ele>
        <time>2012-07-08T09:24:10.000Z</time>
      </trkpt>
      <trkpt lat="45.02161" lon="5.50149">
        <ele>1276.1999511719</ele>
        <time>2012-07-08T09:24:14.000Z</time>
      </trkpt>
      <trkpt lat="45.02179" lon="5.5015">
        <ele>1274.8000488281</ele>
        <time>2012-07-08T09:24:19.000Z</time>
      </trkpt>
      <trkpt lat="45.02187" lon="5.50155">
        <ele>1273.4000244141</ele>
        <time>2012-07-08T09:24:22.000Z</time>
      </trkpt>
      <trkpt lat="45.02194" lon="5.50164">
        <ele>1269</ele>
        <time>2012-07-08T09:24:27.000Z</time>
      </trkpt>
      <trkpt lat="45.02202" lon="5.50167">
        <ele>1262.1999511719</ele>
        <time>2012-07-08T09:24:32.000Z</time>
      </trkpt>
      <trkpt lat="45.0221" lon="5.50166">
        <ele>1263.1999511719</ele>
        <time>2012-07-08T09:24:37.000Z</time>
      </trkpt>
      <trkpt lat="45.02212" lon="5.50167">
        <ele>1263.5999755859</ele>
        <time>2012-07-08T09:24:38.000Z</time>
      </trkpt>
      <trkpt lat="45.0222" lon="5.50165">
        <ele>1265.1999511719</ele>
        <time>2012-07-08T09:24:44.000Z</time>
      </trkpt>
      <trkpt lat="45.02226" lon="5.50165">
        <ele>1265.1999511719</ele>
        <time>2012-07-08T09:24:49.000Z</time>
      </trkpt>
      <trkpt lat="45.02236" lon="5.50159">
        <ele>1262.8000488281</ele>
        <time>2012-07-08T09:24:54.000Z</time>
      </trkpt>
      <trkpt lat="45.02241" lon="5.50157">
        <ele>1262.1999511719</ele>
        <time>2012-07-08T09:24:58.000Z</time>
      </trkpt>
      <trkpt lat="45.02253" lon="5.5016">
        <ele>1260.8000488281</ele>
        <time>2012-07-08T09:25:03.000Z</time>
      </trkpt>
      <trkpt lat="45.02256" lon="5.50159">
        <ele>1260.4000244141</ele>
        <time>2012-07-08T09:25:04.000Z</time>
      </trkpt>
      <trkpt lat="45.02271" lon="5.50165">
        <ele>1256</ele>
        <time>2012-07-08T09:25:10.000Z</time>
      </trkpt>
      <trkpt lat="45.02278" lon="5.50172">
        <ele>1257.4000244141</ele>
        <time>2012-07-08T09:25:13.000Z</time>
      </trkpt>
      <trkpt lat="45.02281" lon="5.50182">
        <ele>1258.8000488281</ele>
        <time>2012-07-08T09:25:17.000Z</time>
      </trkpt>
      <trkpt lat="45.02285" lon="5.50183">
        <ele>1259.8000488281</ele>
        <time>2012-07-08T09:25:20.000Z</time>
      </trkpt>
      <trkpt lat="45.02294" lon="5.5018">
        <ele>1259.8000488281</ele>
        <time>2012-07-08T09:25:27.000Z</time>
      </trkpt>
      <trkpt lat="45.02298" lon="5.50173">
        <ele>1261.1999511719</ele>
        <time>2012-07-08T09:25:32.000Z</time>
      </trkpt>
      <trkpt lat="45.02303" lon="5.50162">
        <ele>1264.1999511719</ele>
        <time>2012-07-08T09:25:40.000Z</time>
      </trkpt>
      <trkpt lat="45.02306" lon="5.50159">
        <ele>1264.1999511719</ele>
        <time>2012-07-08T09:25:43.000Z</time>
      </trkpt>
      <trkpt lat="45.02311" lon="5.5015">
        <ele>1266</ele>
        <time>2012-07-08T09:25:48.000Z</time>
      </trkpt>
      <trkpt lat="45.02321" lon="5.50143">
        <ele>1266.5999755859</ele>
        <time>2012-07-08T09:25:53.000Z</time>
      </trkpt>
      <trkpt lat="45.02324" lon="5.5014">
        <ele>1266.5999755859</ele>
        <time>2012-07-08T09:25:55.000Z</time>
      </trkpt>
      <trkpt lat="45.02328" lon="5.50137">
        <ele>1268.4000244141</ele>
        <time>2012-07-08T09:25:58.000Z</time>
      </trkpt>
      <trkpt lat="45.02336" lon="5.50128">
        <ele>1271.8000488281</ele>
        <time>2012-07-08T09:26:04.000Z</time>
      </trkpt>
      <trkpt lat="45.02343" lon="5.50122">
        <ele>1272.4000244141</ele>
        <time>2012-07-08T09:26:09.000Z</time>
      </trkpt>
      <trkpt lat="45.02345" lon="5.50122">
        <ele>1273.4000244141</ele>
        <time>2012-07-08T09:26:10.000Z</time>
      </trkpt>
      <trkpt lat="45.02356" lon="5.50116">
        <ele>1275.8000488281</ele>
        <time>2012-07-08T09:26:16.000Z</time>
      </trkpt>
      <trkpt lat="45.02363" lon="5.50116">
        <ele>1278.1999511719</ele>
        <time>2012-07-08T09:26:19.000Z</time>
      </trkpt>
      <trkpt lat="45.02369" lon="5.50115">
        <ele>1278.1999511719</ele>
        <time>2012-07-08T09:26:21.000Z</time>
      </trkpt>
      <trkpt lat="45.02381" lon="5.50106">
        <ele>1279.5999755859</ele>
        <time>2012-07-08T09:26:27.000Z</time>
      </trkpt>
      <trkpt lat="45.02388" lon="5.50097">
        <ele>1278.5999755859</ele>
        <time>2012-07-08T09:26:31.000Z</time>
      </trkpt>
      <trkpt lat="45.02398" lon="5.50086">
        <ele>1276.1999511719</ele>
        <time>2012-07-08T09:26:37.000Z</time>
      </trkpt>
      <trkpt lat="45.02402" lon="5.50083">
        <ele>1277.5999755859</ele>
        <time>2012-07-08T09:26:40.000Z</time>
      </trkpt>
      <trkpt lat="45.02404" lon="5.50079">
        <ele>1279</ele>
        <time>2012-07-08T09:26:43.000Z</time>
      </trkpt>
      <trkpt lat="45.02408" lon="5.50074">
        <ele>1281</ele>
        <time>2012-07-08T09:26:48.000Z</time>
      </trkpt>
      <trkpt lat="45.02414" lon="5.50069">
        <ele>1284.8000488281</ele>
        <time>2012-07-08T09:26:54.000Z</time>
      </trkpt>
      <trkpt lat="45.02422" lon="5.50065">
        <ele>1288.1999511719</ele>
        <time>2012-07-08T09:27:01.000Z</time>
      </trkpt>
      <trkpt lat="45.02427" lon="5.50063">
        <ele>1289.1999511719</ele>
        <time>2012-07-08T09:27:04.000Z</time>
      </trkpt>
      <trkpt lat="45.02433" lon="5.50061">
        <ele>1290.1999511719</ele>
        <time>2012-07-08T09:27:08.000Z</time>
      </trkpt>
      <trkpt lat="45.02441" lon="5.50053">
        <ele>1291</ele>
        <time>2012-07-08T09:27:14.000Z</time>
      </trkpt>
      <trkpt lat="45.02443" lon="5.50052">
        <ele>1291</ele>
        <time>2012-07-08T09:27:15.000Z</time>
      </trkpt>
      <trkpt lat="45.02453" lon="5.50038">
        <ele>1291</ele>
        <time>2012-07-08T09:27:22.000Z</time>
      </trkpt>
      <trkpt lat="45.02459" lon="5.50031">
        <ele>1289.1999511719</ele>
        <time>2012-07-08T09:27:25.000Z</time>
      </trkpt>
      <trkpt lat="45.0247" lon="5.50017">
        <ele>1290.1999511719</ele>
        <time>2012-07-08T09:27:31.000Z</time>
      </trkpt>
      <trkpt lat="45.02472" lon="5.50014">
        <ele>1290.1999511719</ele>
        <time>2012-07-08T09:27:32.000Z</time>
      </trkpt>
      <trkpt lat="45.02482" lon="5.5">
        <ele>1291</ele>
        <time>2012-07-08T09:27:37.000Z</time>
      </trkpt>
      <trkpt lat="45.02488" lon="5.49991">
        <ele>1292</ele>
        <time>2012-07-08T09:27:41.000Z</time>
      </trkpt>
      <trkpt lat="45.02491" lon="5.49985">
        <ele>1291.5999755859</ele>
        <time>2012-07-08T09:27:46.000Z</time>
      </trkpt>
      <trkpt lat="45.02492" lon="5.49983">
        <ele>1291.5999755859</ele>
        <time>2012-07-08T09:27:48.000Z</time>
      </trkpt>
      <trkpt lat="45.02496" lon="5.49973">
        <ele>1294.4000244141</ele>
        <time>2012-07-08T09:27:56.000Z</time>
      </trkpt>
      <trkpt lat="45.02497" lon="5.49972">
        <ele>1295</ele>
        <time>2012-07-08T09:27:57.000Z</time>
      </trkpt>
      <trkpt lat="45.02504" lon="5.49967">
        <ele>1294.4000244141</ele>
        <time>2012-07-08T09:28:01.000Z</time>
      </trkpt>
      <trkpt lat="45.02508" lon="5.49964">
        <ele>1294.4000244141</ele>
        <time>2012-07-08T09:28:04.000Z</time>
      </trkpt>
      <trkpt lat="45.02524" lon="5.49962">
        <ele>1296.8000488281</ele>
        <time>2012-07-08T09:28:11.000Z</time>
      </trkpt>
      <trkpt lat="45.02536" lon="5.49966">
        <ele>1299.8000488281</ele>
        <time>2012-07-08T09:28:15.000Z</time>
      </trkpt>
      <trkpt lat="45.02547" lon="5.49972">
        <ele>1303.5999755859</ele>
        <time>2012-07-08T09:28:20.000Z</time>
      </trkpt>
      <trkpt lat="45.0255" lon="5.49972">
        <ele>1303.5999755859</ele>
        <time>2012-07-08T09:28:21.000Z</time>
      </trkpt>
      <trkpt lat="45.02558" lon="5.49974">
        <ele>1304</ele>
        <time>2012-07-08T09:28:25.000Z</time>
      </trkpt>
      <trkpt lat="45.02563" lon="5.49972">
        <ele>1304.5999755859</ele>
        <time>2012-07-08T09:28:29.000Z</time>
      </trkpt>
      <trkpt lat="45.02569" lon="5.49971">
        <ele>1306.4000244141</ele>
        <time>2012-07-08T09:28:34.000Z</time>
      </trkpt>
      <trkpt lat="45.02573" lon="5.49965">
        <ele>1308</ele>
        <time>2012-07-08T09:28:38.000Z</time>
      </trkpt>
      <trkpt lat="45.02587" lon="5.49968">
        <ele>1306.4000244141</ele>
        <time>2012-07-08T09:28:44.000Z</time>
      </trkpt>
      <trkpt lat="45.02594" lon="5.49973">
        <ele>1304.5999755859</ele>
        <time>2012-07-08T09:28:47.000Z</time>
      </trkpt>
      <trkpt lat="45.02602" lon="5.4998">
        <ele>1305</ele>
        <time>2012-07-08T09:28:51.000Z</time>
      </trkpt>
      <trkpt lat="45.02607" lon="5.49986">
        <ele>1304</ele>
        <time>2012-07-08T09:28:55.000Z</time>
      </trkpt>
      <trkpt lat="45.02613" lon="5.49994">
        <ele>1305</ele>
        <time>2012-07-08T09:29:00.000Z</time>
      </trkpt>
      <trkpt lat="45.02616" lon="5.49998">
        <ele>1306</ele>
        <time>2012-07-08T09:29:02.000Z</time>
      </trkpt>
      <trkpt lat="45.02623" lon="5.50002">
        <ele>1307</ele>
        <time>2012-07-08T09:29:06.000Z</time>
      </trkpt>
      <trkpt lat="45.02626" lon="5.50011">
        <ele>1309.8000488281</ele>
        <time>2012-07-08T09:29:11.000Z</time>
      </trkpt>
      <trkpt lat="45.0263" lon="5.50008">
        <ele>1308</ele>
        <time>2012-07-08T09:29:18.000Z</time>
      </trkpt>
      <trkpt lat="45.02631" lon="5.50008">
        <ele>1307</ele>
        <time>2012-07-08T09:29:19.000Z</time>
      </trkpt>
      <trkpt lat="45.02647" lon="5.50013">
        <ele>1304.5999755859</ele>
        <time>2012-07-08T09:29:26.000Z</time>
      </trkpt>
      <trkpt lat="45.0266" lon="5.50018">
        <ele>1302.1999511719</ele>
        <time>2012-07-08T09:29:30.000Z</time>
      </trkpt>
      <trkpt lat="45.02667" lon="5.50023">
        <ele>1302.1999511719</ele>
        <time>2012-07-08T09:29:33.000Z</time>
      </trkpt>
      <trkpt lat="45.02675" lon="5.50028">
        <ele>1300.8000488281</ele>
        <time>2012-07-08T09:29:38.000Z</time>
      </trkpt>
      <trkpt lat="45.02685" lon="5.50035">
        <ele>1300.1999511719</ele>
        <time>2012-07-08T09:29:44.000Z</time>
      </trkpt>
      <trkpt lat="45.02696" lon="5.50037">
        <ele>1297.8000488281</ele>
        <time>2012-07-08T09:29:49.000Z</time>
      </trkpt>
      <trkpt lat="45.02703" lon="5.50039">
        <ele>1296.8000488281</ele>
        <time>2012-07-08T09:29:52.000Z</time>
      </trkpt>
      <trkpt lat="45.02707" lon="5.50039">
        <ele>1297.4000244141</ele>
        <time>2012-07-08T09:29:54.000Z</time>
      </trkpt>
      <trkpt lat="45.02715" lon="5.5003">
        <ele>1296.4000244141</ele>
        <time>2012-07-08T09:29:59.000Z</time>
      </trkpt>
      <trkpt lat="45.02721" lon="5.50027">
        <ele>1296.4000244141</ele>
        <time>2012-07-08T09:30:04.000Z</time>
      </trkpt>
      <trkpt lat="45.02724" lon="5.50027">
        <ele>1295.8000488281</ele>
        <time>2012-07-08T09:30:07.000Z</time>
      </trkpt>
      <trkpt lat="45.02725" lon="5.50027">
        <ele>1295</ele>
        <time>2012-07-08T09:30:09.000Z</time>
      </trkpt>
      <trkpt lat="45.02737" lon="5.50038">
        <ele>1293.4000244141</ele>
        <time>2012-07-08T09:30:15.000Z</time>
      </trkpt>
      <trkpt lat="45.02742" lon="5.50043">
        <ele>1295</ele>
        <time>2012-07-08T09:30:21.000Z</time>
      </trkpt>
      <trkpt lat="45.02746" lon="5.50049">
        <ele>1295</ele>
        <time>2012-07-08T09:30:26.000Z</time>
      </trkpt>
      <trkpt lat="45.02749" lon="5.50052">
        <ele>1295.8000488281</ele>
        <time>2012-07-08T09:30:30.000Z</time>
      </trkpt>
      <trkpt lat="45.02754" lon="5.50065">
        <ele>1294.4000244141</ele>
        <time>2012-07-08T09:30:36.000Z</time>
      </trkpt>
      <trkpt lat="45.02764" lon="5.5007">
        <ele>1288.5999755859</ele>
        <time>2012-07-08T09:30:41.000Z</time>
      </trkpt>
      <trkpt lat="45.02768" lon="5.50071">
        <ele>1287.8000488281</ele>
        <time>2012-07-08T09:30:43.000Z</time>
      </trkpt>
      <trkpt lat="45.02776" lon="5.50084">
        <ele>1287.1999511719</ele>
        <time>2012-07-08T09:30:49.000Z</time>
      </trkpt>
      <trkpt lat="45.02785" lon="5.50101">
        <ele>1287.1999511719</ele>
        <time>2012-07-08T09:30:54.000Z</time>
      </trkpt>
      <trkpt lat="45.02789" lon="5.50107">
        <ele>1288.5999755859</ele>
        <time>2012-07-08T09:31:00.000Z</time>
      </trkpt>
      <trkpt lat="45.02791" lon="5.50108">
        <ele>1289.1999511719</ele>
        <time>2012-07-08T09:31:02.000Z</time>
      </trkpt>
      <trkpt lat="45.02793" lon="5.5011">
        <ele>1289.1999511719</ele>
        <time>2012-07-08T09:31:07.000Z</time>
      </trkpt>
      <trkpt lat="45.02794" lon="5.50111">
        <ele>1291</ele>
        <time>2012-07-08T09:31:11.000Z</time>
      </trkpt>
      <trkpt lat="45.02793" lon="5.50107">
        <ele>1293</ele>
        <time>2012-07-08T09:31:18.000Z</time>
      </trkpt>
      <trkpt lat="45.02793" lon="5.50106">
        <ele>1293.4000244141</ele>
        <time>2012-07-08T09:31:21.000Z</time>
      </trkpt>
      <trkpt lat="45.02794" lon="5.50104">
        <ele>1291.5999755859</ele>
        <time>2012-07-08T09:31:25.000Z</time>
      </trkpt>
      <trkpt lat="45.02795" lon="5.50102">
        <ele>1291</ele>
        <time>2012-07-08T09:31:26.000Z</time>
      </trkpt>
      <trkpt lat="45.028" lon="5.50099">
        <ele>1292.5999755859</ele>
        <time>2012-07-08T09:31:32.000Z</time>
      </trkpt>
      <trkpt lat="45.02804" lon="5.50096">
        <ele>1294</ele>
        <time>2012-07-08T09:31:38.000Z</time>
      </trkpt>
      <trkpt lat="45.02808" lon="5.50095">
        <ele>1293</ele>
        <time>2012-07-08T09:31:42.000Z</time>
      </trkpt>
      <trkpt lat="45.0281" lon="5.50094">
        <ele>1292.5999755859</ele>
        <time>2012-07-08T09:31:43.000Z</time>
      </trkpt>
      <trkpt lat="45.02813" lon="5.50082">
        <ele>1290.5999755859</ele>
        <time>2012-07-08T09:31:48.000Z</time>
      </trkpt>
      <trkpt lat="45.02814" lon="5.50067">
        <ele>1290.1999511719</ele>
        <time>2012-07-08T09:31:53.000Z</time>
      </trkpt>
      <trkpt lat="45.02821" lon="5.50059">
        <ele>1289.5999755859</ele>
        <time>2012-07-08T09:31:58.000Z</time>
      </trkpt>
      <trkpt lat="45.02825" lon="5.50049">
        <ele>1292</ele>
        <time>2012-07-08T09:32:06.000Z</time>
      </trkpt>
      <trkpt lat="45.02828" lon="5.50043">
        <ele>1293</ele>
        <time>2012-07-08T09:32:11.000Z</time>
      </trkpt>
      <trkpt lat="45.02831" lon="5.50037">
        <ele>1294.4000244141</ele>
        <time>2012-07-08T09:32:16.000Z</time>
      </trkpt>
      <trkpt lat="45.02838" lon="5.50034">
        <ele>1295</ele>
        <time>2012-07-08T09:32:22.000Z</time>
      </trkpt>
      <trkpt lat="45.02842" lon="5.50032">
        <ele>1295</ele>
        <time>2012-07-08T09:32:24.000Z</time>
      </trkpt>
      <trkpt lat="45.02849" lon="5.50036">
        <ele>1296.4000244141</ele>
        <time>2012-07-08T09:32:29.000Z</time>
      </trkpt>
      <trkpt lat="45.02847" lon="5.50033">
        <ele>1297.4000244141</ele>
        <time>2012-07-08T09:32:33.000Z</time>
      </trkpt>
      <trkpt lat="45.0284" lon="5.5004">
        <ele>1297.4000244141</ele>
        <time>2012-07-08T09:32:38.000Z</time>
      </trkpt>
      <trkpt lat="45.02833" lon="5.50051">
        <ele>1298.8000488281</ele>
        <time>2012-07-08T09:32:42.000Z</time>
      </trkpt>
      <trkpt lat="45.02832" lon="5.50059">
        <ele>1297.8000488281</ele>
        <time>2012-07-08T09:32:46.000Z</time>
      </trkpt>
      <trkpt lat="45.02831" lon="5.50068">
        <ele>1298.1999511719</ele>
        <time>2012-07-08T09:32:50.000Z</time>
      </trkpt>
      <trkpt lat="45.0283" lon="5.50076">
        <ele>1297.4000244141</ele>
        <time>2012-07-08T09:32:54.000Z</time>
      </trkpt>
      <trkpt lat="45.02833" lon="5.50089">
        <ele>1297.8000488281</ele>
        <time>2012-07-08T09:32:58.000Z</time>
      </trkpt>
      <trkpt lat="45.02845" lon="5.50105">
        <ele>1298.1999511719</ele>
        <time>2012-07-08T09:33:05.000Z</time>
      </trkpt>
      <trkpt lat="45.02847" lon="5.50108">
        <ele>1299.8000488281</ele>
        <time>2012-07-08T09:33:06.000Z</time>
      </trkpt>
      <trkpt lat="45.02848" lon="5.50113">
        <ele>1302.5999755859</ele>
        <time>2012-07-08T09:33:10.000Z</time>
      </trkpt>
      <trkpt lat="45.0285" lon="5.50121">
        <ele>1303.1999511719</ele>
        <time>2012-07-08T09:33:15.000Z</time>
      </trkpt>
      <trkpt lat="45.02851" lon="5.50122">
        <ele>1301.1999511719</ele>
        <time>2012-07-08T09:33:17.000Z</time>
      </trkpt>
      <trkpt lat="45.02855" lon="5.50123">
        <ele>1297.8000488281</ele>
        <time>2012-07-08T09:33:22.000Z</time>
      </trkpt>
      <trkpt lat="45.02856" lon="5.50123">
        <ele>1294.4000244141</ele>
        <time>2012-07-08T09:33:26.000Z</time>
      </trkpt>
      <trkpt lat="45.02859" lon="5.50126">
        <ele>1292</ele>
        <time>2012-07-08T09:33:28.000Z</time>
      </trkpt>
      <trkpt lat="45.02866" lon="5.50131">
        <ele>1288.1999511719</ele>
        <time>2012-07-08T09:33:33.000Z</time>
      </trkpt>
      <trkpt lat="45.02871" lon="5.50136">
        <ele>1285.8000488281</ele>
        <time>2012-07-08T09:33:37.000Z</time>
      </trkpt>
      <trkpt lat="45.02874" lon="5.50139">
        <ele>1284.4000244141</ele>
        <time>2012-07-08T09:33:40.000Z</time>
      </trkpt>
      <trkpt lat="45.02875" lon="5.50149">
        <ele>1287.1999511719</ele>
        <time>2012-07-08T09:33:44.000Z</time>
      </trkpt>
      <trkpt lat="45.02875" lon="5.50155">
        <ele>1287.8000488281</ele>
        <time>2012-07-08T09:33:47.000Z</time>
      </trkpt>
      <trkpt lat="45.02878" lon="5.50166">
        <ele>1288.1999511719</ele>
        <time>2012-07-08T09:33:52.000Z</time>
      </trkpt>
      <trkpt lat="45.02879" lon="5.50175">
        <ele>1288.5999755859</ele>
        <time>2012-07-08T09:33:55.000Z</time>
      </trkpt>
      <trkpt lat="45.02879" lon="5.50183">
        <ele>1288.5999755859</ele>
        <time>2012-07-08T09:33:57.000Z</time>
      </trkpt>
      <trkpt lat="45.0288" lon="5.50211">
        <ele>1288.5999755859</ele>
        <time>2012-07-08T09:34:03.000Z</time>
      </trkpt>
      <trkpt lat="45.02878" lon="5.50227">
        <ele>1288.1999511719</ele>
        <time>2012-07-08T09:34:07.000Z</time>
      </trkpt>
      <trkpt lat="45.02879" lon="5.50231">
        <ele>1287.8000488281</ele>
        <time>2012-07-08T09:34:08.000Z</time>
      </trkpt>
      <trkpt lat="45.0288" lon="5.50238">
        <ele>1284.4000244141</ele>
        <time>2012-07-08T09:34:12.000Z</time>
      </trkpt>
      <trkpt lat="45.02879" lon="5.50243">
        <ele>1279.5999755859</ele>
        <time>2012-07-08T09:34:18.000Z</time>
      </trkpt>
      <trkpt lat="45.02879" lon="5.50246">
        <ele>1278.5999755859</ele>
        <time>2012-07-08T09:34:20.000Z</time>
      </trkpt>
      <trkpt lat="45.02877" lon="5.50253">
        <ele>1278.1999511719</ele>
        <time>2012-07-08T09:34:23.000Z</time>
      </trkpt>
      <trkpt lat="45.0288" lon="5.50263">
        <ele>1277.1999511719</ele>
        <time>2012-07-08T09:34:28.000Z</time>
      </trkpt>
      <trkpt lat="45.02884" lon="5.50262">
        <ele>1274.8000488281</ele>
        <time>2012-07-08T09:34:33.000Z</time>
      </trkpt>
      <trkpt lat="45.02893" lon="5.50255">
        <ele>1271.8000488281</ele>
        <time>2012-07-08T09:34:37.000Z</time>
      </trkpt>
      <trkpt lat="45.029" lon="5.5025">
        <ele>1270.4000244141</ele>
        <time>2012-07-08T09:34:41.000Z</time>
      </trkpt>
      <trkpt lat="45.02913" lon="5.50245">
        <ele>1268.4000244141</ele>
        <time>2012-07-08T09:34:46.000Z</time>
      </trkpt>
      <trkpt lat="45.02925" lon="5.50244">
        <ele>1266</ele>
        <time>2012-07-08T09:34:51.000Z</time>
      </trkpt>
      <trkpt lat="45.02944" lon="5.50235">
        <ele>1260.4000244141</ele>
        <time>2012-07-08T09:34:58.000Z</time>
      </trkpt>
      <trkpt lat="45.02945" lon="5.50233">
        <ele>1260.8000488281</ele>
        <time>2012-07-08T09:34:59.000Z</time>
      </trkpt>
      <trkpt lat="45.02951" lon="5.50223">
        <ele>1259.4000244141</ele>
        <time>2012-07-08T09:35:04.000Z</time>
      </trkpt>
      <trkpt lat="45.02966" lon="5.50223">
        <ele>1257</ele>
        <time>2012-07-08T09:35:10.000Z</time>
      </trkpt>
      <trkpt lat="45.02975" lon="5.50218">
        <ele>1257.4000244141</ele>
        <time>2012-07-08T09:35:14.000Z</time>
      </trkpt>
      <trkpt lat="45.02983" lon="5.50217">
        <ele>1260.8000488281</ele>
        <time>2012-07-08T09:35:17.000Z</time>
      </trkpt>
      <trkpt lat="45.02989" lon="5.50213">
        <ele>1260.8000488281</ele>
        <time>2012-07-08T09:35:22.000Z</time>
      </trkpt>
      <trkpt lat="45.03006" lon="5.50209">
        <ele>1262.8000488281</ele>
        <time>2012-07-08T09:35:27.000Z</time>
      </trkpt>
      <trkpt lat="45.03023" lon="5.50203">
        <ele>1263.5999755859</ele>
        <time>2012-07-08T09:35:32.000Z</time>
      </trkpt>
      <trkpt lat="45.03026" lon="5.502">
        <ele>1264.1999511719</ele>
        <time>2012-07-08T09:35:36.000Z</time>
      </trkpt>
      <trkpt lat="45.03034" lon="5.50195">
        <ele>1268.4000244141</ele>
        <time>2012-07-08T09:35:42.000Z</time>
      </trkpt>
      <trkpt lat="45.03038" lon="5.50192">
        <ele>1271.8000488281</ele>
        <time>2012-07-08T09:35:48.000Z</time>
      </trkpt>
      <trkpt lat="45.03041" lon="5.50187">
        <ele>1273.8000488281</ele>
        <time>2012-07-08T09:35:51.000Z</time>
      </trkpt>
      <trkpt lat="45.03047" lon="5.50176">
        <ele>1276.1999511719</ele>
        <time>2012-07-08T09:35:57.000Z</time>
      </trkpt>
      <trkpt lat="45.03061" lon="5.50174">
        <ele>1279.5999755859</ele>
        <time>2012-07-08T09:36:02.000Z</time>
      </trkpt>
      <trkpt lat="45.03064" lon="5.50172">
        <ele>1279.5999755859</ele>
        <time>2012-07-08T09:36:03.000Z</time>
      </trkpt>
      <trkpt lat="45.03072" lon="5.50166">
        <ele>1279.5999755859</ele>
        <time>2012-07-08T09:36:09.000Z</time>
      </trkpt>
      <trkpt lat="45.03077" lon="5.50167">
        <ele>1282</ele>
        <time>2012-07-08T09:36:13.000Z</time>
      </trkpt>
      <trkpt lat="45.03078" lon="5.50167">
        <ele>1283</ele>
        <time>2012-07-08T09:36:14.000Z</time>
      </trkpt>
      <trkpt lat="45.03084" lon="5.50171">
        <ele>1284.8000488281</ele>
        <time>2012-07-08T09:36:21.000Z</time>
      </trkpt>
      <trkpt lat="45.03083" lon="5.50186">
        <ele>1281</ele>
        <time>2012-07-08T09:36:29.000Z</time>
      </trkpt>
      <trkpt lat="45.03088" lon="5.502">
        <ele>1279</ele>
        <time>2012-07-08T09:36:36.000Z</time>
      </trkpt>
      <trkpt lat="45.03089" lon="5.50204">
        <ele>1278.1999511719</ele>
        <time>2012-07-08T09:36:38.000Z</time>
      </trkpt>
      <trkpt lat="45.03094" lon="5.50216">
        <ele>1279.5999755859</ele>
        <time>2012-07-08T09:36:43.000Z</time>
      </trkpt>
      <trkpt lat="45.03096" lon="5.50214">
        <ele>1276.5999755859</ele>
        <time>2012-07-08T09:36:49.000Z</time>
      </trkpt>
      <trkpt lat="45.03099" lon="5.50209">
        <ele>1274.8000488281</ele>
        <time>2012-07-08T09:36:53.000Z</time>
      </trkpt>
      <trkpt lat="45.03101" lon="5.50204">
        <ele>1271.8000488281</ele>
        <time>2012-07-08T09:36:58.000Z</time>
      </trkpt>
      <trkpt lat="45.03102" lon="5.50204">
        <ele>1272.4000244141</ele>
        <time>2012-07-08T09:36:59.000Z</time>
      </trkpt>
      <trkpt lat="45.03105" lon="5.50204">
        <ele>1272.8000488281</ele>
        <time>2012-07-08T09:37:05.000Z</time>
      </trkpt>
      <trkpt lat="45.03107" lon="5.50204">
        <ele>1275.8000488281</ele>
        <time>2012-07-08T09:37:15.000Z</time>
      </trkpt>
      <trkpt lat="45.03109" lon="5.50202">
        <ele>1274.8000488281</ele>
        <time>2012-07-08T09:37:19.000Z</time>
      </trkpt>
      <trkpt lat="45.03112" lon="5.502">
        <ele>1273.8000488281</ele>
        <time>2012-07-08T09:37:24.000Z</time>
      </trkpt>
      <trkpt lat="45.03115" lon="5.50198">
        <ele>1273.4000244141</ele>
        <time>2012-07-08T09:37:29.000Z</time>
      </trkpt>
      <trkpt lat="45.03119" lon="5.50201">
        <ele>1273.8000488281</ele>
        <time>2012-07-08T09:37:33.000Z</time>
      </trkpt>
      <trkpt lat="45.03123" lon="5.50202">
        <ele>1274.1999511719</ele>
        <time>2012-07-08T09:37:38.000Z</time>
      </trkpt>
      <trkpt lat="45.03127" lon="5.502">
        <ele>1275.8000488281</ele>
        <time>2012-07-08T09:37:44.000Z</time>
      </trkpt>
      <trkpt lat="45.03132" lon="5.50197">
        <ele>1277.5999755859</ele>
        <time>2012-07-08T09:37:49.000Z</time>
      </trkpt>
      <trkpt lat="45.03134" lon="5.5019">
        <ele>1279.5999755859</ele>
        <time>2012-07-08T09:37:55.000Z</time>
      </trkpt>
      <trkpt lat="45.03135" lon="5.50187">
        <ele>1279</ele>
        <time>2012-07-08T09:37:59.000Z</time>
      </trkpt>
      <trkpt lat="45.03137" lon="5.50185">
        <ele>1279</ele>
        <time>2012-07-08T09:38:01.000Z</time>
      </trkpt>
      <trkpt lat="45.03141" lon="5.50183">
        <ele>1279</ele>
        <time>2012-07-08T09:38:04.000Z</time>
      </trkpt>
      <trkpt lat="45.03146" lon="5.50187">
        <ele>1278.5999755859</ele>
        <time>2012-07-08T09:38:09.000Z</time>
      </trkpt>
      <trkpt lat="45.03146" lon="5.50192">
        <ele>1279</ele>
        <time>2012-07-08T09:38:17.000Z</time>
      </trkpt>
      <trkpt lat="45.03144" lon="5.50189">
        <ele>1279.5999755859</ele>
        <time>2012-07-08T09:38:23.000Z</time>
      </trkpt>
      <trkpt lat="45.03141" lon="5.50183">
        <ele>1279.5999755859</ele>
        <time>2012-07-08T09:38:27.000Z</time>
      </trkpt>
      <trkpt lat="45.03141" lon="5.50179">
        <ele>1279</ele>
        <time>2012-07-08T09:38:29.000Z</time>
      </trkpt>
      <trkpt lat="45.03141" lon="5.50173">
        <ele>1280.5999755859</ele>
        <time>2012-07-08T09:38:34.000Z</time>
      </trkpt>
      <trkpt lat="45.03141" lon="5.50168">
        <ele>1281</ele>
        <time>2012-07-08T09:38:39.000Z</time>
      </trkpt>
      <trkpt lat="45.03137" lon="5.50167">
        <ele>1281.4000244141</ele>
        <time>2012-07-08T09:38:44.000Z</time>
      </trkpt>
      <trkpt lat="45.03136" lon="5.50163">
        <ele>1282.4000244141</ele>
        <time>2012-07-08T09:38:47.000Z</time>
      </trkpt>
      <trkpt lat="45.03137" lon="5.50158">
        <ele>1283</ele>
        <time>2012-07-08T09:38:50.000Z</time>
      </trkpt>
      <trkpt lat="45.03138" lon="5.50156">
        <ele>1283.4000244141</ele>
        <time>2012-07-08T09:38:56.000Z</time>
      </trkpt>
      <trkpt lat="45.03141" lon="5.50157">
        <ele>1284.4000244141</ele>
        <time>2012-07-08T09:38:59.000Z</time>
      </trkpt>
      <trkpt lat="45.03143" lon="5.50162">
        <ele>1284.4000244141</ele>
        <time>2012-07-08T09:39:02.000Z</time>
      </trkpt>
      <trkpt lat="45.03151" lon="5.50169">
        <ele>1281.4000244141</ele>
        <time>2012-07-08T09:39:08.000Z</time>
      </trkpt>
      <trkpt lat="45.03151" lon="5.5018">
        <ele>1281</ele>
        <time>2012-07-08T09:39:14.000Z</time>
      </trkpt>
      <trkpt lat="45.03149" lon="5.50184">
        <ele>1281</ele>
        <time>2012-07-08T09:39:18.000Z</time>
      </trkpt>
      <trkpt lat="45.03147" lon="5.502">
        <ele>1280.5999755859</ele>
        <time>2012-07-08T09:39:23.000Z</time>
      </trkpt>
      <trkpt lat="45.03148" lon="5.50208">
        <ele>1280.5999755859</ele>
        <time>2012-07-08T09:39:26.000Z</time>
      </trkpt>
      <trkpt lat="45.03148" lon="5.50216">
        <ele>1280.5999755859</ele>
        <time>2012-07-08T09:39:29.000Z</time>
      </trkpt>
      <trkpt lat="45.03146" lon="5.50223">
        <ele>1278.5999755859</ele>
        <time>2012-07-08T09:39:33.000Z</time>
      </trkpt>
      <trkpt lat="45.03146" lon="5.50231">
        <ele>1277.1999511719</ele>
        <time>2012-07-08T09:39:36.000Z</time>
      </trkpt>
      <trkpt lat="45.03143" lon="5.5024">
        <ele>1279.5999755859</ele>
        <time>2012-07-08T09:39:40.000Z</time>
      </trkpt>
      <trkpt lat="45.03144" lon="5.50251">
        <ele>1278.1999511719</ele>
        <time>2012-07-08T09:39:45.000Z</time>
      </trkpt>
      <trkpt lat="45.03145" lon="5.50254">
        <ele>1277.1999511719</ele>
        <time>2012-07-08T09:39:47.000Z</time>
      </trkpt>
      <trkpt lat="45.03145" lon="5.50257">
        <ele>1275.8000488281</ele>
        <time>2012-07-08T09:39:50.000Z</time>
      </trkpt>
      <trkpt lat="45.0315" lon="5.50264">
        <ele>1272.8000488281</ele>
        <time>2012-07-08T09:39:56.000Z</time>
      </trkpt>
      <trkpt lat="45.03152" lon="5.50265">
        <ele>1270.4000244141</ele>
        <time>2012-07-08T09:40:00.000Z</time>
      </trkpt>
      <trkpt lat="45.03153" lon="5.50265">
        <ele>1270.4000244141</ele>
        <time>2012-07-08T09:40:01.000Z</time>
      </trkpt>
      <trkpt lat="45.03159" lon="5.50267">
        <ele>1269.4000244141</ele>
        <time>2012-07-08T09:40:05.000Z</time>
      </trkpt>
      <trkpt lat="45.03162" lon="5.50265">
        <ele>1268.4000244141</ele>
        <time>2012-07-08T09:40:09.000Z</time>
      </trkpt>
      <trkpt lat="45.03167" lon="5.50268">
        <ele>1267.5999755859</ele>
        <time>2012-07-08T09:40:15.000Z</time>
      </trkpt>
      <trkpt lat="45.03165" lon="5.50271">
        <ele>1267.5999755859</ele>
        <time>2012-07-08T09:40:19.000Z</time>
      </trkpt>
      <trkpt lat="45.03166" lon="5.50281">
        <ele>1269</ele>
        <time>2012-07-08T09:40:24.000Z</time>
      </trkpt>
      <trkpt lat="45.03166" lon="5.50296">
        <ele>1269.4000244141</ele>
        <time>2012-07-08T09:40:29.000Z</time>
      </trkpt>
      <trkpt lat="45.0317" lon="5.50308">
        <ele>1268</ele>
        <time>2012-07-08T09:40:35.000Z</time>
      </trkpt>
      <trkpt lat="45.03169" lon="5.50314">
        <ele>1266</ele>
        <time>2012-07-08T09:40:39.000Z</time>
      </trkpt>
      <trkpt lat="45.03172" lon="5.50323">
        <ele>1265.5999755859</ele>
        <time>2012-07-08T09:40:45.000Z</time>
      </trkpt>
      <trkpt lat="45.03171" lon="5.50325">
        <ele>1264.1999511719</ele>
        <time>2012-07-08T09:40:48.000Z</time>
      </trkpt>
      <trkpt lat="45.03172" lon="5.50332">
        <ele>1266.5999755859</ele>
        <time>2012-07-08T09:40:55.000Z</time>
      </trkpt>
      <trkpt lat="45.0317" lon="5.50337">
        <ele>1266</ele>
        <time>2012-07-08T09:40:58.000Z</time>
      </trkpt>
      <trkpt lat="45.0317" lon="5.50337">
        <ele>1266</ele>
        <time>2012-07-08T09:40:59.000Z</time>
      </trkpt>
      <trkpt lat="45.03171" lon="5.50348">
        <ele>1266</ele>
        <time>2012-07-08T09:41:04.000Z</time>
      </trkpt>
      <trkpt lat="45.03168" lon="5.50355">
        <ele>1268</ele>
        <time>2012-07-08T09:41:07.000Z</time>
      </trkpt>
      <trkpt lat="45.03163" lon="5.5036">
        <ele>1268</ele>
        <time>2012-07-08T09:41:12.000Z</time>
      </trkpt>
      <trkpt lat="45.03157" lon="5.50362">
        <ele>1265.5999755859</ele>
        <time>2012-07-08T09:41:17.000Z</time>
      </trkpt>
      <trkpt lat="45.03155" lon="5.50361">
        <ele>1264.5999755859</ele>
        <time>2012-07-08T09:41:19.000Z</time>
      </trkpt>
      <trkpt lat="45.03153" lon="5.50364">
        <ele>1263.5999755859</ele>
        <time>2012-07-08T09:41:21.000Z</time>
      </trkpt>
      <trkpt lat="45.03152" lon="5.50369">
        <ele>1264.1999511719</ele>
        <time>2012-07-08T09:41:25.000Z</time>
      </trkpt>
      <trkpt lat="45.03144" lon="5.50376">
        <ele>1266.5999755859</ele>
        <time>2012-07-08T09:41:30.000Z</time>
      </trkpt>
      <trkpt lat="45.03139" lon="5.50382">
        <ele>1267.5999755859</ele>
        <time>2012-07-08T09:41:36.000Z</time>
      </trkpt>
      <trkpt lat="45.03138" lon="5.50383">
        <ele>1267.5999755859</ele>
        <time>2012-07-08T09:41:39.000Z</time>
      </trkpt>
      <trkpt lat="45.03133" lon="5.50391">
        <ele>1266</ele>
        <time>2012-07-08T09:41:43.000Z</time>
      </trkpt>
      <trkpt lat="45.03121" lon="5.50404">
        <ele>1266.5999755859</ele>
        <time>2012-07-08T09:41:49.000Z</time>
      </trkpt>
      <trkpt lat="45.0311" lon="5.50412">
        <ele>1267</ele>
        <time>2012-07-08T09:41:53.000Z</time>
      </trkpt>
      <trkpt lat="45.03094" lon="5.50427">
        <ele>1262.8000488281</ele>
        <time>2012-07-08T09:41:58.000Z</time>
      </trkpt>
      <trkpt lat="45.03086" lon="5.50432">
        <ele>1261.1999511719</ele>
        <time>2012-07-08T09:42:01.000Z</time>
      </trkpt>
      <trkpt lat="45.03073" lon="5.5044">
        <ele>1257.4000244141</ele>
        <time>2012-07-08T09:42:06.000Z</time>
      </trkpt>
      <trkpt lat="45.0306" lon="5.5045">
        <ele>1249.8000488281</ele>
        <time>2012-07-08T09:42:10.000Z</time>
      </trkpt>
      <trkpt lat="45.03048" lon="5.50458">
        <ele>1246</ele>
        <time>2012-07-08T09:42:15.000Z</time>
      </trkpt>
      <trkpt lat="45.03045" lon="5.50458">
        <ele>1239.5999755859</ele>
        <time>2012-07-08T09:42:25.000Z</time>
      </trkpt>
      <trkpt lat="45.03045" lon="5.50462">
        <ele>1242</ele>
        <time>2012-07-08T09:42:40.000Z</time>
      </trkpt>
      <trkpt lat="45.03041" lon="5.50467">
        <ele>1242</ele>
        <time>2012-07-08T09:42:45.000Z</time>
      </trkpt>
      <trkpt lat="45.03038" lon="5.50469">
        <ele>1239.1999511719</ele>
        <time>2012-07-08T09:42:49.000Z</time>
      </trkpt>
      <trkpt lat="45.03036" lon="5.50468">
        <ele>1237.8000488281</ele>
        <time>2012-07-08T09:42:51.000Z</time>
      </trkpt>
      <trkpt lat="45.03041" lon="5.5048">
        <ele>1236.1999511719</ele>
        <time>2012-07-08T09:42:55.000Z</time>
      </trkpt>
      <trkpt lat="45.03036" lon="5.50497">
        <ele>1235.4000244141</ele>
        <time>2012-07-08T09:42:59.000Z</time>
      </trkpt>
      <trkpt lat="45.03032" lon="5.5051">
        <ele>1238.1999511719</ele>
        <time>2012-07-08T09:43:04.000Z</time>
      </trkpt>
      <trkpt lat="45.03033" lon="5.50516">
        <ele>1236.8000488281</ele>
        <time>2012-07-08T09:43:10.000Z</time>
      </trkpt>
      <trkpt lat="45.0303" lon="5.50529">
        <ele>1234.8000488281</ele>
        <time>2012-07-08T09:43:14.000Z</time>
      </trkpt>
      <trkpt lat="45.03031" lon="5.50549">
        <ele>1233</ele>
        <time>2012-07-08T09:43:18.000Z</time>
      </trkpt>
      <trkpt lat="45.03034" lon="5.50567">
        <ele>1232</ele>
        <time>2012-07-08T09:43:22.000Z</time>
      </trkpt>
      <trkpt lat="45.03037" lon="5.50577">
        <ele>1232</ele>
        <time>2012-07-08T09:43:26.000Z</time>
      </trkpt>
      <trkpt lat="45.03041" lon="5.5058">
        <ele>1227.5999755859</ele>
        <time>2012-07-08T09:43:34.000Z</time>
      </trkpt>
      <trkpt lat="45.03046" lon="5.50583">
        <ele>1223.8000488281</ele>
        <time>2012-07-08T09:43:39.000Z</time>
      </trkpt>
      <trkpt lat="45.03061" lon="5.50597">
        <ele>1223.4000244141</ele>
        <time>2012-07-08T09:43:44.000Z</time>
      </trkpt>
      <trkpt lat="45.03069" lon="5.50607">
        <ele>1222.8000488281</ele>
        <time>2012-07-08T09:43:47.000Z</time>
      </trkpt>
      <trkpt lat="45.03074" lon="5.50625">
        <ele>1223.4000244141</ele>
        <time>2012-07-08T09:43:52.000Z</time>
      </trkpt>
      <trkpt lat="45.03076" lon="5.5064">
        <ele>1223.4000244141</ele>
        <time>2012-07-08T09:43:56.000Z</time>
      </trkpt>
      <trkpt lat="45.03076" lon="5.50644">
        <ele>1223.4000244141</ele>
        <time>2012-07-08T09:43:57.000Z</time>
      </trkpt>
      <trkpt lat="45.03077" lon="5.5066">
        <ele>1223.8000488281</ele>
        <time>2012-07-08T09:44:01.000Z</time>
      </trkpt>
      <trkpt lat="45.03078" lon="5.50673">
        <ele>1223.4000244141</ele>
        <time>2012-07-08T09:44:06.000Z</time>
      </trkpt>
      <trkpt lat="45.0308" lon="5.50678">
        <ele>1221.4000244141</ele>
        <time>2012-07-08T09:44:18.000Z</time>
      </trkpt>
      <trkpt lat="45.0308" lon="5.50677">
        <ele>1221</ele>
        <time>2012-07-08T09:44:21.000Z</time>
      </trkpt>
      <trkpt lat="45.03078" lon="5.50674">
        <ele>1220</ele>
        <time>2012-07-08T09:44:24.000Z</time>
      </trkpt>
      <trkpt lat="45.03067" lon="5.50683">
        <ele>1219</ele>
        <time>2012-07-08T09:44:29.000Z</time>
      </trkpt>
      <trkpt lat="45.03064" lon="5.50686">
        <ele>1219.4000244141</ele>
        <time>2012-07-08T09:44:30.000Z</time>
      </trkpt>
      <trkpt lat="45.03049" lon="5.50699">
        <ele>1223.8000488281</ele>
        <time>2012-07-08T09:44:34.000Z</time>
      </trkpt>
      <trkpt lat="45.03035" lon="5.50709">
        <ele>1225.8000488281</ele>
        <time>2012-07-08T09:44:38.000Z</time>
      </trkpt>
      <trkpt lat="45.03026" lon="5.50712">
        <ele>1228.1999511719</ele>
        <time>2012-07-08T09:44:42.000Z</time>
      </trkpt>
      <trkpt lat="45.03025" lon="5.50712">
        <ele>1229</ele>
        <time>2012-07-08T09:44:43.000Z</time>
      </trkpt>
      <trkpt lat="45.03018" lon="5.5072">
        <ele>1229.5999755859</ele>
        <time>2012-07-08T09:44:49.000Z</time>
      </trkpt>
      <trkpt lat="45.03017" lon="5.50723">
        <ele>1227.1999511719</ele>
        <time>2012-07-08T09:44:57.000Z</time>
      </trkpt>
      <trkpt lat="45.03016" lon="5.50728">
        <ele>1227.1999511719</ele>
        <time>2012-07-08T09:45:01.000Z</time>
      </trkpt>
      <trkpt lat="45.03014" lon="5.50729">
        <ele>1226.5999755859</ele>
        <time>2012-07-08T09:45:02.000Z</time>
      </trkpt>
      <trkpt lat="45.03007" lon="5.50738">
        <ele>1227.5999755859</ele>
        <time>2012-07-08T09:45:07.000Z</time>
      </trkpt>
      <trkpt lat="45.03003" lon="5.50753">
        <ele>1224.1999511719</ele>
        <time>2012-07-08T09:45:12.000Z</time>
      </trkpt>
      <trkpt lat="45.03" lon="5.50769">
        <ele>1225.1999511719</ele>
        <time>2012-07-08T09:45:16.000Z</time>
      </trkpt>
      <trkpt lat="45.02988" lon="5.50785">
        <ele>1224.1999511719</ele>
        <time>2012-07-08T09:45:21.000Z</time>
      </trkpt>
      <trkpt lat="45.0298" lon="5.50803">
        <ele>1227.1999511719</ele>
        <time>2012-07-08T09:45:26.000Z</time>
      </trkpt>
      <trkpt lat="45.0297" lon="5.50819">
        <ele>1232</ele>
        <time>2012-07-08T09:45:30.000Z</time>
      </trkpt>
      <trkpt lat="45.02958" lon="5.50834">
        <ele>1235.8000488281</ele>
        <time>2012-07-08T09:45:35.000Z</time>
      </trkpt>
      <trkpt lat="45.02955" lon="5.50838">
        <ele>1234.8000488281</ele>
        <time>2012-07-08T09:45:37.000Z</time>
      </trkpt>
      <trkpt lat="45.02942" lon="5.50841">
        <ele>1228.5999755859</ele>
        <time>2012-07-08T09:45:43.000Z</time>
      </trkpt>
      <trkpt lat="45.02933" lon="5.50849">
        <ele>1224.8000488281</ele>
        <time>2012-07-08T09:45:48.000Z</time>
      </trkpt>
      <trkpt lat="45.02925" lon="5.50853">
        <ele>1223.4000244141</ele>
        <time>2012-07-08T09:45:52.000Z</time>
      </trkpt>
      <trkpt lat="45.02917" lon="5.50849">
        <ele>1220</ele>
        <time>2012-07-08T09:45:56.000Z</time>
      </trkpt>
      <trkpt lat="45.02911" lon="5.50847">
        <ele>1218.5999755859</ele>
        <time>2012-07-08T09:46:01.000Z</time>
      </trkpt>
      <trkpt lat="45.02902" lon="5.50846">
        <ele>1219</ele>
        <time>2012-07-08T09:46:05.000Z</time>
      </trkpt>
      <trkpt lat="45.02884" lon="5.50856">
        <ele>1221</ele>
        <time>2012-07-08T09:46:12.000Z</time>
      </trkpt>
      <trkpt lat="45.02874" lon="5.5086">
        <ele>1221</ele>
        <time>2012-07-08T09:46:16.000Z</time>
      </trkpt>
      <trkpt lat="45.02869" lon="5.50856">
        <ele>1214.1999511719</ele>
        <time>2012-07-08T09:46:21.000Z</time>
      </trkpt>
      <trkpt lat="45.02865" lon="5.50852">
        <ele>1209.4000244141</ele>
        <time>2012-07-08T09:46:26.000Z</time>
      </trkpt>
      <trkpt lat="45.02855" lon="5.50845">
        <ele>1210.8000488281</ele>
        <time>2012-07-08T09:46:33.000Z</time>
      </trkpt>
      <trkpt lat="45.02847" lon="5.50843">
        <ele>1210.8000488281</ele>
        <time>2012-07-08T09:46:37.000Z</time>
      </trkpt>
      <trkpt lat="45.0284" lon="5.50847">
        <ele>1212.1999511719</ele>
        <time>2012-07-08T09:46:42.000Z</time>
      </trkpt>
      <trkpt lat="45.02838" lon="5.50846">
        <ele>1216.1999511719</ele>
        <time>2012-07-08T09:46:50.000Z</time>
      </trkpt>
      <trkpt lat="45.02836" lon="5.50844">
        <ele>1217</ele>
        <time>2012-07-08T09:46:52.000Z</time>
      </trkpt>
      <trkpt lat="45.02828" lon="5.5084">
        <ele>1218</ele>
        <time>2012-07-08T09:46:57.000Z</time>
      </trkpt>
      <trkpt lat="45.02822" lon="5.50836">
        <ele>1217.5999755859</ele>
        <time>2012-07-08T09:47:00.000Z</time>
      </trkpt>
      <trkpt lat="45.0281" lon="5.50839">
        <ele>1219</ele>
        <time>2012-07-08T09:47:07.000Z</time>
      </trkpt>
      <trkpt lat="45.02805" lon="5.50839">
        <ele>1215.5999755859</ele>
        <time>2012-07-08T09:47:11.000Z</time>
      </trkpt>
      <trkpt lat="45.02801" lon="5.50837">
        <ele>1215.5999755859</ele>
        <time>2012-07-08T09:47:14.000Z</time>
      </trkpt>
      <trkpt lat="45.02797" lon="5.50835">
        <ele>1214.5999755859</ele>
        <time>2012-07-08T09:47:17.000Z</time>
      </trkpt>
      <trkpt lat="45.02786" lon="5.50837">
        <ele>1215.5999755859</ele>
        <time>2012-07-08T09:47:22.000Z</time>
      </trkpt>
      <trkpt lat="45.0278" lon="5.50834">
        <ele>1214.5999755859</ele>
        <time>2012-07-08T09:47:25.000Z</time>
      </trkpt>
      <trkpt lat="45.02775" lon="5.50828">
        <ele>1221.8000488281</ele>
        <time>2012-07-08T09:47:30.000Z</time>
      </trkpt>
      <trkpt lat="45.02767" lon="5.50827">
        <ele>1226.1999511719</ele>
        <time>2012-07-08T09:47:37.000Z</time>
      </trkpt>
      <trkpt lat="45.02767" lon="5.50827">
        <ele>1226.5999755859</ele>
        <time>2012-07-08T09:47:38.000Z</time>
      </trkpt>
      <trkpt lat="45.02758" lon="5.50832">
        <ele>1228.5999755859</ele>
        <time>2012-07-08T09:47:43.000Z</time>
      </trkpt>
      <trkpt lat="45.02745" lon="5.50831">
        <ele>1231</ele>
        <time>2012-07-08T09:47:48.000Z</time>
      </trkpt>
      <trkpt lat="45.02733" lon="5.50823">
        <ele>1229.5999755859</ele>
        <time>2012-07-08T09:47:53.000Z</time>
      </trkpt>
      <trkpt lat="45.02732" lon="5.50822">
        <ele>1231</ele>
        <time>2012-07-08T09:47:55.000Z</time>
      </trkpt>
      <trkpt lat="45.02728" lon="5.50818">
        <ele>1229.5999755859</ele>
        <time>2012-07-08T09:47:59.000Z</time>
      </trkpt>
      <trkpt lat="45.02722" lon="5.50805">
        <ele>1226.5999755859</ele>
        <time>2012-07-08T09:48:04.000Z</time>
      </trkpt>
      <trkpt lat="45.02716" lon="5.50798">
        <ele>1225.1999511719</ele>
        <time>2012-07-08T09:48:10.000Z</time>
      </trkpt>
      <trkpt lat="45.02712" lon="5.50789">
        <ele>1222.8000488281</ele>
        <time>2012-07-08T09:48:16.000Z</time>
      </trkpt>
      <trkpt lat="45.02712" lon="5.50787">
        <ele>1222.8000488281</ele>
        <time>2012-07-08T09:48:17.000Z</time>
      </trkpt>
      <trkpt lat="45.02711" lon="5.5078">
        <ele>1225.1999511719</ele>
        <time>2012-07-08T09:48:24.000Z</time>
      </trkpt>
      <trkpt lat="45.02706" lon="5.50774">
        <ele>1224.8000488281</ele>
        <time>2012-07-08T09:48:27.000Z</time>
      </trkpt>
      <trkpt lat="45.02698" lon="5.50771">
        <ele>1225.1999511719</ele>
        <time>2012-07-08T09:48:31.000Z</time>
      </trkpt>
      <trkpt lat="45.02692" lon="5.5077">
        <ele>1225.8000488281</ele>
        <time>2012-07-08T09:48:35.000Z</time>
      </trkpt>
      <trkpt lat="45.0269" lon="5.50771">
        <ele>1226.5999755859</ele>
        <time>2012-07-08T09:48:39.000Z</time>
      </trkpt>
      <trkpt lat="45.02688" lon="5.50767">
        <ele>1227.5999755859</ele>
        <time>2012-07-08T09:48:47.000Z</time>
      </trkpt>
      <trkpt lat="45.02687" lon="5.50769">
        <ele>1234.8000488281</ele>
        <time>2012-07-08T09:48:55.000Z</time>
      </trkpt>
      <trkpt lat="45.02683" lon="5.5077">
        <ele>1236.8000488281</ele>
        <time>2012-07-08T09:49:00.000Z</time>
      </trkpt>
      <trkpt lat="45.02679" lon="5.50768">
        <ele>1237.1999511719</ele>
        <time>2012-07-08T09:49:05.000Z</time>
      </trkpt>
      <trkpt lat="45.02679" lon="5.5077">
        <ele>1241</ele>
        <time>2012-07-08T09:49:09.000Z</time>
      </trkpt>
      <trkpt lat="45.02683" lon="5.50774">
        <ele>1243</ele>
        <time>2012-07-08T09:49:16.000Z</time>
      </trkpt>
      <trkpt lat="45.02686" lon="5.50779">
        <ele>1238.5999755859</ele>
        <time>2012-07-08T09:49:21.000Z</time>
      </trkpt>
      <trkpt lat="45.02685" lon="5.50781">
        <ele>1235.4000244141</ele>
        <time>2012-07-08T09:49:25.000Z</time>
      </trkpt>
      <trkpt lat="45.02688" lon="5.50792">
        <ele>1228.5999755859</ele>
        <time>2012-07-08T09:49:30.000Z</time>
      </trkpt>
      <trkpt lat="45.02689" lon="5.50794">
        <ele>1227.5999755859</ele>
        <time>2012-07-08T09:49:31.000Z</time>
      </trkpt>
      <trkpt lat="45.02691" lon="5.508">
        <ele>1219</ele>
        <time>2012-07-08T09:49:36.000Z</time>
      </trkpt>
      <trkpt lat="45.02687" lon="5.50818">
        <ele>1221</ele>
        <time>2012-07-08T09:49:41.000Z</time>
      </trkpt>
      <trkpt lat="45.02681" lon="5.50824">
        <ele>1218</ele>
        <time>2012-07-08T09:49:44.000Z</time>
      </trkpt>
      <trkpt lat="45.0268" lon="5.50837">
        <ele>1214.5999755859</ele>
        <time>2012-07-08T09:49:50.000Z</time>
      </trkpt>
      <trkpt lat="45.02681" lon="5.5084">
        <ele>1213.8000488281</ele>
        <time>2012-07-08T09:49:53.000Z</time>
      </trkpt>
      <trkpt lat="45.02677" lon="5.50846">
        <ele>1212.1999511719</ele>
        <time>2012-07-08T09:49:58.000Z</time>
      </trkpt>
      <trkpt lat="45.02679" lon="5.50851">
        <ele>1211.1999511719</ele>
        <time>2012-07-08T09:50:02.000Z</time>
      </trkpt>
      <trkpt lat="45.02685" lon="5.50857">
        <ele>1212.8000488281</ele>
        <time>2012-07-08T09:50:08.000Z</time>
      </trkpt>
      <trkpt lat="45.02687" lon="5.50857">
        <ele>1213.8000488281</ele>
        <time>2012-07-08T09:50:12.000Z</time>
      </trkpt>
      <trkpt lat="45.02689" lon="5.50857">
        <ele>1218</ele>
        <time>2012-07-08T09:50:16.000Z</time>
      </trkpt>
      <trkpt lat="45.02689" lon="5.50854">
        <ele>1221.4000244141</ele>
        <time>2012-07-08T09:50:23.000Z</time>
      </trkpt>
      <trkpt lat="45.02693" lon="5.50852">
        <ele>1221.4000244141</ele>
        <time>2012-07-08T09:50:27.000Z</time>
      </trkpt>
      <trkpt lat="45.02694" lon="5.50849">
        <ele>1221.4000244141</ele>
        <time>2012-07-08T09:50:29.000Z</time>
      </trkpt>
      <trkpt lat="45.02694" lon="5.50842">
        <ele>1219.4000244141</ele>
        <time>2012-07-08T09:50:34.000Z</time>
      </trkpt>
      <trkpt lat="45.02695" lon="5.50841">
        <ele>1220</ele>
        <time>2012-07-08T09:50:36.000Z</time>
      </trkpt>
      <trkpt lat="45.02702" lon="5.5084">
        <ele>1221.8000488281</ele>
        <time>2012-07-08T09:50:41.000Z</time>
      </trkpt>
      <trkpt lat="45.02704" lon="5.50837">
        <ele>1220</ele>
        <time>2012-07-08T09:50:45.000Z</time>
      </trkpt>
      <trkpt lat="45.02717" lon="5.50839">
        <ele>1221.8000488281</ele>
        <time>2012-07-08T09:50:50.000Z</time>
      </trkpt>
      <trkpt lat="45.02719" lon="5.50839">
        <ele>1223.4000244141</ele>
        <time>2012-07-08T09:50:51.000Z</time>
      </trkpt>
      <trkpt lat="45.02723" lon="5.50838">
        <ele>1222.8000488281</ele>
        <time>2012-07-08T09:50:54.000Z</time>
      </trkpt>
      <trkpt lat="45.02723" lon="5.5083">
        <ele>1222.4000244141</ele>
        <time>2012-07-08T09:51:00.000Z</time>
      </trkpt>
      <trkpt lat="45.02723" lon="5.50826">
        <ele>1223.4000244141</ele>
        <time>2012-07-08T09:51:03.000Z</time>
      </trkpt>
      <trkpt lat="45.02721" lon="5.50822">
        <ele>1221</ele>
        <time>2012-07-08T09:51:12.000Z</time>
      </trkpt>
      <trkpt lat="45.02716" lon="5.50819">
        <ele>1223.4000244141</ele>
        <time>2012-07-08T09:51:17.000Z</time>
      </trkpt>
      <trkpt lat="45.02706" lon="5.50811">
        <ele>1225.8000488281</ele>
        <time>2012-07-08T09:51:22.000Z</time>
      </trkpt>
      <trkpt lat="45.02699" lon="5.50797">
        <ele>1223.8000488281</ele>
        <time>2012-07-08T09:51:28.000Z</time>
      </trkpt>
      <trkpt lat="45.02698" lon="5.50796">
        <ele>1224.8000488281</ele>
        <time>2012-07-08T09:51:30.000Z</time>
      </trkpt>
      <trkpt lat="45.02696" lon="5.50789">
        <ele>1226.1999511719</ele>
        <time>2012-07-08T09:51:34.000Z</time>
      </trkpt>
      <trkpt lat="45.02696" lon="5.50781">
        <ele>1225.8000488281</ele>
        <time>2012-07-08T09:51:37.000Z</time>
      </trkpt>
      <trkpt lat="45.0269" lon="5.50769">
        <ele>1227.5999755859</ele>
        <time>2012-07-08T09:51:41.000Z</time>
      </trkpt>
      <trkpt lat="45.02677" lon="5.50745">
        <ele>1236.8000488281</ele>
        <time>2012-07-08T09:51:48.000Z</time>
      </trkpt>
      <trkpt lat="45.02676" lon="5.50737">
        <ele>1236.8000488281</ele>
        <time>2012-07-08T09:51:52.000Z</time>
      </trkpt>
      <trkpt lat="45.02676" lon="5.50736">
        <ele>1237.1999511719</ele>
        <time>2012-07-08T09:51:54.000Z</time>
      </trkpt>
      <trkpt lat="45.02676" lon="5.50732">
        <ele>1237.1999511719</ele>
        <time>2012-07-08T09:51:56.000Z</time>
      </trkpt>
      <trkpt lat="45.0268" lon="5.50723">
        <ele>1234.4000244141</ele>
        <time>2012-07-08T09:52:02.000Z</time>
      </trkpt>
      <trkpt lat="45.02674" lon="5.50715">
        <ele>1233.4000244141</ele>
        <time>2012-07-08T09:52:09.000Z</time>
      </trkpt>
      <trkpt lat="45.02672" lon="5.50714">
        <ele>1230.5999755859</ele>
        <time>2012-07-08T09:52:13.000Z</time>
      </trkpt>
      <trkpt lat="45.02669" lon="5.50707">
        <ele>1230.5999755859</ele>
        <time>2012-07-08T09:52:21.000Z</time>
      </trkpt>
      <trkpt lat="45.02665" lon="5.50705">
        <ele>1231</ele>
        <time>2012-07-08T09:52:26.000Z</time>
      </trkpt>
      <trkpt lat="45.02661" lon="5.50695">
        <ele>1232.4000244141</ele>
        <time>2012-07-08T09:52:35.000Z</time>
      </trkpt>
      <trkpt lat="45.02657" lon="5.50692">
        <ele>1233.4000244141</ele>
        <time>2012-07-08T09:52:38.000Z</time>
      </trkpt>
      <trkpt lat="45.02651" lon="5.5069">
        <ele>1233.4000244141</ele>
        <time>2012-07-08T09:52:42.000Z</time>
      </trkpt>
      <trkpt lat="45.02639" lon="5.50685">
        <ele>1234.8000488281</ele>
        <time>2012-07-08T09:52:47.000Z</time>
      </trkpt>
      <trkpt lat="45.02634" lon="5.50679">
        <ele>1232.4000244141</ele>
        <time>2012-07-08T09:52:51.000Z</time>
      </trkpt>
      <trkpt lat="45.02635" lon="5.50674">
        <ele>1227.1999511719</ele>
        <time>2012-07-08T09:52:53.000Z</time>
      </trkpt>
      <trkpt lat="45.02627" lon="5.50663">
        <ele>1228.5999755859</ele>
        <time>2012-07-08T09:52:59.000Z</time>
      </trkpt>
      <trkpt lat="45.02628" lon="5.50648">
        <ele>1227.1999511719</ele>
        <time>2012-07-08T09:53:04.000Z</time>
      </trkpt>
      <trkpt lat="45.02634" lon="5.50638">
        <ele>1233.4000244141</ele>
        <time>2012-07-08T09:53:08.000Z</time>
      </trkpt>
      <trkpt lat="45.02624" lon="5.50627">
        <ele>1234.8000488281</ele>
        <time>2012-07-08T09:53:13.000Z</time>
      </trkpt>
      <trkpt lat="45.02614" lon="5.50624">
        <ele>1234.4000244141</ele>
        <time>2012-07-08T09:53:18.000Z</time>
      </trkpt>
      <trkpt lat="45.02613" lon="5.50624">
        <ele>1233.8000488281</ele>
        <time>2012-07-08T09:53:19.000Z</time>
      </trkpt>
      <trkpt lat="45.02609" lon="5.50613">
        <ele>1232</ele>
        <time>2012-07-08T09:53:25.000Z</time>
      </trkpt>
      <trkpt lat="45.02603" lon="5.50603">
        <ele>1232.4000244141</ele>
        <time>2012-07-08T09:53:36.000Z</time>
      </trkpt>
      <trkpt lat="45.026" lon="5.50599">
        <ele>1236.1999511719</ele>
        <time>2012-07-08T09:53:41.000Z</time>
      </trkpt>
      <trkpt lat="45.02601" lon="5.50595">
        <ele>1242.5999755859</ele>
        <time>2012-07-08T09:53:47.000Z</time>
      </trkpt>
      <trkpt lat="45.02598" lon="5.50592">
        <ele>1243</ele>
        <time>2012-07-08T09:53:51.000Z</time>
      </trkpt>
      <trkpt lat="45.02595" lon="5.50585">
        <ele>1249.1999511719</ele>
        <time>2012-07-08T09:54:01.000Z</time>
      </trkpt>
      <trkpt lat="45.0259" lon="5.50585">
        <ele>1248.8000488281</ele>
        <time>2012-07-08T09:54:07.000Z</time>
      </trkpt>
      <trkpt lat="45.0259" lon="5.50585">
        <ele>1248.4000244141</ele>
        <time>2012-07-08T09:54:08.000Z</time>
      </trkpt>
      <trkpt lat="45.02589" lon="5.50575">
        <ele>1242</ele>
        <time>2012-07-08T09:54:13.000Z</time>
      </trkpt>
      <trkpt lat="45.02591" lon="5.50566">
        <ele>1237.8000488281</ele>
        <time>2012-07-08T09:54:16.000Z</time>
      </trkpt>
      <trkpt lat="45.0259" lon="5.50541">
        <ele>1240.1999511719</ele>
        <time>2012-07-08T09:54:22.000Z</time>
      </trkpt>
      <trkpt lat="45.02591" lon="5.50538">
        <ele>1240.1999511719</ele>
        <time>2012-07-08T09:54:23.000Z</time>
      </trkpt>
      <trkpt lat="45.02595" lon="5.50533">
        <ele>1242.5999755859</ele>
        <time>2012-07-08T09:54:26.000Z</time>
      </trkpt>
      <trkpt lat="45.02599" lon="5.50522">
        <ele>1244.4000244141</ele>
        <time>2012-07-08T09:54:31.000Z</time>
      </trkpt>
      <trkpt lat="45.02594" lon="5.50512">
        <ele>1248.8000488281</ele>
        <time>2012-07-08T09:54:41.000Z</time>
      </trkpt>
      <trkpt lat="45.02595" lon="5.5051">
        <ele>1251.1999511719</ele>
        <time>2012-07-08T09:54:45.000Z</time>
      </trkpt>
      <trkpt lat="45.02593" lon="5.50503">
        <ele>1251.5999755859</ele>
        <time>2012-07-08T09:54:49.000Z</time>
      </trkpt>
      <trkpt lat="45.02593" lon="5.50499">
        <ele>1256.4000244141</ele>
        <time>2012-07-08T09:54:56.000Z</time>
      </trkpt>
      <trkpt lat="45.02592" lon="5.50499">
        <ele>1260.4000244141</ele>
        <time>2012-07-08T09:55:00.000Z</time>
      </trkpt>
      <trkpt lat="45.02592" lon="5.50499">
        <ele>1259.8000488281</ele>
        <time>2012-07-08T09:55:01.000Z</time>
      </trkpt>
      <trkpt lat="45.02591" lon="5.50496">
        <ele>1258.8000488281</ele>
        <time>2012-07-08T09:55:03.000Z</time>
      </trkpt>
      <trkpt lat="45.02583" lon="5.50482">
        <ele>1257</ele>
        <time>2012-07-08T09:55:08.000Z</time>
      </trkpt>
      <trkpt lat="45.02579" lon="5.50474">
        <ele>1258.8000488281</ele>
        <time>2012-07-08T09:55:12.000Z</time>
      </trkpt>
      <trkpt lat="45.02578" lon="5.50471">
        <ele>1263.1999511719</ele>
        <time>2012-07-08T09:55:15.000Z</time>
      </trkpt>
      <trkpt lat="45.02579" lon="5.50461">
        <ele>1262.1999511719</ele>
        <time>2012-07-08T09:55:20.000Z</time>
      </trkpt>
      <trkpt lat="45.02574" lon="5.50451">
        <ele>1261.8000488281</ele>
        <time>2012-07-08T09:55:24.000Z</time>
      </trkpt>
      <trkpt lat="45.02563" lon="5.50443">
        <ele>1261.8000488281</ele>
        <time>2012-07-08T09:55:29.000Z</time>
      </trkpt>
      <trkpt lat="45.02561" lon="5.5044">
        <ele>1261.1999511719</ele>
        <time>2012-07-08T09:55:30.000Z</time>
      </trkpt>
      <trkpt lat="45.02559" lon="5.50439">
        <ele>1265.1999511719</ele>
        <time>2012-07-08T09:55:35.000Z</time>
      </trkpt>
      <trkpt lat="45.02559" lon="5.50439">
        <ele>1267.5999755859</ele>
        <time>2012-07-08T09:55:37.000Z</time>
      </trkpt>
      <trkpt lat="45.02553" lon="5.50441">
        <ele>1270.4000244141</ele>
        <time>2012-07-08T09:55:43.000Z</time>
      </trkpt>
      <trkpt lat="45.02549" lon="5.5044">
        <ele>1271.4000244141</ele>
        <time>2012-07-08T09:55:47.000Z</time>
      </trkpt>
      <trkpt lat="45.02536" lon="5.50442">
        <ele>1272.4000244141</ele>
        <time>2012-07-08T09:55:52.000Z</time>
      </trkpt>
      <trkpt lat="45.02531" lon="5.5045">
        <ele>1267.5999755859</ele>
        <time>2012-07-08T09:55:56.000Z</time>
      </trkpt>
      <trkpt lat="45.02531" lon="5.50453">
        <ele>1266</ele>
        <time>2012-07-08T09:55:57.000Z</time>
      </trkpt>
      <trkpt lat="45.02526" lon="5.50461">
        <ele>1264.5999755859</ele>
        <time>2012-07-08T09:56:03.000Z</time>
      </trkpt>
      <trkpt lat="45.02516" lon="5.50463">
        <ele>1266.5999755859</ele>
        <time>2012-07-08T09:56:10.000Z</time>
      </trkpt>
      <trkpt lat="45.02508" lon="5.50466">
        <ele>1266.5999755859</ele>
        <time>2012-07-08T09:56:15.000Z</time>
      </trkpt>
      <trkpt lat="45.02508" lon="5.50466">
        <ele>1266</ele>
        <time>2012-07-08T09:56:16.000Z</time>
      </trkpt>
      <trkpt lat="45.02506" lon="5.5047">
        <ele>1263.1999511719</ele>
        <time>2012-07-08T09:56:20.000Z</time>
      </trkpt>
      <trkpt lat="45.02502" lon="5.50474">
        <ele>1258.4000244141</ele>
        <time>2012-07-08T09:56:24.000Z</time>
      </trkpt>
      <trkpt lat="45.02496" lon="5.50479">
        <ele>1258.4000244141</ele>
        <time>2012-07-08T09:56:30.000Z</time>
      </trkpt>
      <trkpt lat="45.0249" lon="5.50481">
        <ele>1258.8000488281</ele>
        <time>2012-07-08T09:56:35.000Z</time>
      </trkpt>
      <trkpt lat="45.02484" lon="5.50478">
        <ele>1257.4000244141</ele>
        <time>2012-07-08T09:56:39.000Z</time>
      </trkpt>
      <trkpt lat="45.02483" lon="5.50478">
        <ele>1257</ele>
        <time>2012-07-08T09:56:40.000Z</time>
      </trkpt>
      <trkpt lat="45.02477" lon="5.50477">
        <ele>1256.4000244141</ele>
        <time>2012-07-08T09:56:44.000Z</time>
      </trkpt>
      <trkpt lat="45.02474" lon="5.50477">
        <ele>1258</ele>
        <time>2012-07-08T09:56:47.000Z</time>
      </trkpt>
      <trkpt lat="45.0247" lon="5.5048">
        <ele>1258</ele>
        <time>2012-07-08T09:56:49.000Z</time>
      </trkpt>
      <trkpt lat="45.02466" lon="5.5048">
        <ele>1258.4000244141</ele>
        <time>2012-07-08T09:56:52.000Z</time>
      </trkpt>
      <trkpt lat="45.02463" lon="5.50483">
        <ele>1259.8000488281</ele>
        <time>2012-07-08T09:56:55.000Z</time>
      </trkpt>
      <trkpt lat="45.02459" lon="5.50488">
        <ele>1259.8000488281</ele>
        <time>2012-07-08T09:57:00.000Z</time>
      </trkpt>
      <trkpt lat="45.02452" lon="5.50486">
        <ele>1259.4000244141</ele>
        <time>2012-07-08T09:57:04.000Z</time>
      </trkpt>
      <trkpt lat="45.02445" lon="5.50485">
        <ele>1261.1999511719</ele>
        <time>2012-07-08T09:57:08.000Z</time>
      </trkpt>
      <trkpt lat="45.02439" lon="5.50486">
        <ele>1263.1999511719</ele>
        <time>2012-07-08T09:57:12.000Z</time>
      </trkpt>
      <trkpt lat="45.02433" lon="5.50488">
        <ele>1261.1999511719</ele>
        <time>2012-07-08T09:57:17.000Z</time>
      </trkpt>
      <trkpt lat="45.02427" lon="5.50487">
        <ele>1259.8000488281</ele>
        <time>2012-07-08T09:57:22.000Z</time>
      </trkpt>
      <trkpt lat="45.02425" lon="5.50489">
        <ele>1261.1999511719</ele>
        <time>2012-07-08T09:57:27.000Z</time>
      </trkpt>
      <trkpt lat="45.02422" lon="5.50491">
        <ele>1259.8000488281</ele>
        <time>2012-07-08T09:57:31.000Z</time>
      </trkpt>
      <trkpt lat="45.02424" lon="5.50505">
        <ele>1256</ele>
        <time>2012-07-08T09:57:36.000Z</time>
      </trkpt>
      <trkpt lat="45.02423" lon="5.50518">
        <ele>1252.5999755859</ele>
        <time>2012-07-08T09:57:40.000Z</time>
      </trkpt>
      <trkpt lat="45.02423" lon="5.50524">
        <ele>1253.1999511719</ele>
        <time>2012-07-08T09:57:42.000Z</time>
      </trkpt>
      <trkpt lat="45.0242" lon="5.50539">
        <ele>1248.8000488281</ele>
        <time>2012-07-08T09:57:47.000Z</time>
      </trkpt>
      <trkpt lat="45.02411" lon="5.50557">
        <ele>1246</ele>
        <time>2012-07-08T09:57:53.000Z</time>
      </trkpt>
      <trkpt lat="45.02408" lon="5.50561">
        <ele>1244.4000244141</ele>
        <time>2012-07-08T09:57:56.000Z</time>
      </trkpt>
      <trkpt lat="45.02406" lon="5.50569">
        <ele>1246.8000488281</ele>
        <time>2012-07-08T09:58:02.000Z</time>
      </trkpt>
      <trkpt lat="45.024" lon="5.50581">
        <ele>1246.4000244141</ele>
        <time>2012-07-08T09:58:09.000Z</time>
      </trkpt>
      <trkpt lat="45.024" lon="5.50582">
        <ele>1246</ele>
        <time>2012-07-08T09:58:14.000Z</time>
      </trkpt>
      <trkpt lat="45.024" lon="5.50587">
        <ele>1248.4000244141</ele>
        <time>2012-07-08T09:58:20.000Z</time>
      </trkpt>
      <trkpt lat="45.02401" lon="5.50591">
        <ele>1248.4000244141</ele>
        <time>2012-07-08T09:58:24.000Z</time>
      </trkpt>
      <trkpt lat="45.02401" lon="5.50595">
        <ele>1248.4000244141</ele>
        <time>2012-07-08T09:58:29.000Z</time>
      </trkpt>
      <trkpt lat="45.02401" lon="5.5059">
        <ele>1249.8000488281</ele>
        <time>2012-07-08T09:58:38.000Z</time>
      </trkpt>
      <trkpt lat="45.02396" lon="5.50588">
        <ele>1253.1999511719</ele>
        <time>2012-07-08T09:58:45.000Z</time>
      </trkpt>
      <trkpt lat="45.02395" lon="5.50594">
        <ele>1264.5999755859</ele>
        <time>2012-07-08T09:58:55.000Z</time>
      </trkpt>
      <trkpt lat="45.0239" lon="5.50598">
        <ele>1263.5999755859</ele>
        <time>2012-07-08T09:59:01.000Z</time>
      </trkpt>
      <trkpt lat="45.02387" lon="5.50602">
        <ele>1263.5999755859</ele>
        <time>2012-07-08T09:59:05.000Z</time>
      </trkpt>
      <trkpt lat="45.02379" lon="5.50609">
        <ele>1263.5999755859</ele>
        <time>2012-07-08T09:59:10.000Z</time>
      </trkpt>
      <trkpt lat="45.02377" lon="5.50609">
        <ele>1262.8000488281</ele>
        <time>2012-07-08T09:59:11.000Z</time>
      </trkpt>
      <trkpt lat="45.02371" lon="5.5061">
        <ele>1265.5999755859</ele>
        <time>2012-07-08T09:59:16.000Z</time>
      </trkpt>
      <trkpt lat="45.02371" lon="5.50615">
        <ele>1263.5999755859</ele>
        <time>2012-07-08T09:59:26.000Z</time>
      </trkpt>
      <trkpt lat="45.02369" lon="5.50617">
        <ele>1258.8000488281</ele>
        <time>2012-07-08T09:59:30.000Z</time>
      </trkpt>
      <trkpt lat="45.02368" lon="5.50622">
        <ele>1257</ele>
        <time>2012-07-08T09:59:37.000Z</time>
      </trkpt>
      <trkpt lat="45.02368" lon="5.50623">
        <ele>1256</ele>
        <time>2012-07-08T09:59:38.000Z</time>
      </trkpt>
      <trkpt lat="45.02372" lon="5.50627">
        <ele>1252.5999755859</ele>
        <time>2012-07-08T09:59:41.000Z</time>
      </trkpt>
      <trkpt lat="45.02375" lon="5.50633">
        <ele>1248.8000488281</ele>
        <time>2012-07-08T09:59:45.000Z</time>
      </trkpt>
      <trkpt lat="45.02376" lon="5.50635">
        <ele>1247.8000488281</ele>
        <time>2012-07-08T09:59:53.000Z</time>
      </trkpt>
      <trkpt lat="45.02372" lon="5.5063">
        <ele>1248.8000488281</ele>
        <time>2012-07-08T09:59:59.000Z</time>
      </trkpt>
      <trkpt lat="45.02366" lon="5.50628">
        <ele>1250.8000488281</ele>
        <time>2012-07-08T10:00:05.000Z</time>
      </trkpt>
      <trkpt lat="45.02365" lon="5.50628">
        <ele>1251.1999511719</ele>
        <time>2012-07-08T10:00:06.000Z</time>
      </trkpt>
      <trkpt lat="45.02357" lon="5.50629">
        <ele>1250.8000488281</ele>
        <time>2012-07-08T10:00:12.000Z</time>
      </trkpt>
      <trkpt lat="45.02353" lon="5.50626">
        <ele>1253.1999511719</ele>
        <time>2012-07-08T10:00:16.000Z</time>
      </trkpt>
      <trkpt lat="45.02347" lon="5.50625">
        <ele>1250.1999511719</ele>
        <time>2012-07-08T10:00:22.000Z</time>
      </trkpt>
      <trkpt lat="45.02342" lon="5.50626">
        <ele>1250.8000488281</ele>
        <time>2012-07-08T10:00:27.000Z</time>
      </trkpt>
      <trkpt lat="45.0234" lon="5.50625">
        <ele>1248.8000488281</ele>
        <time>2012-07-08T10:00:29.000Z</time>
      </trkpt>
      <trkpt lat="45.02331" lon="5.50617">
        <ele>1245.4000244141</ele>
        <time>2012-07-08T10:00:34.000Z</time>
      </trkpt>
      <trkpt lat="45.02326" lon="5.50616">
        <ele>1245.4000244141</ele>
        <time>2012-07-08T10:00:37.000Z</time>
      </trkpt>
      <trkpt lat="45.02321" lon="5.50611">
        <ele>1245.4000244141</ele>
        <time>2012-07-08T10:00:40.000Z</time>
      </trkpt>
      <trkpt lat="45.02319" lon="5.50611">
        <ele>1246.4000244141</ele>
        <time>2012-07-08T10:00:42.000Z</time>
      </trkpt>
      <trkpt lat="45.02315" lon="5.50614">
        <ele>1246.4000244141</ele>
        <time>2012-07-08T10:00:47.000Z</time>
      </trkpt>
      <trkpt lat="45.02309" lon="5.50621">
        <ele>1247.4000244141</ele>
        <time>2012-07-08T10:00:51.000Z</time>
      </trkpt>
      <trkpt lat="45.02303" lon="5.50624">
        <ele>1247.4000244141</ele>
        <time>2012-07-08T10:00:53.000Z</time>
      </trkpt>
      <trkpt lat="45.023" lon="5.50626">
        <ele>1247.4000244141</ele>
        <time>2012-07-08T10:00:58.000Z</time>
      </trkpt>
      <trkpt lat="45.02296" lon="5.5063">
        <ele>1247.8000488281</ele>
        <time>2012-07-08T10:01:01.000Z</time>
      </trkpt>
      <trkpt lat="45.02289" lon="5.50647">
        <ele>1246.8000488281</ele>
        <time>2012-07-08T10:01:06.000Z</time>
      </trkpt>
      <trkpt lat="45.02281" lon="5.50663">
        <ele>1245.4000244141</ele>
        <time>2012-07-08T10:01:10.000Z</time>
      </trkpt>
      <trkpt lat="45.0227" lon="5.50664">
        <ele>1242.5999755859</ele>
        <time>2012-07-08T10:01:13.000Z</time>
      </trkpt>
      <trkpt lat="45.02254" lon="5.50643">
        <ele>1239.1999511719</ele>
        <time>2012-07-08T10:01:19.000Z</time>
      </trkpt>
      <trkpt lat="45.02249" lon="5.50634">
        <ele>1235.8000488281</ele>
        <time>2012-07-08T10:01:22.000Z</time>
      </trkpt>
      <trkpt lat="45.02242" lon="5.50625">
        <ele>1236.1999511719</ele>
        <time>2012-07-08T10:01:26.000Z</time>
      </trkpt>
      <trkpt lat="45.0223" lon="5.50614">
        <ele>1233</ele>
        <time>2012-07-08T10:01:33.000Z</time>
      </trkpt>
      <trkpt lat="45.02221" lon="5.5061">
        <ele>1233</ele>
        <time>2012-07-08T10:01:36.000Z</time>
      </trkpt>
      <trkpt lat="45.02203" lon="5.50608">
        <ele>1228.1999511719</ele>
        <time>2012-07-08T10:01:41.000Z</time>
      </trkpt>
      <trkpt lat="45.02197" lon="5.50601">
        <ele>1227.5999755859</ele>
        <time>2012-07-08T10:01:44.000Z</time>
      </trkpt>
      <trkpt lat="45.02195" lon="5.50594">
        <ele>1226.5999755859</ele>
        <time>2012-07-08T10:01:46.000Z</time>
      </trkpt>
      <trkpt lat="45.02194" lon="5.50587">
        <ele>1226.5999755859</ele>
        <time>2012-07-08T10:01:48.000Z</time>
      </trkpt>
      <trkpt lat="45.02181" lon="5.50575">
        <ele>1229.5999755859</ele>
        <time>2012-07-08T10:01:53.000Z</time>
      </trkpt>
      <trkpt lat="45.02166" lon="5.50566">
        <ele>1228.5999755859</ele>
        <time>2012-07-08T10:01:57.000Z</time>
      </trkpt>
      <trkpt lat="45.02155" lon="5.50559">
        <ele>1228.5999755859</ele>
        <time>2012-07-08T10:02:00.000Z</time>
      </trkpt>
      <trkpt lat="45.02139" lon="5.50545">
        <ele>1231</ele>
        <time>2012-07-08T10:02:05.000Z</time>
      </trkpt>
      <trkpt lat="45.02134" lon="5.50537">
        <ele>1229.5999755859</ele>
        <time>2012-07-08T10:02:08.000Z</time>
      </trkpt>
      <trkpt lat="45.02133" lon="5.5054">
        <ele>1228.5999755859</ele>
        <time>2012-07-08T10:02:09.000Z</time>
      </trkpt>
      <trkpt lat="45.02123" lon="5.50572">
        <ele>1220.4000244141</ele>
        <time>2012-07-08T10:02:15.000Z</time>
      </trkpt>
      <trkpt lat="45.02118" lon="5.5059">
        <ele>1217</ele>
        <time>2012-07-08T10:02:18.000Z</time>
      </trkpt>
      <trkpt lat="45.02115" lon="5.50596">
        <ele>1215.1999511719</ele>
        <time>2012-07-08T10:02:19.000Z</time>
      </trkpt>
      <trkpt lat="45.02105" lon="5.50623">
        <ele>1209.4000244141</ele>
        <time>2012-07-08T10:02:24.000Z</time>
      </trkpt>
      <trkpt lat="45.02103" lon="5.50629">
        <ele>1207.4000244141</ele>
        <time>2012-07-08T10:02:27.000Z</time>
      </trkpt>
      <trkpt lat="45.02102" lon="5.50628">
        <ele>1207.4000244141</ele>
        <time>2012-07-08T10:02:33.000Z</time>
      </trkpt>
      <trkpt lat="45.02104" lon="5.50634">
        <ele>1217.5999755859</ele>
        <time>2012-07-08T10:02:41.000Z</time>
      </trkpt>
      <trkpt lat="45.02103" lon="5.50635">
        <ele>1216.5999755859</ele>
        <time>2012-07-08T10:02:48.000Z</time>
      </trkpt>
      <trkpt lat="45.02101" lon="5.50631">
        <ele>1216.1999511719</ele>
        <time>2012-07-08T10:03:01.000Z</time>
      </trkpt>
    </trkseg>
  </trk>
</gpx>